Provisional Data: Snake Creek near Lawsville Center, PA


Please select a monitoring station.
Please select start date.
Please select start date.

Toggle Unit: C/F Toggle Unit: C/F
Sample Time Temperature (C) Temperature (F) Specific Conductivity (mS/cm) pH   Turbidity (NTU+) DO (mg/L)
8/1/2022 12:00:00 AM 21.11 69.998 0.133 6.8 3.15 6.25
8/1/2022 12:15:00 AM 21.06 69.908 0.133 6.8 4.37 6.2
8/1/2022 12:30:00 AM 21.01 69.818 0.134 6.8 3.4 6.16
8/1/2022 12:45:00 AM 20.97 69.746 0.134 6.8 3.11 6.13
8/1/2022 1:00:00 AM 20.92 69.656 0.134 6.8 3.11 6.11
8/1/2022 1:15:00 AM 20.88 69.584 0.134 6.79 3.08 6.07
8/1/2022 1:30:00 AM 20.85 69.53 0.134 6.79 3.97 6.04
8/1/2022 1:45:00 AM 20.81 69.458 0.134 6.79 3.29 6.01
8/1/2022 2:00:00 AM 20.77 69.386 0.134 6.79 3.73 5.98
8/1/2022 2:15:00 AM 20.74 69.332 0.134 6.78 3.44 5.94
8/1/2022 2:30:00 AM 20.71 69.278 0.134 6.69 5.08 5.89
8/1/2022 2:45:00 AM 20.69 69.242 0.134 6.77 6.35 5.84
8/1/2022 3:00:00 AM 20.63 69.134 0.134 6.77 6.09 5.83
8/1/2022 3:15:00 AM 20.6 69.08 0.135 6.78 7.97 5.81
8/1/2022 3:30:00 AM 20.57 69.026 0.134 6.72 8.41 5.77
8/1/2022 3:45:00 AM 20.56 69.008 0.135 6.78 6.78 5.72
8/1/2022 4:00:00 AM 20.49 68.882 0.135 6.77 5.16 5.77
8/1/2022 4:15:00 AM 20.46 68.828 0.135 6.77 5.57 5.74
8/1/2022 4:30:00 AM 20.45 68.81 0.135 6.77 7.13 5.71
8/1/2022 4:45:00 AM 20.41 68.738 0.135 6.77 7.9 5.69
8/1/2022 5:00:00 AM 20.36 68.648 0.135 6.77 5.22 5.73
8/1/2022 5:15:00 AM 20.34 68.612 0.135 6.78 5.89 5.7
8/1/2022 5:30:00 AM 20.29 68.522 0.135 6.68 4.27 5.71
8/1/2022 5:45:00 AM 20.26 68.468 0.135 6.78 4.76 5.69
8/1/2022 6:00:00 AM 20.22 68.396 0.135 6.78 5.26 5.7
8/1/2022 6:15:00 AM 20.2 68.36 0.135 6.77 6.42 5.66
8/1/2022 6:30:00 AM 20.15 68.27 0.135 6.78 6.73 5.68
8/1/2022 6:45:00 AM 20.11 68.198 0.135 6.78 6.1 5.73
8/1/2022 7:00:00 AM 20.1 68.18 0.135 6.78 7.08 5.69
8/1/2022 7:15:00 AM 20.06 68.108 0.135 6.68 6.03 5.74
8/1/2022 7:30:00 AM 20.03 68.054 0.135 6.79 5.34 5.79
8/1/2022 7:45:00 AM 20.02 68.036 0.135 6.78 6.14 5.77
8/1/2022 8:00:00 AM 20.03 68.054 0.135 6.78 4.91 5.75
8/1/2022 8:15:00 AM 20.01 68.018 0.135 6.78 4.85 5.84
8/1/2022 8:30:00 AM 20.07 68.126 0.135 6.77 3.86 5.78
8/1/2022 8:45:00 AM 20.07 68.126 0.135 6.78 3.77 5.84
8/1/2022 9:00:00 AM 20.08 68.144 0.135 6.79 3.36 5.95
8/1/2022 9:15:00 AM 20.11 68.198 0.135 6.8 3.11 6.05
8/1/2022 9:30:00 AM 20.2 68.36 0.135 6.84 2.31 6.38
8/1/2022 9:45:00 AM 20.32 68.576 0.135 6.81 1.98 6.39
8/1/2022 10:00:00 AM 20.33 68.594 0.135 6.84 2.09 6.62
8/1/2022 10:15:00 AM 20.45 68.81 0.135 6.87 2.04 6.89
8/1/2022 10:30:00 AM 20.49 68.882 0.135 6.92 2.19 7.27
8/1/2022 10:45:00 AM 20.72 69.296 0.135 6.9 2.04 7.55
8/1/2022 11:00:00 AM 20.87 69.566 0.134 6.95 2.03 7.57
8/1/2022 11:15:00 AM 21.01 69.818 0.134 6.99 2.08 7.86
8/1/2022 11:30:00 AM 21.05 69.89 0.134 7 2.21 7.92
8/1/2022 11:45:00 AM 21.26 70.268 0.134 7.01 2.06 8.16
8/1/2022 12:00:00 PM 21.33 70.394 0.134 7.03 2.03 8.21
8/1/2022 12:15:00 PM 21.45 70.61 0.134 7.01 1.97 8.19
8/1/2022 12:30:00 PM 21.69 71.042 0.134 7.02 1.98 8.25
8/1/2022 12:45:00 PM 22.02 71.636 0.134 7.05 1.99 8.43
8/1/2022 1:00:00 PM 22.21 71.978 0.134 7.05 1.94 8.46
8/1/2022 1:15:00 PM 22.51 72.518 0.134 7.05 2 8.53
8/1/2022 1:30:00 PM 22.81 73.058 0.133 7.06 2.05 8.6
8/1/2022 1:45:00 PM 23.28 73.904 0.134 7.09 1.93 8.7
8/1/2022 2:00:00 PM 23.4 74.12 0.133 7.02 2.01 8.78
8/1/2022 2:15:00 PM 23.61 74.498 0.133 7.12 2.01 8.84
8/1/2022 2:30:00 PM 23.72 74.696 0.133 7.12 1.95 8.84
8/1/2022 2:45:00 PM 23.87 74.966 0.133 7.14 2.09 8.87
8/1/2022 3:00:00 PM 24.11 75.398 0.133 7.14 2 8.89
8/1/2022 3:15:00 PM 24.31 75.758 0.133 7.15 2.32 8.91
8/1/2022 3:30:00 PM 24.46 76.028 0.133 7.14 2.08 8.93
8/1/2022 3:45:00 PM 24.6 76.28 0.133 7.14 2.1 8.95
8/1/2022 4:00:00 PM 24.63 76.334 0.133 7.15 2.19 9.01
8/1/2022 4:15:00 PM 24.85 76.73 0.133 7.15 2.23 8.96
8/1/2022 4:30:00 PM 24.84 76.712 0.133 7.15 2.15 8.94
8/1/2022 4:45:00 PM 24.76 76.568 0.132 7.15 2.38 8.97
8/1/2022 5:00:00 PM 24.73 76.514 0.132 7.15 2.22 8.94
8/1/2022 5:15:00 PM 24.66 76.388 0.132 7.16 2.33 8.9
8/1/2022 5:30:00 PM 24.71 76.478 0.132 7.16 2.21 8.84
8/1/2022 5:45:00 PM 24.61 76.298 0.132 7.13 2.24 8.76
8/1/2022 6:00:00 PM 24.61 76.298 0.132 7.08 2.43 8.73
8/1/2022 6:15:00 PM 24.59 76.262 0.132 7.13 2.31 8.66
8/1/2022 6:30:00 PM 24.52 76.136 0.132 7.12 2.43 8.59
8/1/2022 6:45:00 PM 24.38 75.884 0.132 7.11 2.37 8.47
8/1/2022 7:00:00 PM 24.23 75.614 0.132 7.08 2.6 8.35
8/1/2022 7:15:00 PM 24.13 75.434 0.132 7.03 2.41 8.22
8/1/2022 7:30:00 PM 24.07 75.326 0.132 7.06 2.35 8.13
8/1/2022 7:45:00 PM 23.97 75.146 0.132 7.04 2.41 7.99
8/1/2022 8:00:00 PM 23.84 74.912 0.132 7.01 2.42 7.84
8/1/2022 8:15:00 PM 23.75 74.75 0.132 6.98 2.37 7.69
8/1/2022 8:30:00 PM 23.65 74.57 0.132 6.96 2.83 7.52
8/1/2022 8:45:00 PM 23.54 74.372 0.132 6.93 3.89 7.33
8/1/2022 9:00:00 PM 23.44 74.192 0.132 6.92 3.45 7.18
8/1/2022 9:15:00 PM 23.34 74.012 0.132 6.89 3.41 7
8/1/2022 9:30:00 PM 23.23 73.814 0.132 6.79 3.28 6.86
8/1/2022 9:45:00 PM 23.15 73.67 0.133 6.87 3.24 6.72
8/1/2022 10:00:00 PM 23.05 73.49 0.133 6.85 3.01 6.55
8/1/2022 10:15:00 PM 22.96 73.328 0.133 6.83 3.15 6.4
8/1/2022 10:30:00 PM 22.88 73.184 0.133 6.82 3.28 6.27
8/1/2022 10:45:00 PM 22.77 72.986 0.133 6.8 3.11 6.15
8/1/2022 11:00:00 PM 22.69 72.842 0.133 6.79 3.57 6.01
8/1/2022 11:15:00 PM 22.6 72.68 0.133 6.78 3.54 5.91
8/1/2022 11:30:00 PM 22.52 72.536 0.134 6.77 3.31 5.83
8/1/2022 11:45:00 PM 22.48 72.464 0.134 6.75 6.68 5.78
8/2/2022 12:00:00 AM 22.37 72.266 0.134 6.76 4.07 5.7
8/2/2022 12:15:00 AM 22.27 72.086 0.134 6.75 4.21 5.61
8/2/2022 12:30:00 AM 22.19 71.942 0.134 6.76 4.44 5.61
8/2/2022 12:45:00 AM 22.14 71.852 0.134 6.74 4.51 5.52
8/2/2022 1:00:00 AM 22.11 71.798 0.134 6.73 12.38 5.44
8/2/2022 1:15:00 AM 22.01 71.618 0.135 6.74 7.04 5.43
8/2/2022 1:30:00 AM 21.95 71.51 0.135 6.74 7.21 5.37
8/2/2022 1:45:00 AM 21.87 71.366 0.135 6.73 5.38 5.35
8/2/2022 2:00:00 AM 21.79 71.222 0.135 6.66 4.03 5.35
8/2/2022 2:15:00 AM 21.72 71.096 0.135 6.75 3.53 5.35
8/2/2022 2:30:00 AM 21.65 70.97 0.135 6.74 3.84 5.31
8/2/2022 2:45:00 AM 21.59 70.862 0.136 6.74 4.07 5.32
8/2/2022 3:00:00 AM 21.53 70.754 0.136 6.75 6.58 5.33
8/2/2022 3:15:00 AM 21.47 70.646 0.136 6.75 4.75 5.32
8/2/2022 3:30:00 AM 21.38 70.484 0.136 6.68 4.2 5.34
8/2/2022 3:45:00 AM 21.32 70.376 0.136 6.75 3.87 5.34
8/2/2022 4:00:00 AM 21.25 70.25 0.136 6.75 4.09 5.33
8/2/2022 4:15:00 AM 21.2 70.16 0.136 6.75 5.18 5.32
8/2/2022 4:30:00 AM 21.12 70.016 0.136 6.65 4.25 5.31
8/2/2022 4:45:00 AM 21.05 69.89 0.136 6.76 4.88 5.34
8/2/2022 5:00:00 AM 21.02 69.836 0.136 6.75 4.33 5.32
8/2/2022 5:15:00 AM 20.94 69.692 0.136 6.75 3.87 5.35
8/2/2022 5:30:00 AM 20.9 69.62 0.136 6.74 7.09 5.31
8/2/2022 5:45:00 AM 20.84 69.512 0.136 6.75 7.15 5.29
8/2/2022 6:00:00 AM 20.8 69.44 0.136 6.74 7.08 5.29
8/2/2022 6:15:00 AM 20.74 69.332 0.136 6.74 5.79 5.33
8/2/2022 6:30:00 AM 20.66 69.188 0.136 6.75 3.35 5.38
8/2/2022 6:45:00 AM 20.63 69.134 0.136 6.75 3.24 5.38
8/2/2022 7:00:00 AM 20.59 69.062 0.136 6.74 3.51 5.37
8/2/2022 7:15:00 AM 20.59 69.062 0.136 6.69 4.69 5.35
8/2/2022 7:30:00 AM 20.58 69.044 0.136 6.73 8.46 5.26
8/2/2022 7:45:00 AM 20.55 68.99 0.136 6.73 4.16 5.34
8/2/2022 8:00:00 AM 20.54 68.972 0.136 6.75 4.21 5.41
8/2/2022 8:15:00 AM 20.58 69.044 0.136 6.74 4.14 5.37
8/2/2022 8:30:00 AM 20.64 69.152 0.136 6.75 3.95 5.42
8/2/2022 8:45:00 AM 20.7 69.26 0.136 6.75 3.77 5.5
8/2/2022 9:00:00 AM 20.73 69.314 0.136 6.77 3.09 5.65
8/2/2022 9:15:00 AM 20.81 69.458 0.136 6.79 2.36 5.83
8/2/2022 9:30:00 AM 20.82 69.476 0.136 6.71 2.44 5.95
8/2/2022 9:45:00 AM 20.77 69.386 0.136 6.82 2.5 6.09
8/2/2022 10:00:00 AM 20.87 69.566 0.136 6.82 2.53 6.09
8/2/2022 10:15:00 AM 20.9 69.62 0.136 6.82 2.39 6.23
8/2/2022 10:30:00 AM 20.88 69.584 0.136 6.83 2.39 6.32
8/2/2022 10:45:00 AM 21.03 69.854 0.135 6.84 2.05 6.49
8/2/2022 11:00:00 AM 21.08 69.944 0.135 6.86 2.09 6.67
8/2/2022 11:15:00 AM 21.38 70.484 0.135 6.85 1.88 6.7
8/2/2022 11:30:00 AM 21.5 70.7 0.135 6.85 1.8 6.83
8/2/2022 11:45:00 AM 21.59 70.862 0.135 6.87 1.81 6.9
8/2/2022 12:00:00 PM 21.62 70.916 0.135 6.93 2.1 7.27
8/2/2022 12:15:00 PM 21.9 71.42 0.135 6.93 1.9 7.43
8/2/2022 12:30:00 PM 21.98 71.564 0.135 6.97 1.86 7.69
8/2/2022 12:45:00 PM 22.16 71.888 0.134 7 1.89 7.96
8/2/2022 1:00:00 PM 22.15 71.87 0.134 7.02 1.91 7.98
8/2/2022 1:15:00 PM 22.35 72.23 0.134 6.99 1.9 7.93
8/2/2022 1:30:00 PM 22.68 72.824 0.134 7.02 1.9 8.08
8/2/2022 1:45:00 PM 23.09 73.562 0.134 7.05 1.86 8.22
8/2/2022 2:00:00 PM 23.06 73.508 0.134 7.03 1.92 8.22
8/2/2022 2:15:00 PM 23.06 73.508 0.134 6.99 1.84 8.16
8/2/2022 2:30:00 PM 23.15 73.67 0.134 7.02 1.97 8.27
8/2/2022 2:45:00 PM 23.54 74.372 0.134 7.04 1.91 8.28
8/2/2022 3:00:00 PM 23.62 74.516 0.134 7.03 2.04 8.28
8/2/2022 3:15:00 PM 23.85 74.93 0.134 7.08 1.83 8.4
8/2/2022 3:30:00 PM 23.75 74.75 0.134 7.04 2 8.43
8/2/2022 3:45:00 PM 24.04 75.272 0.134 7.04 2.05 8.37
8/2/2022 4:00:00 PM 24.05 75.29 0.133 7.03 1.99 8.43
8/2/2022 4:15:00 PM 24.11 75.398 0.133 7.02 2.1 8.46
8/2/2022 4:30:00 PM 24.26 75.668 0.133 7.01 2.12 8.43
8/2/2022 4:45:00 PM 24.18 75.524 0.133 7.03 2.03 8.45
8/2/2022 5:00:00 PM 24.13 75.434 0.133 7.03 2.14 8.5
8/2/2022 5:15:00 PM 24.09 75.362 0.133 7.02 2.03 8.49
8/2/2022 5:30:00 PM 24.08 75.344 0.133 7.03 2.04 8.44
8/2/2022 5:45:00 PM 24.03 75.254 0.133 7.02 2.07 8.43
8/2/2022 6:00:00 PM 23.97 75.146 0.133 7.02 2.06 8.39
8/2/2022 6:15:00 PM 23.94 75.092 0.132 7.01 2.17 8.34
8/2/2022 6:30:00 PM 23.9 75.02 0.132 7.01 2.08 8.27
8/2/2022 6:45:00 PM 23.85 74.93 0.132 7.01 2.16 8.2
8/2/2022 7:00:00 PM 23.69 74.642 0.132 6.99 2.16 8.12
8/2/2022 7:15:00 PM 23.53 74.354 0.132 6.98 2.21 8.02
8/2/2022 7:30:00 PM 23.43 74.174 0.132 6.97 2.19 7.87
8/2/2022 7:45:00 PM 23.33 73.994 0.132 6.95 2.23 7.79
8/2/2022 8:00:00 PM 23.26 73.868 0.132 6.94 2.33 7.69
8/2/2022 8:15:00 PM 23.18 73.724 0.132 6.91 2.58 7.6
8/2/2022 8:30:00 PM 23.1 73.58 0.132 6.93 3.85 7.52
8/2/2022 8:45:00 PM 23 73.4 0.133 6.91 2.81 7.39
8/2/2022 9:00:00 PM 22.92 73.256 0.133 6.8 3.41 7.3
8/2/2022 9:15:00 PM 22.83 73.094 0.133 6.83 3.08 7.19
8/2/2022 9:30:00 PM 22.74 72.932 0.133 6.86 3.39 7.04
8/2/2022 9:45:00 PM 22.66 72.788 0.133 6.85 3.24 6.86
8/2/2022 10:00:00 PM 22.58 72.644 0.133 6.82 3.48 6.71
8/2/2022 10:15:00 PM 22.49 72.482 0.133 6.72 3.84 6.56
8/2/2022 10:30:00 PM 22.4 72.32 0.133 6.75 3.21 6.41
8/2/2022 10:45:00 PM 22.33 72.194 0.133 6.72 3.6 6.31
8/2/2022 11:00:00 PM 22.23 72.014 0.133 6.77 3.53 6.16
8/2/2022 11:15:00 PM 22.16 71.888 0.133 6.76 4.46 6.09
8/2/2022 11:30:00 PM 22.06 71.708 0.134 6.75 5.01 5.97
8/2/2022 11:45:00 PM 21.98 71.564 0.134 6.74 5.78 5.85
8/3/2022 12:00:00 AM 21.89 71.402 0.134 6.73 4.43 5.77
8/3/2022 12:15:00 AM 21.81 71.258 0.134 6.73 4.29 5.71
8/3/2022 12:30:00 AM 21.73 71.114 0.134 6.73 2.98 5.66
8/3/2022 12:45:00 AM 21.65 70.97 0.134 6.72 3.82 5.57
8/3/2022 1:00:00 AM 21.58 70.844 0.134 6.71 3.58 5.48
8/3/2022 1:15:00 AM 21.5 70.7 0.134 6.71 3.47 5.52
8/3/2022 1:30:00 AM 21.44 70.592 0.135 6.71 3.66 5.5
8/3/2022 1:45:00 AM 21.34 70.412 0.135 6.69 3.55 5.46
8/3/2022 2:00:00 AM 21.28 70.304 0.135 6.71 3.67 5.42
8/3/2022 2:15:00 AM 21.19 70.142 0.135 6.71 6.29 5.43
8/3/2022 2:30:00 AM 21.15 70.07 0.135 6.71 8.19 5.37
8/3/2022 2:45:00 AM 21.05 69.89 0.135 6.71 6.08 5.36
8/3/2022 3:00:00 AM 20.96 69.728 0.135 6.71 4.26 5.35
8/3/2022 3:15:00 AM 20.88 69.584 0.135 6.71 3.93 5.34
8/3/2022 3:30:00 AM 20.81 69.458 0.135 6.7 4.3 5.29
8/3/2022 3:45:00 AM 20.73 69.314 0.135 6.7 12.78 5.29
8/3/2022 4:00:00 AM 20.67 69.206 0.135 6.71 7.72 5.29
8/3/2022 4:15:00 AM 20.58 69.044 0.135 6.63 8.74 5.28
8/3/2022 4:30:00 AM 20.53 68.954 0.135 6.7 8.9 5.26
8/3/2022 4:45:00 AM 20.45 68.81 0.136 6.7 6.96 5.27
8/3/2022 5:00:00 AM 20.38 68.684 0.136 6.71 5.84 5.27
8/3/2022 5:15:00 AM 20.32 68.576 0.136 6.63 5.84 5.27
8/3/2022 5:30:00 AM 20.21 68.378 0.136 6.71 4.54 5.31
8/3/2022 5:45:00 AM 20.18 68.324 0.136 6.7 6.79 5.23
8/3/2022 6:00:00 AM 20.1 68.18 0.136 6.7 5.84 5.23
8/3/2022 6:15:00 AM 20.03 68.054 0.136 6.71 4.29 5.27
8/3/2022 6:30:00 AM 19.96 67.92799 0.136 6.71 3.83 5.3
8/3/2022 6:45:00 AM 19.9 67.82 0.136 6.69 3.55 5.33
8/3/2022 7:00:00 AM 19.84 67.712 0.136 6.68 3.27 5.33
8/3/2022 7:15:00 AM 19.79 67.622 0.136 6.71 3.96 5.33
8/3/2022 7:30:00 AM 19.75 67.55 0.136 6.68 4.24 5.34
8/3/2022 7:45:00 AM 19.7 67.46 0.136 6.68 4.16 5.41
8/3/2022 8:00:00 AM 19.69 67.442 0.136 6.71 3.53 5.43
8/3/2022 8:15:00 AM 19.67 67.406 0.136 6.71 3.56 5.44
8/3/2022 8:30:00 AM 19.71 67.478 0.136 6.72 3.1 5.51
8/3/2022 8:45:00 AM 19.75 67.55 0.136 6.71 2.93 5.48
8/3/2022 9:00:00 AM 19.85 67.73 0.136 6.7 2.65 5.49
8/3/2022 9:15:00 AM 19.82 67.676 0.136 6.71 2.86 5.49
8/3/2022 9:30:00 AM 19.92 67.856 0.135 6.7 2.65 5.44
8/3/2022 9:45:00 AM 19.97 67.946 0.135 6.71 2.39 5.57
8/3/2022 10:00:00 AM 20.17 68.306 0.135 6.72 2.09 5.8
8/3/2022 10:15:00 AM 20.24 68.432 0.135 6.75 2 6.1
8/3/2022 10:30:00 AM 20.43 68.774 0.135 6.76 1.97 6.29
8/3/2022 10:45:00 AM 20.51 68.918 0.135 6.81 1.97 6.61
8/3/2022 11:00:00 AM 20.57 69.026 0.135 6.81 2 6.68
8/3/2022 11:15:00 AM 20.71 69.278 0.135 6.83 2.03 6.82
8/3/2022 11:30:00 AM 20.92 69.656 0.135 6.81 1.91 6.77
8/3/2022 11:45:00 AM 20.92 69.656 0.135 6.85 1.97 7.08
8/3/2022 12:00:00 PM 21.15 70.07 0.135 6.9 1.93 7.39
8/3/2022 12:15:00 PM 21.43 70.574 0.135 6.92 1.99 7.5
8/3/2022 12:30:00 PM 21.61 70.898 0.134 6.87 2.03 7.34
8/3/2022 12:45:00 PM 22.17 71.906 0.134 6.8 1.86 7.28
8/3/2022 1:00:00 PM 22.01 71.618 0.134 6.94 2.03 7.82
8/3/2022 1:15:00 PM 22.36 72.248 0.134 6.95 1.93 7.97
8/3/2022 1:30:00 PM 22.66 72.788 0.134 6.96 1.99 8.11
8/3/2022 1:45:00 PM 22.94 73.292 0.134 6.96 2.04 8.17
8/3/2022 2:00:00 PM 23.2 73.76 0.134 6.96 1.86 8.2
8/3/2022 2:15:00 PM 23.63 74.534 0.134 6.98 1.82 8.4
8/3/2022 2:30:00 PM 23.62 74.516 0.134 6.94 1.87 8.42
8/3/2022 2:45:00 PM 23.75 74.75 0.134 7 1.93 8.41
8/3/2022 3:00:00 PM 23.81 74.858 0.134 6.95 1.98 8.33
8/3/2022 3:15:00 PM 24.1 75.38 0.134 7 1.96 8.51
8/3/2022 3:30:00 PM 24.35 75.83 0.134 6.99 1.94 8.47
8/3/2022 3:45:00 PM 24.26 75.668 0.134 6.91 2.12 8.49
8/3/2022 4:00:00 PM 24.32 75.776 0.133 6.94 2.14 8.49
8/3/2022 4:15:00 PM 24.35 75.83 0.133 6.95 2.12 8.53
8/3/2022 4:30:00 PM 24.41 75.938 0.133 6.96 1.99 8.54
8/3/2022 4:45:00 PM 24.47 76.046 0.133 6.97 2.04 8.54
8/3/2022 5:00:00 PM 24.64 76.352 0.133 6.99 1.98 8.57
8/3/2022 5:15:00 PM 24.43 75.974 0.133 6.98 2.05 8.61
8/3/2022 5:30:00 PM 24.33 75.794 0.133 7.03 1.92 8.66
8/3/2022 5:45:00 PM 24.32 75.776 0.132 7.02 1.88 8.63
8/3/2022 6:00:00 PM 24.23 75.614 0.132 7 1.95 8.57
8/3/2022 6:15:00 PM 24.14 75.452 0.132 7 2.02 8.53
8/3/2022 6:30:00 PM 24.06 75.308 0.132 6.98 1.93 8.39
8/3/2022 6:45:00 PM 23.99 75.182 0.132 6.96 1.99 8.38
8/3/2022 7:00:00 PM 23.88 74.984 0.132 6.97 1.93 8.28
8/3/2022 7:15:00 PM 23.81 74.858 0.132 6.96 1.97 8.24
8/3/2022 7:30:00 PM 23.71 74.67799 0.132 6.94 1.97 8.06
8/3/2022 7:45:00 PM 23.66 74.588 0.132 6.93 1.97 8.01
8/3/2022 8:00:00 PM 23.57 74.426 0.133 6.91 2.1 7.89
8/3/2022 8:15:00 PM 23.48 74.264 0.132 6.91 2.29 7.72
8/3/2022 8:30:00 PM 23.34 74.012 0.132 6.88 2.4 7.53
8/3/2022 8:45:00 PM 23.24 73.832 0.133 6.86 3.37 7.39
8/3/2022 9:00:00 PM 23.16 73.688 0.133 6.85 3.55 7.23
8/3/2022 9:15:00 PM 23.03 73.454 0.133 6.82 2.86 7.09
8/3/2022 9:30:00 PM 22.95 73.31 0.133 6.79 2.78 6.94
8/3/2022 9:45:00 PM 22.86 73.148 0.133 6.81 2.98 6.78
8/3/2022 10:00:00 PM 22.78 73.004 0.133 6.81 2.43 6.68
8/3/2022 10:15:00 PM 22.68 72.824 0.133 6.79 2.91 6.58
8/3/2022 10:30:00 PM 22.63 72.734 0.133 6.78 3.09 6.49
8/3/2022 10:45:00 PM 22.52 72.536 0.133 6.77 3.48 6.34
8/3/2022 11:00:00 PM 22.42 72.356 0.133 6.75 2.96 6.19
8/3/2022 11:15:00 PM 22.35 72.23 0.133 6.74 3.17 6.08
8/3/2022 11:30:00 PM 22.28 72.104 0.133 6.74 2.97 6.02
8/3/2022 11:45:00 PM 22.18 71.924 0.133 6.7 2.55 5.9
8/4/2022 12:00:00 AM 22.1 71.78 0.133 6.72 3.16 5.81
8/4/2022 12:15:00 AM 22.03 71.654 0.133 6.71 2.81 5.68
8/4/2022 12:30:00 AM 21.96 71.528 0.134 6.7 3.15 5.59
8/4/2022 12:45:00 AM 21.89 71.402 0.134 6.71 3.86 5.56
8/4/2022 1:00:00 AM 21.82 71.276 0.134 6.69 6.63 5.46
8/4/2022 1:15:00 AM 21.76 71.168 0.134 6.68 6.52 5.4
8/4/2022 1:30:00 AM 21.69 71.042 0.134 6.68 5.25 5.36
8/4/2022 1:45:00 AM 21.62 70.916 0.134 6.68 4.2 5.33
8/4/2022 2:00:00 AM 21.57 70.826 0.134 6.67 4.4 5.23
8/4/2022 2:15:00 AM 21.5 70.7 0.134 6.68 3.68 5.23
8/4/2022 2:30:00 AM 21.46 70.628 0.134 6.67 3.95 5.17
8/4/2022 2:45:00 AM 21.38 70.484 0.134 6.67 3.41 5.12
8/4/2022 3:00:00 AM 21.31 70.358 0.135 6.67 3.93 5.09
8/4/2022 3:15:00 AM 21.26 70.268 0.135 6.65 3.67 5.05
8/4/2022 3:30:00 AM 21.21 70.17799 0.135 6.67 3.9 5.06
8/4/2022 3:45:00 AM 21.17 70.106 0.135 6.67 3.69 5.02
8/4/2022 4:00:00 AM 21.08 69.944 0.135 6.68 3.13 5.05
8/4/2022 4:15:00 AM 21.06 69.908 0.135 6.67 3.94 4.98
8/4/2022 4:30:00 AM 21.01 69.818 0.135 6.65 3.3 4.95
8/4/2022 4:45:00 AM 20.95 69.71 0.135 6.67 3.27 4.92
8/4/2022 5:00:00 AM 20.89 69.602 0.135 6.66 3.96 4.87
8/4/2022 5:15:00 AM 20.85 69.53 0.136 6.66 5.03 4.84
8/4/2022 5:30:00 AM 20.8 69.44 0.136 6.66 4.11 4.83
8/4/2022 5:45:00 AM 20.78 69.404 0.135 6.65 5.55 4.75
8/4/2022 6:00:00 AM 20.73 69.314 0.136 6.65 6.24 4.71
8/4/2022 6:15:00 AM 20.66 69.188 0.136 6.65 4.11 4.72
8/4/2022 6:30:00 AM 20.61 69.098 0.136 6.64 4.57 4.75
8/4/2022 6:45:00 AM 20.59 69.062 0.136 6.65 4.96 4.73
8/4/2022 7:00:00 AM 20.56 69.008 0.136 6.5 4.1 4.72
8/4/2022 7:15:00 AM 20.5 68.9 0.136 6.63 3.34 4.73
8/4/2022 7:30:00 AM 20.47 68.846 0.136 6.63 3.81 4.73
8/4/2022 7:45:00 AM 20.49 68.882 0.136 6.63 6.42 4.67
8/4/2022 8:00:00 AM 20.47 68.846 0.136 6.65 5.97 4.75
8/4/2022 8:15:00 AM 20.52 68.936 0.136 6.55 5.11 4.66
8/4/2022 8:30:00 AM 20.54 68.972 0.136 6.64 4.71 4.61
8/4/2022 8:45:00 AM 20.6 69.08 0.136 6.64 4.04 4.63
8/4/2022 9:00:00 AM 20.73 69.314 0.136 6.66 2.88 4.76
8/4/2022 9:15:00 AM 20.69 69.242 0.136 6.63 2.62 4.96
8/4/2022 9:30:00 AM 20.84 69.512 0.136 6.68 2.07 5.08
8/4/2022 9:45:00 AM 20.96 69.728 0.136 6.69 1.87 5.28
8/4/2022 10:00:00 AM 20.98 69.764 0.136 6.7 1.96 5.44
8/4/2022 10:15:00 AM 21.07 69.926 0.136 6.64 2.28 5.6
8/4/2022 10:30:00 AM 21.23 70.214 0.136 6.76 1.89 6.03
8/4/2022 10:45:00 AM 21.43 70.574 0.136 6.77 1.78 6.11
8/4/2022 11:00:00 AM 21.57 70.826 0.136 6.78 1.88 6.23
8/4/2022 11:15:00 AM 21.73 71.114 0.135 6.79 1.84 6.46
8/4/2022 11:30:00 AM 21.88 71.384 0.135 6.79 1.8 6.53
8/4/2022 11:45:00 AM 22.36 72.248 0.135 6.8 1.69 6.81
8/4/2022 12:00:00 PM 22.41 72.338 0.135 6.83 1.7 6.84
8/4/2022 12:15:00 PM 22.65 72.77 0.135 6.84 1.72 6.98
8/4/2022 12:30:00 PM 22.86 73.148 0.135 6.78 1.72 7.19
8/4/2022 12:45:00 PM 23.06 73.508 0.135 6.87 1.83 7.36
8/4/2022 1:00:00 PM 23.19 73.742 0.135 6.86 1.68 7.26
8/4/2022 1:15:00 PM 23.76 74.768 0.134 6.83 1.66 7.52
8/4/2022 1:30:00 PM 23.98 75.164 0.134 6.92 1.76 7.67
8/4/2022 1:45:00 PM 24.83 76.694 0.134 6.97 1.64 7.87
8/4/2022 2:00:00 PM 24.45 76.01 0.134 6.93 1.78 7.86
8/4/2022 2:15:00 PM 24.79 76.622 0.134 6.95 1.69 7.89
8/4/2022 2:30:00 PM 24.53 76.154 0.134 6.93 1.8 7.84
8/4/2022 2:45:00 PM 24.68 76.424 0.134 6.98 1.73 7.97
8/4/2022 3:00:00 PM 24.59 76.262 0.134 6.95 1.72 7.9
8/4/2022 3:15:00 PM 24.4 75.92 0.134 6.91 1.82 7.85
8/4/2022 3:30:00 PM 24.26 75.668 0.134 6.8 1.86 7.75
8/4/2022 3:45:00 PM 24.15 75.47 0.133 6.9 1.7 7.75
8/4/2022 4:00:00 PM 24.05 75.29 0.133 6.91 1.69 7.73
8/4/2022 4:15:00 PM 24.02 75.236 0.133 6.92 1.67 7.71
8/4/2022 4:30:00 PM 23.92 75.056 0.133 6.91 1.73 7.61
8/4/2022 4:45:00 PM 23.82 74.876 0.133 6.88 2.36 7.48
8/4/2022 5:00:00 PM 23.72 74.696 0.133 6.88 1.9 7.34
8/4/2022 5:15:00 PM 23.64 74.552 0.133 6.85 1.95 7.2
8/4/2022 5:30:00 PM 23.56 74.408 0.133 6.85 1.71 7.18
8/4/2022 5:45:00 PM 23.49 74.282 0.133 6.85 1.83 7.2
8/4/2022 6:00:00 PM 23.39 74.102 0.133 6.84 1.81 7.2
8/4/2022 6:15:00 PM 23.31 73.958 0.133 6.83 1.76 7.13
8/4/2022 6:30:00 PM 23.2 73.76 0.133 6.8 1.85 6.97
8/4/2022 6:45:00 PM 23.13 73.634 0.133 6.8 1.76 6.9
8/4/2022 7:00:00 PM 23.04 73.472 0.133 6.78 2.08 6.76
8/4/2022 7:15:00 PM 22.96 73.328 0.133 6.78 1.95 6.57
8/4/2022 7:30:00 PM 22.87 73.166 0.133 6.78 2.04 6.71
8/4/2022 7:45:00 PM 22.79 73.022 0.133 6.77 1.89 6.65
8/4/2022 8:00:00 PM 22.71 72.878 0.133 6.76 1.97 6.59
8/4/2022 8:15:00 PM 22.65 72.77 0.133 6.76 2.15 6.5
8/4/2022 8:30:00 PM 22.57 72.626 0.133 6.75 2.1 6.41
8/4/2022 8:45:00 PM 22.53 72.554 0.133 6.74 2.25 6.33
8/4/2022 9:00:00 PM 22.46 72.42799 0.133 6.73 2.59 6.22
8/4/2022 9:15:00 PM 22.41 72.338 0.133 6.72 2.53 6.09
8/4/2022 9:30:00 PM 22.38 72.284 0.133 6.72 2.67 6.11
8/4/2022 9:45:00 PM 22.33 72.194 0.133 6.72 3.01 6.05
8/4/2022 10:00:00 PM 22.28 72.104 0.133 6.71 3.06 5.99
8/4/2022 10:15:00 PM 22.23 72.014 0.134 6.71 2.86 5.93
8/4/2022 10:30:00 PM 22.18 71.924 0.134 6.65 2.68 5.84
8/4/2022 10:45:00 PM 22.13 71.834 0.134 6.7 2.71 5.79
8/4/2022 11:00:00 PM 22.08 71.744 0.134 6.7 2.66 5.72
8/4/2022 11:15:00 PM 22.02 71.636 0.134 6.7 2.53 5.64
8/4/2022 11:30:00 PM 21.99 71.582 0.134 6.69 3.12 5.59
8/4/2022 11:45:00 PM 21.92 71.456 0.134 6.69 3.72 5.53
8/5/2022 12:00:00 AM 21.89 71.402 0.134 6.67 2.82 5.45
8/5/2022 12:15:00 AM 21.84 71.312 0.134 6.67 2.75 5.38
8/5/2022 12:30:00 AM 21.82 71.276 0.134 6.67 2.7 5.35
8/5/2022 12:45:00 AM 21.78 71.204 0.134 6.67 2.95 5.32
8/5/2022 1:00:00 AM 21.75 71.15 0.135 6.67 2.83 5.28
8/5/2022 1:15:00 AM 21.7 71.06 0.135 6.67 3.27 5.22
8/5/2022 1:30:00 AM 21.66 70.988 0.135 6.66 2.99 5.15
8/5/2022 1:45:00 AM 21.65 70.97 0.135 6.65 3.49 5.07
8/5/2022 2:00:00 AM 21.61 70.898 0.135 6.66 3.06 5.06
8/5/2022 2:15:00 AM 21.56 70.808 0.135 6.66 2.71 5.04
8/5/2022 2:30:00 AM 21.51 70.718 0.135 6.65 2.62 4.99
8/5/2022 2:45:00 AM 21.49 70.682 0.135 6.65 3.07 4.97
8/5/2022 3:00:00 AM 21.45 70.61 0.135 6.65 5.99 4.93
8/5/2022 3:15:00 AM 21.41 70.538 0.135 6.57 3.76 4.89
8/5/2022 3:30:00 AM 21.39 70.502 0.136 6.65 4.4 4.86
8/5/2022 3:45:00 AM 21.33 70.394 0.136 6.66 3.35 4.88
8/5/2022 4:00:00 AM 21.34 70.412 0.135 6.62 8.18 4.8
8/5/2022 4:15:00 AM 21.28 70.304 0.136 6.65 4.37 4.81
8/5/2022 4:30:00 AM 21.22 70.196 0.136 6.65 3.42 4.8
8/5/2022 4:45:00 AM 21.2 70.16 0.136 6.65 6.62 4.78
8/5/2022 5:00:00 AM 21.2 70.16 0.136 6.64 8.14 4.74
8/5/2022 5:15:00 AM 21.15 70.07 0.136 6.65 6.65 4.73
8/5/2022 5:30:00 AM 21.1 69.98 0.136 6.64 3.93 4.73
8/5/2022 5:45:00 AM 21.08 69.944 0.136 6.64 3.63 4.7
8/5/2022 6:00:00 AM 21.03 69.854 0.136 6.64 3.62 4.7
8/5/2022 6:15:00 AM 20.98 69.764 0.136 6.63 3.57 4.68
8/5/2022 6:30:00 AM 20.94 69.692 0.137 6.63 3.47 4.71
8/5/2022 6:45:00 AM 20.92 69.656 0.136 6.63 3.22 4.73
8/5/2022 7:00:00 AM 20.89 69.602 0.137 6.63 3.38 4.74
8/5/2022 7:15:00 AM 20.87 69.566 0.136 6.64 3.39 4.79
8/5/2022 7:30:00 AM 20.84 69.512 0.137 6.65 2.92 4.85
8/5/2022 7:45:00 AM 20.83 69.494 0.137 6.64 3.05 4.83
8/5/2022 8:00:00 AM 20.84 69.512 0.137 6.63 3.19 4.83
8/5/2022 8:15:00 AM 20.84 69.512 0.137 6.65 2.94 4.91
8/5/2022 8:30:00 AM 20.86 69.548 0.137 6.64 2.91 4.95
8/5/2022 8:45:00 AM 20.94 69.692 0.136 6.64 2.72 4.84
8/5/2022 9:00:00 AM 20.94 69.692 0.136 6.58 2.52 4.92
8/5/2022 9:15:00 AM 20.94 69.692 0.136 6.68 2.24 5.14
8/5/2022 9:30:00 AM 21.1 69.98 0.136 6.67 2.13 5.06
8/5/2022 9:45:00 AM 21.27 70.286 0.136 6.69 1.8 5.35
8/5/2022 10:00:00 AM 21.42 70.556 0.136 6.7 1.67 5.6
8/5/2022 10:15:00 AM 21.67 71.006 0.136 6.73 1.67 5.83
8/5/2022 10:30:00 AM 21.73 71.114 0.136 6.8 1.82 6.43
8/5/2022 10:45:00 AM 21.83 71.294 0.136 6.79 2 6.5
8/5/2022 11:00:00 AM 21.89 71.402 0.136 6.81 1.83 6.68
8/5/2022 11:15:00 AM 21.98 71.564 0.136 6.82 1.85 6.81
8/5/2022 11:30:00 AM 22.04 71.672 0.136 6.82 1.68 6.88
8/5/2022 11:45:00 AM 22.04 71.672 0.136 6.83 1.71 6.89
8/5/2022 12:00:00 PM 22.04 71.672 0.136 6.84 1.73 6.97
8/5/2022 12:15:00 PM 22.11 71.798 0.135 6.84 1.73 7.05
8/5/2022 12:30:00 PM 22.08 71.744 0.135 6.87 1.74 7.26
8/5/2022 12:45:00 PM 22.13 71.834 0.135 6.87 1.74 7.41
8/5/2022 1:00:00 PM 22.37 72.266 0.135 6.89 1.7 7.52
8/5/2022 1:15:00 PM 22.42 72.356 0.135 6.9 1.65 7.74
8/5/2022 1:30:00 PM 22.51 72.518 0.135 6.86 1.68 7.82
8/5/2022 1:45:00 PM 22.66 72.788 0.135 6.92 1.65 7.97
8/5/2022 2:00:00 PM 22.89 73.202 0.135 6.92 1.74 8.06
8/5/2022 2:15:00 PM 23.56 74.408 0.135 6.97 1.73 8.18
8/5/2022 2:30:00 PM 23.33 73.994 0.134 6.95 1.78 8.31
8/5/2022 2:45:00 PM 23.58 74.444 0.134 6.87 1.68 8.38
8/5/2022 3:00:00 PM 23.58 74.444 0.134 6.94 1.76 8.35
8/5/2022 3:15:00 PM 23.72 74.696 0.134 6.95 1.7 8.43
8/5/2022 3:30:00 PM 23.68 74.624 0.134 6.96 1.85 8.49
8/5/2022 3:45:00 PM 23.71 74.67799 0.134 6.98 1.73 8.57
8/5/2022 4:00:00 PM 23.77 74.786 0.134 7 1.72 8.7
8/5/2022 4:15:00 PM 23.75 74.75 0.133 6.99 1.7 8.72
8/5/2022 4:30:00 PM 23.83 74.894 0.133 6.99 1.75 8.71
8/5/2022 4:45:00 PM 23.86 74.948 0.134 6.99 1.75 8.69
8/5/2022 5:00:00 PM 23.96 75.128 0.133 7 1.78 8.71
8/5/2022 5:15:00 PM 24.3 75.74 0.133 7.02 1.74 8.77
8/5/2022 5:30:00 PM 24.36 75.848 0.133 7.06 1.81 8.87
8/5/2022 5:45:00 PM 24.18 75.524 0.133 7.02 1.88 8.83
8/5/2022 6:00:00 PM 24.04 75.272 0.133 7.01 1.75 8.76
8/5/2022 6:15:00 PM 23.97 75.146 0.133 7 1.79 8.69
8/5/2022 6:30:00 PM 23.9 75.02 0.133 6.99 1.75 8.64
8/5/2022 6:45:00 PM 23.92 75.056 0.133 6.98 1.75 8.62
8/5/2022 7:00:00 PM 23.84 74.912 0.133 6.96 1.77 8.48
8/5/2022 7:15:00 PM 23.81 74.858 0.133 6.96 1.77 8.36
8/5/2022 7:30:00 PM 23.77 74.786 0.133 6.94 1.81 8.14
8/5/2022 7:45:00 PM 23.72 74.696 0.133 6.92 1.79 7.95
8/5/2022 8:00:00 PM 23.67 74.606 0.133 6.9 1.76 7.83
8/5/2022 8:15:00 PM 23.62 74.516 0.133 6.87 1.99 7.69
8/5/2022 8:30:00 PM 23.6 74.48 0.133 6.88 2.14 7.64
8/5/2022 8:45:00 PM 23.48 74.264 0.133 6.85 2.38 7.4
8/5/2022 9:00:00 PM 23.43 74.174 0.133 6.84 2.52 7.3
8/5/2022 9:15:00 PM 23.35 74.03 0.133 6.82 2.57 7.08
8/5/2022 9:30:00 PM 23.28 73.904 0.133 6.8 2.8 6.92
8/5/2022 9:45:00 PM 23.2 73.76 0.133 6.79 2.81 6.76
8/5/2022 10:00:00 PM 23.13 73.634 0.133 6.78 2.99 6.58
8/5/2022 10:15:00 PM 23.05 73.49 0.134 6.77 3.9 6.41
8/5/2022 10:30:00 PM 22.98 73.364 0.134 6.76 3.76 6.23
8/5/2022 10:45:00 PM 22.92 73.256 0.134 6.74 3.3 6.16
8/5/2022 11:00:00 PM 22.84 73.112 0.134 6.74 3.11 5.91
8/5/2022 11:15:00 PM 22.78 73.004 0.134 6.74 4.04 5.84
8/5/2022 11:30:00 PM 22.7 72.86 0.134 6.72 3.01 5.65
8/5/2022 11:45:00 PM 22.65 72.77 0.134 6.72 2.78 5.64
8/6/2022 12:00:00 AM 22.6 72.68 0.134 6.72 3.27 5.65
8/6/2022 12:15:00 AM 22.53 72.554 0.135 6.72 6.12 5.6
8/6/2022 12:30:00 AM 22.5 72.5 0.134 6.7 397.63 5.54
8/6/2022 12:45:00 AM 22.43 72.374 0.135 6.7 4.37 5.47
8/6/2022 1:00:00 AM 22.36 72.248 0.135 6.7 3.33 5.41
8/6/2022 1:15:00 AM 22.3 72.14 0.135 6.69 2.99 5.33
8/6/2022 1:30:00 AM 22.24 72.032 0.135 6.7 3.42 5.3
8/6/2022 1:45:00 AM 22.19 71.942 0.135 6.7 5.97 5.33
8/6/2022 2:00:00 AM 22.13 71.834 0.135 6.69 5.72 5.28
8/6/2022 2:15:00 AM 22.11 71.798 0.135 6.68 6.19 5.19
8/6/2022 2:30:00 AM 22.03 71.654 0.136 6.68 22.11 5.17
8/6/2022 2:45:00 AM 22 71.6 0.136 6.68 7.24 5.13
8/6/2022 3:00:00 AM 21.96 71.528 0.136 6.68 5.32 5.13
8/6/2022 3:15:00 AM 21.93 71.474 0.136 6.67 6.15 5.08
8/6/2022 3:30:00 AM 21.88 71.384 0.136 6.68 4.49 5.07
8/6/2022 3:45:00 AM 21.86 71.348 0.136 6.67 4.81 5.01
8/6/2022 4:00:00 AM 21.81 71.258 0.136 6.66 3.61 4.98
8/6/2022 4:15:00 AM 21.77 71.186 0.136 6.66 3.93 4.97
8/6/2022 4:30:00 AM 21.74 71.132 0.136 6.65 3.61 4.92
8/6/2022 4:45:00 AM 21.71 71.078 0.137 6.66 3.6 4.92
8/6/2022 5:00:00 AM 21.67 71.006 0.137 6.66 3.38 4.88
8/6/2022 5:15:00 AM 21.63 70.934 0.137 6.66 3.38 4.89
8/6/2022 5:30:00 AM 21.59 70.862 0.137 6.67 5.76 4.89
8/6/2022 5:45:00 AM 21.59 70.862 0.137 6.66 7.31 4.85
8/6/2022 6:00:00 AM 21.53 70.754 0.137 6.66 4.59 4.8
8/6/2022 6:15:00 AM 21.48 70.664 0.137 6.66 4.59 4.8
8/6/2022 6:30:00 AM 21.45 70.61 0.137 6.66 3.95 4.8
8/6/2022 6:45:00 AM 21.41 70.538 0.137 6.65 3.69 4.77
8/6/2022 7:00:00 AM 21.37 70.466 0.137 6.66 3.4 4.8
8/6/2022 7:15:00 AM 21.33 70.394 0.137 6.64 3.39 4.79
8/6/2022 7:30:00 AM 21.33 70.394 0.137 6.64 4.25 4.78
8/6/2022 7:45:00 AM 21.31 70.358 0.137 6.65 4.6 4.79
8/6/2022 8:00:00 AM 21.29 70.32201 0.137 6.65 4.6 4.83
8/6/2022 8:15:00 AM 21.29 70.32201 0.137 6.65 4.61 4.89
8/6/2022 8:30:00 AM 21.26 70.268 0.137 6.68 3 5
8/6/2022 8:45:00 AM 21.25 70.25 0.137 6.67 2.84 5.05
8/6/2022 9:00:00 AM 21.35 70.43 0.137 6.67 3.03 4.91
8/6/2022 9:15:00 AM 21.34 70.412 0.137 6.63 2.73 5.11
8/6/2022 9:30:00 AM 21.38 70.484 0.137 6.69 3.19 5.19
8/6/2022 9:45:00 AM 21.56 70.808 0.137 6.71 4.49 5.42
8/6/2022 10:00:00 AM 21.56 70.808 0.137 6.73 5.1 5.64
8/6/2022 10:15:00 AM 21.76 71.168 0.137 6.75 3.72 5.96
8/6/2022 10:30:00 AM 21.93 71.474 0.137 6.78 2.79 6.19
8/6/2022 10:45:00 AM 21.96 71.528 0.137 6.76 2.64 6.26
8/6/2022 11:00:00 AM 22.16 71.888 0.137 6.79 2.4 6.39
8/6/2022 11:15:00 AM 22.3 72.14 0.137 6.8 2.36 6.52
8/6/2022 11:30:00 AM 22.4 72.32 0.137 6.81 2.42 6.58
8/6/2022 11:45:00 AM 22.7 72.86 0.136 6.83 1.93 6.77
8/6/2022 12:00:00 PM 23.08 73.544 0.136 6.84 1.92 6.89
8/6/2022 12:15:00 PM 23.03 73.454 0.136 6.85 1.98 7.09
8/6/2022 12:30:00 PM 23.08 73.544 0.136 6.85 2.02 7.15
8/6/2022 12:45:00 PM 23.4 74.12 0.136 6.89 2.02 7.42
8/6/2022 1:00:00 PM 23.48 74.264 0.136 6.9 2.04 7.5
8/6/2022 1:15:00 PM 23.6 74.48 0.136 6.91 1.98 7.63
8/6/2022 1:30:00 PM 23.78 74.804 0.136 6.91 1.95 7.68
8/6/2022 1:45:00 PM 23.81 74.858 0.135 6.91 1.99 7.72
8/6/2022 2:00:00 PM 24.04 75.272 0.135 6.91 1.99 7.73
8/6/2022 2:15:00 PM 24.24 75.632 0.135 6.95 2.03 7.87
8/6/2022 2:30:00 PM 24.31 75.758 0.135 6.92 1.96 7.86
8/6/2022 2:45:00 PM 24.36 75.848 0.135 6.92 1.98 7.86
8/6/2022 3:00:00 PM 24.47 76.046 0.135 6.96 1.96 7.94
8/6/2022 3:15:00 PM 24.47 76.046 0.135 6.94 1.97 7.93
8/6/2022 3:30:00 PM 24.46 76.028 0.135 6.95 1.91 8
8/6/2022 3:45:00 PM 24.49 76.082 0.135 6.93 2.18 7.99
8/6/2022 4:00:00 PM 24.52 76.136 0.135 6.94 1.99 8.06
8/6/2022 4:15:00 PM 24.71 76.478 0.135 6.96 2.01 8.16
8/6/2022 4:30:00 PM 24.74 76.532 0.135 6.94 2.06 8.17
8/6/2022 4:45:00 PM 24.87 76.766 0.135 6.93 2.13 8.11
8/6/2022 5:00:00 PM 24.81 76.658 0.135 6.93 2.29 8.17
8/6/2022 5:15:00 PM 24.73 76.514 0.134 6.93 2.18 8.23
8/6/2022 5:30:00 PM 24.76 76.568 0.134 6.95 2.11 8.27
8/6/2022 5:45:00 PM 24.76 76.568 0.134 6.95 16.03 8.3
8/6/2022 6:00:00 PM 24.72 76.496 0.134 6.94 4.09 8.22
8/6/2022 6:15:00 PM 24.85 76.73 0.135 6.94 4.83 8.1
8/6/2022 6:30:00 PM 24.68 76.424 0.134 6.97 2.08 8.19
8/6/2022 6:45:00 PM 24.53 76.154 0.134 6.94 2.18 8.12
8/6/2022 7:00:00 PM 24.4 75.92 0.135 6.89 2.26 7.99
8/6/2022 7:15:00 PM 24.31 75.758 0.134 6.92 2.27 7.86
8/6/2022 7:30:00 PM 24.29 75.722 0.134 6.91 2.28 7.81
8/6/2022 7:45:00 PM 24.25 75.65 0.134 6.88 2.4 7.74
8/6/2022 8:00:00 PM 24.19 75.542 0.134 6.9 2.45 7.66
8/6/2022 8:15:00 PM 24.15 75.47 0.134 6.89 2.4 7.6
8/6/2022 8:30:00 PM 24.05 75.29 0.134 6.85 2.67 7.4
8/6/2022 8:45:00 PM 23.98 75.164 0.134 6.83 3.66 7.25
8/6/2022 9:00:00 PM 23.89 75.002 0.134 6.81 9.02 7.07
8/6/2022 9:15:00 PM 23.85 74.93 0.134 6.79 5 6.95
8/6/2022 9:30:00 PM 23.78 74.804 0.134 6.74 4.39 6.81
8/6/2022 9:45:00 PM 23.72 74.696 0.134 6.77 4.22 6.69
8/6/2022 10:00:00 PM 23.61 74.498 0.134 6.75 3.69 6.52
8/6/2022 10:15:00 PM 23.55 74.39 0.134 6.75 3.69 6.41
8/6/2022 10:30:00 PM 23.48 74.264 0.134 6.73 2.89 6.26
8/6/2022 10:45:00 PM 23.41 74.138 0.134 6.72 3.12 6.14
8/6/2022 11:00:00 PM 23.34 74.012 0.134 6.72 2.95 6.02
8/6/2022 11:15:00 PM 23.27 73.886 0.134 6.71 2.75 5.87
8/6/2022 11:30:00 PM 23.21 73.778 0.134 6.7 2.96 5.75
8/6/2022 11:45:00 PM 23.17 73.706 0.134 6.68 3.21 5.63
8/7/2022 12:00:00 AM 23.11 73.598 0.134 6.68 2.81 5.55
8/7/2022 12:15:00 AM 23.07 73.526 0.135 6.68 2.66 5.46
8/7/2022 12:30:00 AM 23.05 73.49 0.135 6.68 3.58 5.44
8/7/2022 12:45:00 AM 22.99 73.382 0.135 6.68 3.22 5.32
8/7/2022 1:00:00 AM 22.95 73.31 0.135 6.67 2.71 5.24
8/7/2022 1:15:00 AM 22.93 73.274 0.135 6.67 2.79 5.18
8/7/2022 1:30:00 AM 22.9 73.22 0.135 6.66 2.98 5.11
8/7/2022 1:45:00 AM 22.87 73.166 0.135 6.66 32.04 5.05
8/7/2022 2:00:00 AM 22.85 73.13 0.135 6.67 2.79 5.03
8/7/2022 2:15:00 AM 22.82 73.076 0.136 6.66 3.66 4.94
8/7/2022 2:30:00 AM 22.78 73.004 0.136 6.66 2.9 4.86
8/7/2022 2:45:00 AM 22.76 72.968 0.136 6.66 3.03 4.83
8/7/2022 3:00:00 AM 22.72 72.896 0.136 6.66 2.78 4.78
8/7/2022 3:15:00 AM 22.71 72.878 0.136 6.65 3 4.71
8/7/2022 3:30:00 AM 22.67 72.806 0.136 6.65 3.02 4.68
8/7/2022 3:45:00 AM 22.65 72.77 0.136 6.65 3.06 4.67
8/7/2022 4:00:00 AM 22.61 72.698 0.136 6.64 4.42 4.61
8/7/2022 4:15:00 AM 22.6 72.68 0.137 6.66 3.96 4.65
8/7/2022 4:30:00 AM 22.55 72.59 0.137 6.64 4.06 4.58
8/7/2022 4:45:00 AM 22.55 72.59 0.137 6.65 4.99 4.55
8/7/2022 5:00:00 AM 22.51 72.518 0.137 6.64 7.27 4.52
8/7/2022 5:15:00 AM 22.5 72.5 0.137 6.65 6.3 4.5
8/7/2022 5:30:00 AM 22.45 72.41 0.137 6.65 4.6 4.52
8/7/2022 5:45:00 AM 22.42 72.356 0.137 6.64 5.31 4.41
8/7/2022 6:00:00 AM 22.37 72.266 0.137 6.58 3.76 4.38
8/7/2022 6:15:00 AM 22.34 72.212 0.137 6.65 3.17 4.45
8/7/2022 6:30:00 AM 22.3 72.14 0.137 6.63 4.13 4.34
8/7/2022 6:45:00 AM 22.25 72.05 0.137 6.62 3.58 4.26
8/7/2022 7:00:00 AM 22.23 72.014 0.138 6.63 3.83 4.28
8/7/2022 7:15:00 AM 22.18 71.924 0.138 6.63 3.24 4.31
8/7/2022 7:30:00 AM 22.17 71.906 0.138 6.63 3.22 4.33
8/7/2022 7:45:00 AM 22.21 71.978 0.138 6.63 4.27 4.31
8/7/2022 8:00:00 AM 22.15 71.87 0.138 6.65 2.72 4.46
8/7/2022 8:15:00 AM 22.16 71.888 0.138 6.66 2.55 4.49
8/7/2022 8:30:00 AM 22.16 71.888 0.138 6.68 2.27 4.68
8/7/2022 8:45:00 AM 22.2 71.96 0.138 6.68 2.08 4.75
8/7/2022 9:00:00 AM 22.24 72.032 0.138 6.69 2.37 4.85
8/7/2022 9:15:00 AM 22.25 72.05 0.138 6.7 2.28 4.95
8/7/2022 9:30:00 AM 22.3 72.14 0.138 6.7 2.3 5.01
8/7/2022 9:45:00 AM 22.27 72.086 0.138 6.7 2.04 5.18
8/7/2022 10:00:00 AM 22.36 72.248 0.138 6.7 2.35 5.1
8/7/2022 10:15:00 AM 22.52 72.536 0.137 6.72 1.98 5.31
8/7/2022 10:30:00 AM 22.49 72.482 0.137 6.66 1.96 5.55
8/7/2022 10:45:00 AM 22.61 72.698 0.137 6.73 2.15 5.7
8/7/2022 11:00:00 AM 22.69 72.842 0.137 6.76 2.08 5.96
8/7/2022 11:15:00 AM 22.88 73.184 0.137 6.8 1.91 6.28
8/7/2022 11:30:00 AM 22.88 73.184 0.137 6.79 1.93 6.32
8/7/2022 11:45:00 AM 22.96 73.328 0.137 6.8 1.93 6.46
8/7/2022 12:00:00 PM 22.97 73.346 0.136 6.81 1.9 6.57
8/7/2022 12:15:00 PM 23.07 73.526 0.136 6.82 1.88 6.71
8/7/2022 12:30:00 PM 23.16 73.688 0.136 6.82 1.94 6.74
8/7/2022 12:45:00 PM 23.2 73.76 0.136 6.82 2.03 6.76
8/7/2022 1:00:00 PM 23.33 73.994 0.136 6.85 1.89 7.04
8/7/2022 1:15:00 PM 23.53 74.354 0.136 6.85 1.97 7.07
8/7/2022 1:30:00 PM 23.79 74.82201 0.136 6.87 1.99 7.33
8/7/2022 1:45:00 PM 23.98 75.164 0.135 6.87 1.9 7.44
8/7/2022 2:00:00 PM 24.37 75.866 0.135 6.91 1.78 7.68
8/7/2022 2:15:00 PM 24.5 76.1 0.135 6.88 1.86 7.67
8/7/2022 2:30:00 PM 24.76 76.568 0.135 6.92 1.89 7.87
8/7/2022 2:45:00 PM 24.73 76.514 0.135 6.92 1.99 7.95
8/7/2022 3:00:00 PM 24.69 76.442 0.135 6.91 1.86 7.92
8/7/2022 3:15:00 PM 24.69 76.442 0.135 6.88 2.05 7.73
8/7/2022 3:30:00 PM 25.04 77.07201 0.135 6.9 2.04 7.73
8/7/2022 3:45:00 PM 25.05 77.09 0.134 6.95 1.92 8.1
8/7/2022 4:00:00 PM 25.19 77.342 0.134 6.96 1.81 8.17
8/7/2022 4:15:00 PM 25.66 78.188 0.135 6.97 1.95 8.1
8/7/2022 4:30:00 PM 25.38 77.684 0.134 6.97 1.81 8.25
8/7/2022 4:45:00 PM 25.23 77.414 0.134 6.95 1.91 8.14
8/7/2022 5:00:00 PM 25.12 77.216 0.134 6.94 1.95 8.12
8/7/2022 5:15:00 PM 25.02 77.036 0.134 6.91 1.96 8
8/7/2022 5:30:00 PM 24.94 76.892 0.134 6.93 1.95 8.03
8/7/2022 5:45:00 PM 24.99 76.982 0.133 6.93 1.95 8.03
8/7/2022 6:00:00 PM 24.98 76.964 0.134 6.9 1.98 7.92
8/7/2022 6:15:00 PM 24.95 76.91 0.134 6.88 2.03 7.87
8/7/2022 6:30:00 PM 24.96 76.92799 0.134 6.9 1.97 7.89
8/7/2022 6:45:00 PM 24.88 76.784 0.134 6.87 2.12 7.8
8/7/2022 7:00:00 PM 24.78 76.604 0.134 6.87 2.19 7.72
8/7/2022 7:15:00 PM 24.7 76.46 0.134 6.89 2.15 7.67
8/7/2022 7:30:00 PM 24.62 76.316 0.134 6.88 2.52 7.59
8/7/2022 7:45:00 PM 24.57 76.226 0.134 6.85 2.65 7.48
8/7/2022 8:00:00 PM 24.51 76.118 0.134 6.86 2.65 7.41
8/7/2022 8:15:00 PM 24.41 75.938 0.134 6.86 2.88 7.34
8/7/2022 8:30:00 PM 24.35 75.83 0.134 6.84 3.46 7.19
8/7/2022 8:45:00 PM 24.25 75.65 0.134 6.81 4.11 7.02
8/7/2022 9:00:00 PM 24.15 75.47 0.134 6.81 3.25 6.88
8/7/2022 9:15:00 PM 24.07 75.326 0.134 6.79 3.46 6.75
8/7/2022 9:30:00 PM 24 75.2 0.134 6.77 3.73 6.63
8/7/2022 9:45:00 PM 23.93 75.074 0.134 6.77 3.24 6.52
8/7/2022 10:00:00 PM 23.86 74.948 0.134 6.76 3.89 6.44
8/7/2022 10:15:00 PM 23.8 74.84 0.134 6.75 2.99 6.33
8/7/2022 10:30:00 PM 23.74 74.732 0.134 6.75 2.55 6.24
8/7/2022 10:45:00 PM 23.68 74.624 0.134 6.73 2.98 6.12
8/7/2022 11:00:00 PM 23.62 74.516 0.134 6.72 2.84 5.96
8/7/2022 11:15:00 PM 23.55 74.39 0.134 6.7 2.86 5.8
8/7/2022 11:30:00 PM 23.49 74.282 0.134 6.69 2.86 5.69
8/7/2022 11:45:00 PM 23.44 74.192 0.134 6.68 2.94 5.55
8/8/2022 12:00:00 AM 23.37 74.066 0.134 6.67 2.91 5.43
8/8/2022 12:15:00 AM 23.31 73.958 0.135 6.67 2.76 5.34
8/8/2022 12:30:00 AM 23.24 73.832 0.135 6.66 2.92 5.21
8/8/2022 12:45:00 AM 23.2 73.76 0.135 6.66 2.64 5.12
8/8/2022 1:00:00 AM 23.14 73.652 0.135 6.66 2.53 5.08
8/8/2022 1:15:00 AM 23.1 73.58 0.135 6.66 3.53 5.06
8/8/2022 1:30:00 AM 23.02 73.436 0.135 6.64 3 4.96
8/8/2022 1:45:00 AM 22.98 73.364 0.135 6.64 5.09 4.9
8/8/2022 2:00:00 AM 22.94 73.292 0.135 6.64 5.15 4.91
8/8/2022 2:15:00 AM 22.92 73.256 0.135 6.65 7.76 4.87
8/8/2022 2:30:00 AM 22.86 73.148 0.135 6.64 3.27 4.8
8/8/2022 2:45:00 AM 22.81 73.058 0.136 6.63 3.31 4.7
8/8/2022 3:00:00 AM 22.77 72.986 0.136 6.64 2.97 4.71
8/8/2022 3:15:00 AM 22.74 72.932 0.136 6.58 3.09 4.65
8/8/2022 3:30:00 AM 22.71 72.878 0.136 6.63 3.59 4.55
8/8/2022 3:45:00 AM 22.66 72.788 0.136 6.62 3.1 4.47
8/8/2022 4:00:00 AM 22.63 72.734 0.136 6.64 2.69 4.54
8/8/2022 4:15:00 AM 22.59 72.662 0.136 6.62 3.51 4.43
8/8/2022 4:30:00 AM 22.55 72.59 0.136 6.61 3.19 4.42
8/8/2022 4:45:00 AM 22.5 72.5 0.136 6.62 2.7 4.41
8/8/2022 5:00:00 AM 22.47 72.446 0.136 6.62 2.85 4.39
8/8/2022 5:15:00 AM 22.45 72.41 0.137 6.61 3.43 4.33
8/8/2022 5:30:00 AM 22.38 72.284 0.137 6.6 3.22 4.27
8/8/2022 5:45:00 AM 22.32 72.176 0.137 6.6 2.94 4.29
8/8/2022 6:00:00 AM 22.29 72.122 0.137 6.61 2.81 4.28
8/8/2022 6:15:00 AM 22.27 72.086 0.137 6.58 4.56 4.17
8/8/2022 6:30:00 AM 22.23 72.014 0.137 6.58 4.58 4.15
8/8/2022 6:45:00 AM 22.2 71.96 0.137 6.57 4.59 4.13
8/8/2022 7:00:00 AM 22.19 71.942 0.137 6.59 5.09 4.11
8/8/2022 7:15:00 AM 22.14 71.852 0.137 6.6 3.31 4.18
8/8/2022 7:30:00 AM 22.12 71.816 0.138 6.57 4.59 4.07
8/8/2022 7:45:00 AM 22.1 71.78 0.138 6.6 3.09 4.17
8/8/2022 8:00:00 AM 22.07 71.726 0.138 6.61 2.84 4.22
8/8/2022 8:15:00 AM 22.11 71.798 0.138 6.62 3.07 4.28
8/8/2022 8:30:00 AM 22.23 72.014 0.137 6.63 3.42 4.25
8/8/2022 8:45:00 AM 22.19 71.942 0.137 6.63 2.69 4.32
8/8/2022 9:00:00 AM 22.17 71.906 0.137 6.64 2.68 4.45
8/8/2022 9:15:00 AM 22.19 71.942 0.137 6.65 2.65 4.51
8/8/2022 9:30:00 AM 22.24 72.032 0.137 6.67 2.21 4.66
8/8/2022 9:45:00 AM 22.27 72.086 0.137 6.67 2.28 4.8
8/8/2022 10:00:00 AM 22.36 72.248 0.137 6.69 2.05 5
8/8/2022 10:15:00 AM 22.36 72.248 0.137 6.66 2.37 4.81
8/8/2022 10:30:00 AM 22.45 72.41 0.137 6.66 2.32 4.8
8/8/2022 10:45:00 AM 22.85 73.13 0.137 6.72 1.79 5.35
8/8/2022 11:00:00 AM 22.91 73.238 0.137 6.7 1.88 5.58
8/8/2022 11:15:00 AM 23.04 73.472 0.137 6.74 1.75 5.84
8/8/2022 11:30:00 AM 23.31 73.958 0.137 6.76 1.73 6.05
8/8/2022 11:45:00 AM 23.4 74.12 0.136 6.79 1.75 6.37
8/8/2022 12:00:00 PM 23.37 74.066 0.136 6.78 1.83 6.36
8/8/2022 12:15:00 PM 23.45 74.21 0.136 6.78 1.75 6.29
8/8/2022 12:30:00 PM 23.47 74.246 0.136 6.78 12.42 6.46
8/8/2022 12:45:00 PM 23.59 74.462 0.136 6.79 1.84 6.56
8/8/2022 1:00:00 PM 23.83 74.894 0.136 6.81 1.82 6.71
8/8/2022 1:15:00 PM 24.48 76.064 0.136 6.82 1.58 6.82
8/8/2022 1:30:00 PM 24.23 75.614 0.136 6.81 1.79 6.93
8/8/2022 1:45:00 PM 24.33 75.794 0.136 6.81 1.8 7.03
8/8/2022 2:00:00 PM 24.84 76.712 0.135 6.86 1.68 7.31
8/8/2022 2:15:00 PM 24.92 76.856 0.135 6.77 1.79 7.17
8/8/2022 2:30:00 PM 25.04 77.07201 0.135 6.87 1.73 7.47
8/8/2022 2:45:00 PM 25.14 77.252 0.135 6.77 1.73 7.43
8/8/2022 3:00:00 PM 25.27 77.486 0.135 6.88 1.7 7.6
8/8/2022 3:15:00 PM 25.46 77.828 0.135 6.88 1.75 7.52
8/8/2022 3:30:00 PM 25.35 77.63 0.135 6.88 1.76 7.65
8/8/2022 3:45:00 PM 25.31 77.558 0.134 6.88 1.77 7.7
8/8/2022 4:00:00 PM 25.42 77.756 0.135 6.89 1.77 7.67
8/8/2022 4:15:00 PM 25.42 77.756 0.134 6.89 1.8 7.69
8/8/2022 4:30:00 PM 25.24 77.432 0.134 6.9 1.75 7.72
8/8/2022 4:45:00 PM 25.22 77.396 0.134 6.88 1.81 7.77
8/8/2022 5:00:00 PM 25.26 77.468 0.134 6.93 1.79 7.79
8/8/2022 5:15:00 PM 25.16 77.288 0.134 6.92 1.7 7.69
8/8/2022 5:30:00 PM 25.09 77.162 0.134 6.92 1.93 7.65
8/8/2022 5:45:00 PM 25.09 77.162 0.134 6.9 1.73 7.57
8/8/2022 6:00:00 PM 24.95 76.91 0.134 6.87 1.82 7.48
8/8/2022 6:15:00 PM 24.9 76.82 0.134 6.85 1.83 7.38
8/8/2022 6:30:00 PM 24.74 76.532 0.134 6.82 1.99 7.21
8/8/2022 6:45:00 PM 24.81 76.658 0.133 6.79 1.78 7.41
8/8/2022 7:00:00 PM 24.77 76.586 0.134 6.86 1.86 7.32
8/8/2022 7:15:00 PM 24.73 76.514 0.134 6.84 1.85 7.26
8/8/2022 7:30:00 PM 24.68 76.424 0.134 6.84 1.89 7.2
8/8/2022 7:45:00 PM 24.58 76.244 0.134 6.81 1.95 7.09
8/8/2022 8:00:00 PM 24.41 75.938 0.134 6.73 1.98 6.79
8/8/2022 8:15:00 PM 24.36 75.848 0.134 6.79 2.02 6.88
8/8/2022 8:30:00 PM 24.31 75.758 0.134 6.76 1.99 6.78
8/8/2022 8:45:00 PM 24.23 75.614 0.134 6.74 2.3 6.61
8/8/2022 9:00:00 PM 24.13 75.434 0.134 6.73 2.43 6.44
8/8/2022 9:15:00 PM 24.11 75.398 0.134 6.74 2.37 6.44
8/8/2022 9:30:00 PM 24.07 75.326 0.134 6.73 2.3 6.34
8/8/2022 9:45:00 PM 24.01 75.218 0.134 6.73 2.4 6.25
8/8/2022 10:00:00 PM 23.93 75.074 0.134 6.72 3.25 6.18
8/8/2022 10:15:00 PM 23.88 74.984 0.134 6.72 4.29 6.16
8/8/2022 10:30:00 PM 23.85 74.93 0.134 6.69 6.33 5.96
8/8/2022 10:45:00 PM 23.8 74.84 0.134 6.64 3.44 5.91
8/8/2022 11:00:00 PM 23.73 74.714 0.134 6.7 4.08 5.79
8/8/2022 11:15:00 PM 23.67 74.606 0.134 6.69 3.53 5.71
8/8/2022 11:30:00 PM 23.61 74.498 0.135 6.67 3.13 5.53
8/8/2022 11:45:00 PM 23.55 74.39 0.135 6.67 3.01 5.46
8/9/2022 12:00:00 AM 23.5 74.3 0.135 6.66 3.23 5.35
8/9/2022 12:15:00 AM 23.46 74.228 0.135 6.67 4.36 5.29
8/9/2022 12:30:00 AM 23.4 74.12 0.135 6.66 5.11 5.2
8/9/2022 12:45:00 AM 23.36 74.048 0.135 6.64 5.2 5.07
8/9/2022 1:00:00 AM 23.31 73.958 0.135 6.65 4.26 5.04
8/9/2022 1:15:00 AM 23.26 73.868 0.135 6.63 4.24 4.95
8/9/2022 1:30:00 AM 23.23 73.814 0.135 6.64 4.14 4.9
8/9/2022 1:45:00 AM 23.2 73.76 0.135 6.63 3.76 4.8
8/9/2022 2:00:00 AM 23.17 73.706 0.136 6.63 4.67 4.8
8/9/2022 2:15:00 AM 23.16 73.688 0.136 6.64 4.28 4.72
8/9/2022 2:30:00 AM 23.1 73.58 0.136 6.61 5.7 4.61
8/9/2022 2:45:00 AM 23.05 73.49 0.136 6.62 3.69 4.53
8/9/2022 3:00:00 AM 23.06 73.508 0.136 6.64 4.61 4.52
8/9/2022 3:15:00 AM 22.99 73.382 0.136 6.61 4.95 4.45
8/9/2022 3:30:00 AM 22.97 73.346 0.136 6.62 3.71 4.39
8/9/2022 3:45:00 AM 22.94 73.292 0.136 6.62 5.77 4.39
8/9/2022 4:00:00 AM 22.92 73.256 0.136 6.61 4.19 4.34
8/9/2022 4:15:00 AM 22.9 73.22 0.136 6.6 5.28 4.28
8/9/2022 4:30:00 AM 22.86 73.148 0.137 6.59 3.2 4.19
8/9/2022 4:45:00 AM 22.86 73.148 0.137 6.59 3.78 4.15
8/9/2022 5:00:00 AM 22.86 73.148 0.137 6.59 4.39 4.13
8/9/2022 5:15:00 AM 22.82 73.076 0.137 6.6 2.25 4.05
8/9/2022 5:30:00 AM 22.82 73.076 0.137 6.58 3.48 4.05
8/9/2022 5:45:00 AM 22.79 73.022 0.137 6.59 3.98 3.98
8/9/2022 6:00:00 AM 22.77 72.986 0.137 6.59 5.74 3.95
8/9/2022 6:15:00 AM 22.73 72.914 0.137 6.61 2.85 4
8/9/2022 6:30:00 AM 22.72 72.896 0.137 6.6 4.27 3.98
8/9/2022 6:45:00 AM 22.64 72.752 0.138 6.6 3.35 3.94
8/9/2022 7:00:00 AM 22.61 72.698 0.138 6.59 3.33 3.91
8/9/2022 7:15:00 AM 22.62 72.716 0.138 6.61 2.63 3.98
8/9/2022 7:30:00 AM 22.6 72.68 0.138 6.61 2.36 4
8/9/2022 7:45:00 AM 22.59 72.662 0.138 6.61 2.38 4.03
8/9/2022 8:00:00 AM 22.57 72.626 0.138 6.6 2.16 4.05
8/9/2022 8:15:00 AM 22.55 72.59 0.138 6.58 2.07 4.06
8/9/2022 8:30:00 AM 22.59 72.662 0.138 6.63 1.91 4.15
8/9/2022 8:45:00 AM 22.62 72.716 0.138 6.64 2.43 4.26
8/9/2022 9:00:00 AM 22.68 72.824 0.138 6.65 3.02 4.35
8/9/2022 9:15:00 AM 22.68 72.824 0.138 6.66 2.72 4.43
8/9/2022 9:30:00 AM 22.69 72.842 0.138 6.66 2.34 4.58
8/9/2022 9:45:00 AM 22.73 72.914 0.138 6.66 2.3 4.68
8/9/2022 10:00:00 AM 22.83 73.094 0.138 6.67 2.4 4.73
8/9/2022 10:15:00 AM 22.88 73.184 0.138 6.71 1.92 5.16
8/9/2022 10:30:00 AM 22.95 73.31 0.137 6.73 1.91 5.42
8/9/2022 10:45:00 AM 22.82 73.076 0.137 6.71 2.32 5.19
8/9/2022 11:00:00 AM 22.81 73.058 0.137 6.71 2.49 5.24
8/9/2022 11:15:00 AM 22.81 73.058 0.137 6.71 2.32 5.44
8/9/2022 11:30:00 AM 22.83 73.094 0.137 6.71 2.21 5.43
8/9/2022 11:45:00 AM 22.85 73.13 0.137 6.71 2.19 5.5
8/9/2022 12:00:00 PM 23 73.4 0.137 6.74 1.9 5.69
8/9/2022 12:15:00 PM 23.18 73.724 0.136 6.76 1.71 5.98
8/9/2022 12:30:00 PM 23.44 74.192 0.136 6.78 1.64 6.09
8/9/2022 12:45:00 PM 23.51 74.318 0.136 6.8 1.61 6.5
8/9/2022 1:00:00 PM 23.62 74.516 0.136 6.82 1.71 6.6
8/9/2022 1:15:00 PM 23.64 74.552 0.136 6.84 1.71 6.96
8/9/2022 1:30:00 PM 24.07 75.326 0.135 6.88 1.58 7.24
8/9/2022 1:45:00 PM 23.99 75.182 0.135 6.9 1.59 7.49
8/9/2022 2:00:00 PM 24.07 75.326 0.135 6.92 1.6 7.65
8/9/2022 2:15:00 PM 23.93 75.074 0.135 6.86 1.77 7.26
8/9/2022 2:30:00 PM 24.07 75.326 0.135 6.9 1.63 7.54
8/9/2022 2:45:00 PM 24.02 75.236 0.135 6.89 1.68 7.64
8/9/2022 3:00:00 PM 24.09 75.362 0.135 6.91 1.64 7.76
8/9/2022 3:15:00 PM 24.15 75.47 0.135 6.9 1.69 7.84
8/9/2022 3:30:00 PM 24.2 75.56 0.134 6.92 1.68 7.96
8/9/2022 3:45:00 PM 24.31 75.758 0.134 6.95 1.68 8.09
8/9/2022 4:00:00 PM 24.28 75.704 0.134 6.95 1.67 8.1
8/9/2022 4:15:00 PM 24.25 75.65 0.134 6.93 1.62 8.02
8/9/2022 4:30:00 PM 24.23 75.614 0.134 6.93 1.67 8.02
8/9/2022 4:45:00 PM 24.33 75.794 0.134 6.93 1.62 8.07
8/9/2022 5:00:00 PM 24.26 75.668 0.134 6.9 1.83 7.96
8/9/2022 5:15:00 PM 24.24 75.632 0.134 6.93 1.75 8.05
8/9/2022 5:30:00 PM 24.22 75.596 0.134 6.92 1.77 8.03
8/9/2022 5:45:00 PM 24.13 75.434 0.134 6.92 1.71 8.02
8/9/2022 6:00:00 PM 24.1 75.38 0.134 6.91 1.71 7.99
8/9/2022 6:15:00 PM 24.05 75.29 0.134 6.91 1.71 7.94
8/9/2022 6:30:00 PM 23.99 75.182 0.134 6.89 1.68 7.9
8/9/2022 6:45:00 PM 23.93 75.074 0.134 6.89 1.73 7.86
8/9/2022 7:00:00 PM 23.88 74.984 0.134 6.88 1.73 7.78
8/9/2022 7:15:00 PM 23.82 74.876 0.134 6.82 1.81 7.69
8/9/2022 7:30:00 PM 23.77 74.786 0.134 6.87 1.88 7.65
8/9/2022 7:45:00 PM 23.69 74.642 0.134 6.86 1.77 7.57
8/9/2022 8:00:00 PM 23.64 74.552 0.134 6.85 2.12 7.47
8/9/2022 8:15:00 PM 23.57 74.426 0.134 6.82 2.37 7.34
8/9/2022 8:30:00 PM 23.49 74.282 0.134 6.82 2.42 7.27
8/9/2022 8:45:00 PM 23.43 74.174 0.134 6.82 2.28 7.25
8/9/2022 9:00:00 PM 23.36 74.048 0.134 6.78 2.57 7.07
8/9/2022 9:15:00 PM 23.3 73.94 0.134 6.78 2.52 7.02
8/9/2022 9:30:00 PM 23.23 73.814 0.134 6.78 2.5 6.95
8/9/2022 9:45:00 PM 23.18 73.724 0.134 6.78 2.58 6.92
8/9/2022 10:00:00 PM 23.13 73.634 0.134 6.76 2.65 6.77
8/9/2022 10:15:00 PM 23.05 73.49 0.134 6.76 2.78 6.71
8/9/2022 10:30:00 PM 23 73.4 0.134 6.7 4.67 6.54
8/9/2022 10:45:00 PM 22.99 73.382 0.134 6.73 16.4 6.47
8/9/2022 11:00:00 PM 22.96 73.328 0.134 6.73 11.55 6.38
8/9/2022 11:15:00 PM 22.85 73.13 0.134 6.72 4.43 6.19
8/9/2022 11:30:00 PM 22.81 73.058 0.134 6.71 7 6.08
8/9/2022 11:45:00 PM 22.74 72.932 0.135 6.72 3.86 6
8/10/2022 12:00:00 AM 22.69 72.842 0.135 6.71 12.26 5.9
8/10/2022 12:15:00 AM 22.62 72.716 0.135 6.7 4.27 5.79
8/10/2022 12:30:00 AM 22.6 72.68 0.135 6.68 5.24 5.71
8/10/2022 12:45:00 AM 22.57 72.626 0.135 6.67 14.37 5.64
8/10/2022 1:00:00 AM 22.52 72.536 0.135 6.65 6.74 5.56
8/10/2022 1:15:00 AM 22.46 72.42799 0.135 6.67 4.77 5.44
8/10/2022 1:30:00 AM 22.44 72.392 0.135 6.66 4.84 5.39
8/10/2022 1:45:00 AM 22.37 72.266 0.135 6.66 4.14 5.23
8/10/2022 2:00:00 AM 22.34 72.212 0.136 6.66 4.22 5.2
8/10/2022 2:15:00 AM 22.28 72.104 0.136 6.65 7.51 5.09
8/10/2022 2:30:00 AM 22.27 72.086 0.136 6.65 5.7 5.06
8/10/2022 2:45:00 AM 22.21 71.978 0.136 6.67 4.78 5.01
8/10/2022 3:00:00 AM 22.18 71.924 0.136 6.65 7.36 4.98
8/10/2022 3:15:00 AM 22.13 71.834 0.136 6.66 5.53 4.96
8/10/2022 3:30:00 AM 22.09 71.762 0.136 6.65 5.44 4.88
8/10/2022 3:45:00 AM 22.03 71.654 0.136 6.65 5.41 4.85
8/10/2022 4:00:00 AM 21.98 71.564 0.136 6.64 5.72 4.79
8/10/2022 4:15:00 AM 21.96 71.528 0.136 6.63 7.49 4.74
8/10/2022 4:30:00 AM 21.9 71.42 0.136 6.64 5.6 4.71
8/10/2022 4:45:00 AM 21.88 71.384 0.136 6.63 5.92 4.66
8/10/2022 5:00:00 AM 21.82 71.276 0.137 6.63 4.34 4.64
8/10/2022 5:15:00 AM 21.77 71.186 0.137 6.62 5.54 4.61
8/10/2022 5:30:00 AM 21.71 71.078 0.137 6.63 7.78 4.63
8/10/2022 5:45:00 AM 21.67 71.006 0.137 6.64 4.52 4.6
8/10/2022 6:00:00 AM 21.62 70.916 0.137 6.63 4.76 4.53
8/10/2022 6:15:00 AM 21.56 70.808 0.137 6.64 3.29 4.57
8/10/2022 6:30:00 AM 21.53 70.754 0.137 6.63 4.12 4.5
8/10/2022 6:45:00 AM 21.51 70.718 0.137 6.63 4.85 4.49
8/10/2022 7:00:00 AM 21.47 70.646 0.137 6.64 5.04 4.47
8/10/2022 7:15:00 AM 21.41 70.538 0.137 6.64 3.76 4.47
8/10/2022 7:30:00 AM 21.38 70.484 0.138 6.63 3.48 4.46
8/10/2022 7:45:00 AM 21.35 70.43 0.138 6.63 3.15 4.49
8/10/2022 8:00:00 AM 21.33 70.394 0.138 6.63 3.2 4.53
8/10/2022 8:15:00 AM 21.32 70.376 0.138 6.64 3.21 4.52
8/10/2022 8:30:00 AM 21.32 70.376 0.138 6.64 2.99 4.55
8/10/2022 8:45:00 AM 21.29 70.32201 0.138 6.66 2.5 4.68
8/10/2022 9:00:00 AM 21.28 70.304 0.138 6.66 2.73 4.74
8/10/2022 9:15:00 AM 21.31 70.358 0.138 6.65 3.31 4.6
8/10/2022 9:30:00 AM 21.34 70.412 0.138 6.66 2.98 4.65
8/10/2022 9:45:00 AM 21.34 70.412 0.138 6.66 3.11 4.76
8/10/2022 10:00:00 AM 21.35 70.43 0.138 6.67 2.82 4.91
8/10/2022 10:15:00 AM 21.4 70.52 0.137 6.71 2.3 5.24
8/10/2022 10:30:00 AM 21.44 70.592 0.137 6.72 2.37 5.39
8/10/2022 10:45:00 AM 21.48 70.664 0.137 6.73 2.28 5.61
8/10/2022 11:00:00 AM 21.7 71.06 0.137 6.74 2.06 5.76
8/10/2022 11:15:00 AM 21.67 71.006 0.137 6.74 2.28 5.82
8/10/2022 11:30:00 AM 21.77 71.186 0.137 6.78 1.86 6.34
8/10/2022 11:45:00 AM 21.93 71.474 0.137 6.79 1.85 6.51
8/10/2022 12:00:00 PM 22.01 71.618 0.137 6.78 1.8 6.5
8/10/2022 12:15:00 PM 22.09 71.762 0.137 6.78 1.79 6.49
8/10/2022 12:30:00 PM 22.1 71.78 0.137 6.79 1.77 6.61
8/10/2022 12:45:00 PM 22.2 71.96 0.136 6.8 1.77 6.72
8/10/2022 1:00:00 PM 22.22 71.996 0.136 6.82 1.8 6.93
8/10/2022 1:15:00 PM 22.4 72.32 0.136 6.82 1.75 7.01
8/10/2022 1:30:00 PM 22.38 72.284 0.136 6.83 1.86 7.14
8/10/2022 1:45:00 PM 22.47 72.446 0.136 6.85 1.83 7.28
8/10/2022 2:00:00 PM 22.5 72.5 0.136 6.86 1.8 7.38
8/10/2022 2:15:00 PM 22.61 72.698 0.136 6.85 1.78 7.44
8/10/2022 2:30:00 PM 22.68 72.824 0.136 6.86 1.79 7.51
8/10/2022 2:45:00 PM 22.83 73.094 0.135 6.92 1.83 7.96
8/10/2022 3:00:00 PM 23.04 73.472 0.135 6.89 1.83 7.8
8/10/2022 3:15:00 PM 23.12 73.616 0.135 6.9 1.81 7.9
8/10/2022 3:30:00 PM 23.21 73.778 0.135 6.9 1.93 8.17
8/10/2022 3:45:00 PM 23.25 73.85 0.135 6.89 1.98 8.03
8/10/2022 4:00:00 PM 23.35 74.03 0.136 6.87 2.07 7.78
8/10/2022 4:15:00 PM 23.52 74.336 0.135 6.91 1.96 8.12
8/10/2022 4:30:00 PM 23.52 74.336 0.135 6.9 1.94 8.24
8/10/2022 4:45:00 PM 23.44 74.192 0.134 6.89 1.92 8.28
8/10/2022 5:00:00 PM 23.48 74.264 0.135 6.9 1.98 8.32
8/10/2022 5:15:00 PM 23.47 74.246 0.134 6.9 1.99 8.37
8/10/2022 5:30:00 PM 23.51 74.318 0.134 6.92 1.91 8.46
8/10/2022 5:45:00 PM 23.48 74.264 0.134 6.94 1.88 8.53
8/10/2022 6:00:00 PM 23.44 74.192 0.134 6.95 1.9 8.6
8/10/2022 6:15:00 PM 23.39 74.102 0.134 6.84 1.99 8.49
8/10/2022 6:30:00 PM 23.35 74.03 0.133 6.92 1.94 8.46
8/10/2022 6:45:00 PM 23.28 73.904 0.133 6.85 2.17 8.4
8/10/2022 7:00:00 PM 23.14 73.652 0.133 6.89 1.97 8.27
8/10/2022 7:15:00 PM 23.06 73.508 0.133 6.89 1.96 8.2
8/10/2022 7:30:00 PM 23.01 73.418 0.134 6.9 2.11 8.19
8/10/2022 7:45:00 PM 22.94 73.292 0.134 6.88 2.22 8.08
8/10/2022 8:00:00 PM 22.88 73.184 0.134 6.87 2.54 7.96
8/10/2022 8:15:00 PM 22.81 73.058 0.134 6.86 2.25 7.92
8/10/2022 8:30:00 PM 22.72 72.896 0.134 6.82 2.42 7.72
8/10/2022 8:45:00 PM 22.64 72.752 0.134 6.82 2.62 7.65
8/10/2022 9:00:00 PM 22.59 72.662 0.134 6.81 5.61 7.52
8/10/2022 9:15:00 PM 22.51 72.518 0.134 6.82 4.42 7.54
8/10/2022 9:30:00 PM 22.45 72.41 0.134 6.81 4.52 7.45
8/10/2022 9:45:00 PM 22.39 72.302 0.134 6.82 10.55 7.43
8/10/2022 10:00:00 PM 22.32 72.176 0.134 6.8 3.21 7.34
8/10/2022 10:15:00 PM 22.26 72.068 0.134 6.79 5.2 7.3
8/10/2022 10:30:00 PM 22.2 71.96 0.134 6.78 4.75 7.21
8/10/2022 10:45:00 PM 22.12 71.816 0.134 6.77 4.14 7.11
8/10/2022 11:00:00 PM 22.11 71.798 0.134 6.77 7.04 7.03
8/10/2022 11:15:00 PM 22.04 71.672 0.134 6.76 7.97 6.93
8/10/2022 11:30:00 PM 21.96 71.528 0.134 6.75 5.27 6.8
8/10/2022 11:45:00 PM 21.91 71.438 0.134 6.75 6.56 6.73
8/11/2022 12:00:00 AM 21.84 71.312 0.134 6.73 4.99 6.58
8/11/2022 12:15:00 AM 21.75 71.15 0.134 6.72 4.96 6.45
8/11/2022 12:30:00 AM 21.7 71.06 0.134 6.71 7.83 6.33
8/11/2022 12:45:00 AM 21.65 70.97 0.134 6.7 6.21 6.22
8/11/2022 1:00:00 AM 21.57 70.826 0.134 6.69 5.11 6.1
8/11/2022 1:15:00 AM 21.54 70.772 0.134 6.69 4.92 6.04
8/11/2022 1:30:00 AM 21.47 70.646 0.134 6.68 5.08 5.95
8/11/2022 1:45:00 AM 21.39 70.502 0.135 6.67 4.18 5.81
8/11/2022 2:00:00 AM 21.35 70.43 0.135 6.63 5.03 5.75
8/11/2022 2:15:00 AM 21.28 70.304 0.135 6.67 4.52 5.7
8/11/2022 2:30:00 AM 21.23 70.214 0.135 6.66 4.79 5.6
8/11/2022 2:45:00 AM 21.16 70.088 0.135 6.66 4.73 5.53
8/11/2022 3:00:00 AM 21.1 69.98 0.135 6.65 4.7 5.48
8/11/2022 3:15:00 AM 21.03 69.854 0.135 6.65 3.91 5.44
8/11/2022 3:30:00 AM 20.95 69.71 0.135 6.66 20.41 5.42
8/11/2022 3:45:00 AM 20.88 69.584 0.135 6.66 6.42 5.38
8/11/2022 4:00:00 AM 20.84 69.512 0.135 6.61 52.08 5.35
8/11/2022 4:15:00 AM 20.77 69.386 0.135 6.64 4.84 5.31
8/11/2022 4:30:00 AM 20.72 69.296 0.135 6.64 5.52 5.26
8/11/2022 4:45:00 AM 20.67 69.206 0.135 6.64 5.4 5.28
8/11/2022 5:00:00 AM 20.64 69.152 0.135 6.64 6.71 5.25
8/11/2022 5:15:00 AM 20.56 69.008 0.136 6.64 5.24 5.17
8/11/2022 5:30:00 AM 20.52 68.936 0.136 6.65 8.53 5.14
8/11/2022 5:45:00 AM 20.46 68.828 0.136 6.65 5.59 5.12
8/11/2022 6:00:00 AM 20.41 68.738 0.136 6.64 6.32 5.02
8/11/2022 6:15:00 AM 20.38 68.684 0.136 6.64 5.99 4.95
8/11/2022 6:30:00 AM 20.31 68.558 0.136 6.63 5.88 4.88
8/11/2022 6:45:00 AM 20.26 68.468 0.136 6.57 4.77 4.82
8/11/2022 7:00:00 AM 20.22 68.396 0.136 6.63 5.2 4.78
8/11/2022 7:15:00 AM 20.19 68.342 0.136 6.62 4.84 4.74
8/11/2022 7:30:00 AM 20.15 68.27 0.136 6.62 4.05 4.71
8/11/2022 7:45:00 AM 20.11 68.198 0.136 6.6 4.09 4.7
8/11/2022 8:00:00 AM 20.09 68.162 0.144 6.65 0.33 4.92
8/11/2022 8:15:00 AM 20.09 68.162 0.138 6.61 0.21 4.85
8/11/2022 8:30:00 AM 20.1 68.18 0.136 6.6 -0.07 4.88
8/11/2022 8:45:00 AM 20.1 68.18 0.134 6.6 -0.01 4.88
8/11/2022 9:00:00 AM 20.12 68.216 0.134 6.6 -0.03 4.86
8/11/2022 9:15:00 AM 20.13 68.234 0.134 6.61 -0.76 5.02
8/11/2022 9:30:00 AM 20.16 68.288 0.134 6.62 -0.89 5.12
8/11/2022 9:45:00 AM 20.21 68.378 0.135 6.61 -0.56 5.03
8/11/2022 10:00:00 AM 20.26 68.468 0.134 6.61 -0.49 5.16
8/11/2022 10:15:00 AM 20.3 68.54 0.134 6.62 -0.61 5.37
8/11/2022 10:30:00 AM 20.45 68.81 0.133 6.62 -0.44 5.45
8/11/2022 10:45:00 AM 20.44 68.792 0.133 6.62 -0.32 5.33
8/11/2022 11:00:00 AM 20.6 69.08 0.133 6.62 -0.39 5.55
8/11/2022 11:15:00 AM 20.62 69.116 0.133 6.64 -0.83 5.83
8/11/2022 11:30:00 AM 20.86 69.548 0.134 6.66 -0.99 6.06
8/11/2022 11:45:00 AM 20.82 69.476 0.133 6.66 -1.09 6.17
8/11/2022 12:00:00 PM 21.27 70.286 0.133 6.67 -1.29 6.33
8/11/2022 12:15:00 PM 21.44 70.592 0.132 6.69 -1.04 6.61
8/11/2022 12:30:00 PM 21.02 69.836 0.132 6.65 -0.86 6.2
8/11/2022 12:45:00 PM 21.35 70.43 0.132 6.67 -1.19 6.29
8/11/2022 1:00:00 PM 21.29 70.32201 0.131 6.67 -1.1 6.25
8/11/2022 1:15:00 PM 21.54 70.772 0.132 6.69 -1.14 6.55
8/11/2022 1:30:00 PM 21.9 71.42 0.132 6.74 -1.12 7.44
8/11/2022 1:45:00 PM 21.85 71.33 0.132 6.74 -1.3 7.36
8/11/2022 2:00:00 PM 21.95 71.51 0.131 6.75 -1.41 7.47
8/11/2022 2:15:00 PM 22.07 71.726 0.131 6.74 -1.32 7.47
8/11/2022 2:30:00 PM 22.29 72.122 0.132 6.75 -1.44 7.49
8/11/2022 2:45:00 PM 22.43 72.374 0.131 6.75 -1.37 7.62
8/11/2022 3:00:00 PM 22.49 72.482 0.132 6.73 -1.07 7.46
8/11/2022 3:15:00 PM 22.78 73.004 0.13 6.76 -1.4 7.8
8/11/2022 3:30:00 PM 22.98 73.364 0.131 6.79 -1.44 8.1
8/11/2022 3:45:00 PM 23.06 73.508 0.13 6.77 -1.36 7.96
8/11/2022 4:00:00 PM 23.09 73.562 0.132 6.75 -1.27 7.82
8/11/2022 4:15:00 PM 23.14 73.652 0.131 6.74 -1.34 7.79
8/11/2022 4:30:00 PM 23.14 73.652 0.131 6.71 -1.04 7.59
8/11/2022 4:45:00 PM 23.15 73.67 0.13 6.75 -1.37 7.81
8/11/2022 5:00:00 PM 23.18 73.724 0.131 6.72 -1.28 7.59
8/11/2022 5:15:00 PM 23.14 73.652 0.131 6.71 -1.23 7.59
8/11/2022 5:30:00 PM 23.13 73.634 0.131 6.71 -1.19 7.63
8/11/2022 5:45:00 PM 23.15 73.67 0.13 6.71 -0.84 7.75
8/11/2022 6:00:00 PM 23.01 73.418 0.131 6.71 -1.08 7.77
8/11/2022 6:15:00 PM 22.89 73.202 0.13 6.7 -1.26 7.68
8/11/2022 6:30:00 PM 22.86 73.148 0.131 6.69 -1.22 7.62
8/11/2022 6:45:00 PM 22.8 73.04 0.13 6.74 -1.28 7.88
8/11/2022 7:00:00 PM 22.65 72.77 0.13 6.68 -1.22 7.61
8/11/2022 7:15:00 PM 22.56 72.608 0.129 6.72 -1.31 7.73
8/11/2022 7:30:00 PM 22.45 72.41 0.13 6.67 -1.15 7.38
8/11/2022 7:45:00 PM 22.38 72.284 0.13 6.7 -0.94 7.55
8/11/2022 8:00:00 PM 22.3 72.14 0.13 6.7 -1.12 7.5
8/11/2022 8:15:00 PM 22.2 71.96 0.129 6.68 -0.93 7.38
8/11/2022 8:30:00 PM 22.12 71.816 0.13 6.67 -0.57 7.28
8/11/2022 8:45:00 PM 22.06 71.708 0.13 6.66 -0.16 7.19
8/11/2022 9:00:00 PM 22.02 71.636 0.13 6.68 1.6 7.23
8/11/2022 9:15:00 PM 21.97 71.546 0.13 6.67 0.35 7.17
8/11/2022 9:30:00 PM 21.93 71.474 0.129 6.67 0.46 7.12
8/11/2022 9:45:00 PM 21.87 71.366 0.13 6.65 17.05 6.93
8/11/2022 10:00:00 PM 21.81 71.258 0.13 6.65 6.47 6.9
8/11/2022 10:15:00 PM 21.77 71.186 0.13 6.64 3.56 6.87
8/11/2022 10:30:00 PM 21.69 71.042 0.13 6.63 1.94 6.77
8/11/2022 10:45:00 PM 21.61 70.898 0.13 6.63 2.06 6.75
8/11/2022 11:00:00 PM 21.57 70.826 0.13 6.62 0.92 6.67
8/11/2022 11:15:00 PM 21.5 70.7 0.13 6.62 1.18 6.62
8/11/2022 11:30:00 PM 21.39 70.502 0.129 6.61 7.21 6.48
8/11/2022 11:45:00 PM 21.33 70.394 0.129 6.6 10.46 6.42
8/12/2022 12:00:00 AM 21.27 70.286 0.13 6.59 7.87 6.38
8/12/2022 12:15:00 AM 21.16 70.088 0.13 6.61 2.43 6.44
8/12/2022 12:30:00 AM 21.16 70.088 0.13 6.59 9.76 6.3
8/12/2022 12:45:00 AM 21.1 69.98 0.13 6.58 8.57 6.24
8/12/2022 1:00:00 AM 20.99 69.782 0.13 6.58 5.8 6.25
8/12/2022 1:15:00 AM 20.93 69.674 0.13 6.57 4.09 6.15
8/12/2022 1:30:00 AM 20.88 69.584 0.13 6.56 3.39 6.09
8/12/2022 1:45:00 AM 20.78 69.404 0.13 6.55 1.72 6.07
8/12/2022 2:00:00 AM 20.72 69.296 0.13 6.55 2.4 6.01
8/12/2022 2:15:00 AM 20.67 69.206 0.13 6.54 2.73 5.95
8/12/2022 2:30:00 AM 20.59 69.062 0.13 6.54 5.64 5.9
8/12/2022 2:45:00 AM 20.55 68.99 0.13 6.53 5.66 5.86
8/12/2022 3:00:00 AM 20.46 68.828 0.13 6.53 5.01 5.76
8/12/2022 3:15:00 AM 20.41 68.738 0.131 6.53 4.89 5.74
8/12/2022 3:30:00 AM 20.37 68.666 0.131 6.52 5.47 5.68
8/12/2022 3:45:00 AM 20.3 68.54 0.131 6.52 3.39 5.6
8/12/2022 4:00:00 AM 20.26 68.468 0.131 6.52 2.21 5.55
8/12/2022 4:15:00 AM 20.2 68.36 0.131 6.51 123.74 5.51
8/12/2022 4:30:00 AM 20.16 68.288 0.131 6.51 7.51 5.42
8/12/2022 4:45:00 AM 20.09 68.162 0.131 6.51 3.27 5.36
8/12/2022 5:00:00 AM 20.06 68.108 0.131 6.51 2.55 5.29
8/12/2022 5:15:00 AM 19.99 67.982 0.131 6.51 1.63 5.26
8/12/2022 5:30:00 AM 19.93 67.874 0.131 6.51 0.81 5.21
8/12/2022 5:45:00 AM 19.9 67.82 0.131 6.51 1.2 5.15
8/12/2022 6:00:00 AM 19.87 67.766 0.132 6.5 0.6 5.11
8/12/2022 6:15:00 AM 19.81 67.658 0.132 6.5 0.45 5.07
8/12/2022 6:30:00 AM 19.78 67.604 0.132 6.5 0.33 4.99
8/12/2022 6:45:00 AM 19.73 67.514 0.132 6.5 0.29 4.96
8/12/2022 7:00:00 AM 19.72 67.496 0.132 6.5 0.43 4.92
8/12/2022 7:15:00 AM 19.68 67.424 0.132 6.49 0.47 4.88
8/12/2022 7:30:00 AM 19.66 67.388 0.132 6.5 0.68 4.86
8/12/2022 7:45:00 AM 19.63 67.334 0.132 6.49 1.39 4.83
8/12/2022 8:00:00 AM 19.62 67.316 0.132 6.49 1.44 4.81
8/12/2022 8:15:00 AM 19.62 67.316 0.132 6.5 2.98 4.83
8/12/2022 8:30:00 AM 19.61 67.298 0.132 6.51 1.53 4.84
8/12/2022 8:45:00 AM 19.65 67.37 0.133 6.52 0.4 4.86
8/12/2022 9:00:00 AM 19.68 67.424 0.133 6.52 0.02 4.86
8/12/2022 9:15:00 AM 19.66 67.388 0.133 6.53 -0.25 4.91
8/12/2022 9:30:00 AM 19.69 67.442 0.133 6.54 -0.31 5.01
8/12/2022 9:45:00 AM 19.71 67.478 0.133 6.55 -0.58 5.09
8/12/2022 10:00:00 AM 19.75 67.55 0.133 6.55 -0.61 5.13
8/12/2022 10:15:00 AM 19.8 67.64 0.133 6.55 -0.39 5.11
8/12/2022 10:30:00 AM 19.83 67.694 0.133 6.55 -0.11 5.09
8/12/2022 10:45:00 AM 19.92 67.856 0.133 6.57 -0.4 5.21
8/12/2022 11:00:00 AM 20.08 68.144 0.133 6.59 -0.51 5.43
8/12/2022 11:15:00 AM 20.12 68.216 0.133 6.6 -0.63 5.61
8/12/2022 11:30:00 AM 20.19 68.342 0.133 6.6 -0.74 5.66
8/12/2022 11:45:00 AM 20.37 68.666 0.133 6.61 -0.72 5.86
8/12/2022 12:00:00 PM 20.53 68.954 0.133 6.64 -0.83 6
8/12/2022 12:15:00 PM 20.75 69.35 0.133 6.64 -0.92 6.03
8/12/2022 12:30:00 PM 20.81 69.458 0.132 6.66 -0.86 6.16
8/12/2022 12:45:00 PM 21.11 69.998 0.132 6.66 -0.89 6.27
8/12/2022 1:00:00 PM 21.14 70.052 0.132 6.67 -0.83 6.38
8/12/2022 1:15:00 PM 21.28 70.304 0.132 6.68 -0.83 6.46
8/12/2022 1:30:00 PM 21.64 70.952 0.132 6.68 -0.94 6.57
8/12/2022 1:45:00 PM 21.79 71.222 0.132 6.7 -0.92 6.74
8/12/2022 2:00:00 PM 21.84 71.312 0.132 6.71 -0.83 6.81
8/12/2022 2:15:00 PM 21.92 71.456 0.132 6.7 -0.78 6.73
8/12/2022 2:30:00 PM 22.09 71.762 0.132 6.73 -0.93 6.89
8/12/2022 2:45:00 PM 22.22 71.996 0.132 6.68 -0.26 6.63
8/12/2022 3:00:00 PM 22.31 72.158 0.133 6.67 -0.19 6.63
8/12/2022 3:15:00 PM 22.51 72.518 0.132 6.67 -0.33 6.77
8/12/2022 3:30:00 PM 22.66 72.788 0.132 6.67 -0.42 6.96
8/12/2022 3:45:00 PM 22.67 72.806 0.132 6.67 -0.21 7.02
8/12/2022 4:00:00 PM 22.67 72.806 0.132 6.68 -0.4 7.14
8/12/2022 4:15:00 PM 22.65 72.77 0.132 6.69 -0.62 7.27
8/12/2022 4:30:00 PM 22.62 72.716 0.132 6.69 -0.43 7.33
8/12/2022 4:45:00 PM 22.53 72.554 0.131 6.67 -0.6 7.21
8/12/2022 5:00:00 PM 22.48 72.464 0.132 6.68 -0.57 7.35
8/12/2022 5:15:00 PM 22.4 72.32 0.132 6.66 -0.42 7.23
8/12/2022 5:30:00 PM 22.29 72.122 0.132 6.68 -0.48 7.25
8/12/2022 5:45:00 PM 22.25 72.05 0.132 6.67 -0.65 7.22
8/12/2022 6:00:00 PM 22.19 71.942 0.131 6.67 -0.55 7.22
8/12/2022 6:15:00 PM 22.08 71.744 0.131 6.66 -0.36 7.21
8/12/2022 6:30:00 PM 22.02 71.636 0.131 6.7 -0.49 7.37
8/12/2022 6:45:00 PM 21.9 71.42 0.131 6.69 -0.43 7.31
8/12/2022 7:00:00 PM 21.78 71.204 0.131 6.66 -0.22 7.1
8/12/2022 7:15:00 PM 21.63 70.934 0.132 6.64 -0.05 6.97
8/12/2022 7:30:00 PM 21.56 70.808 0.132 6.64 0.19 6.9
8/12/2022 7:45:00 PM 21.46 70.628 0.131 6.64 -0.23 6.95
8/12/2022 8:00:00 PM 21.4 70.52 0.131 6.63 0.05 6.8
8/12/2022 8:15:00 PM 21.33 70.394 0.131 6.63 0.44 6.77
8/12/2022 8:30:00 PM 21.24 70.232 0.132 6.62 -0.06 6.73
8/12/2022 8:45:00 PM 21.17 70.106 0.131 6.62 0.99 6.7
8/12/2022 9:00:00 PM 21.1 69.98 0.131 6.65 1.57 6.83
8/12/2022 9:15:00 PM 21.01 69.818 0.131 6.64 0.72 6.79
8/12/2022 9:30:00 PM 20.97 69.746 0.131 6.64 2.37 6.74
8/12/2022 9:45:00 PM 20.9 69.62 0.131 6.64 1.89 6.72
8/12/2022 10:00:00 PM 20.82 69.476 0.131 6.63 1.08 6.7
8/12/2022 10:15:00 PM 20.75 69.35 0.131 6.63 1.25 6.65
8/12/2022 10:30:00 PM 20.69 69.242 0.13 6.62 0.94 6.61
8/12/2022 10:45:00 PM 20.61 69.098 0.131 6.61 13.46 6.53
8/12/2022 11:00:00 PM 20.55 68.99 0.13 6.61 2.92 6.51
8/12/2022 11:15:00 PM 20.51 68.918 0.13 6.6 4.11 6.46
8/12/2022 11:30:00 PM 20.43 68.774 0.13 6.6 3.46 6.42
8/12/2022 11:45:00 PM 20.36 68.648 0.13 6.59 3.83 6.39
8/13/2022 12:00:00 AM 20.3 68.54 0.13 6.58 3.91 6.32
8/13/2022 12:15:00 AM 20.22 68.396 0.13 6.57 4.01 6.28
8/13/2022 12:30:00 AM 20.14 68.252 0.13 6.56 2.63 6.25
8/13/2022 12:45:00 AM 20.07 68.126 0.13 6.56 2.28 6.23
8/13/2022 1:00:00 AM 20.02 68.036 0.13 6.55 3.08 6.23
8/13/2022 1:15:00 AM 19.94 67.892 0.13 6.55 2.78 6.25
8/13/2022 1:30:00 AM 19.89 67.802 0.13 6.55 3.2 6.22
8/13/2022 1:45:00 AM 19.84 67.712 0.13 6.54 4.43 6.19
8/13/2022 2:00:00 AM 19.74 67.532 0.13 6.54 3.13 6.17
8/13/2022 2:15:00 AM 19.69 67.442 0.13 6.53 1.74 6.13
8/13/2022 2:30:00 AM 19.64 67.352 0.13 6.53 5.57 6.1
8/13/2022 2:45:00 AM 19.58 67.244 0.13 6.52 2.72 6.08
8/13/2022 3:00:00 AM 19.54 67.172 0.13 6.52 2.87 6.04
8/13/2022 3:15:00 AM 19.49 67.082 0.13 6.52 32.12 6.01
8/13/2022 3:30:00 AM 19.45 67.01 0.13 6.52 1.67 5.99
8/13/2022 3:45:00 AM 19.43 66.974 0.13 6.52 2.85 5.93
8/13/2022 4:00:00 AM 19.35 66.83 0.13 6.52 1.77 5.92
8/13/2022 4:15:00 AM 19.27 66.686 0.13 6.52 1.4 5.89
8/13/2022 4:30:00 AM 19.23 66.614 0.13 6.51 21.14 5.81
8/13/2022 4:45:00 AM 19.17 66.506 0.13 6.51 3.74 5.77
8/13/2022 5:00:00 AM 19.11 66.398 0.13 6.51 2.79 5.75
8/13/2022 5:15:00 AM 19.07 66.326 0.13 6.51 3.48 5.74
8/13/2022 5:30:00 AM 19 66.2 0.13 6.5 2.75 5.67
8/13/2022 5:45:00 AM 18.96 66.128 0.13 6.5 2.78 5.6
8/13/2022 6:00:00 AM 18.91 66.038 0.13 6.5 2.81 5.54
8/13/2022 6:15:00 AM 18.88 65.984 0.13 6.5 3.32 5.5
8/13/2022 6:30:00 AM 18.8 65.84 0.13 6.5 1.48 5.5
8/13/2022 6:45:00 AM 18.76 65.768 0.13 6.5 1.5 5.45
8/13/2022 7:00:00 AM 18.76 65.768 0.13 6.5 1.23 5.41
8/13/2022 7:15:00 AM 18.71 65.67799 0.131 6.5 0.55 5.38
8/13/2022 7:30:00 AM 18.69 65.642 0.131 6.5 0.8 5.35
8/13/2022 7:45:00 AM 18.65 65.57 0.131 6.5 0.81 5.34
8/13/2022 8:00:00 AM 18.66 65.588 0.131 6.51 0.71 5.33
8/13/2022 8:15:00 AM 18.67 65.606 0.131 6.52 0.63 5.33
8/13/2022 8:30:00 AM 18.66 65.588 0.131 6.52 0.35 5.31
8/13/2022 8:45:00 AM 18.69 65.642 0.131 6.53 -0.02 5.32
8/13/2022 9:00:00 AM 18.77 65.786 0.131 6.54 -0.36 5.35
8/13/2022 9:15:00 AM 18.8 65.84 0.131 6.54 -0.43 5.34
8/13/2022 9:30:00 AM 18.84 65.912 0.131 6.55 -0.51 5.39
8/13/2022 9:45:00 AM 18.94 66.092 0.132 6.56 -0.61 5.44
8/13/2022 10:00:00 AM 19.02 66.236 0.132 6.56 -0.65 5.42
8/13/2022 10:15:00 AM 19.1 66.38 0.132 6.57 -0.6 5.42
8/13/2022 10:30:00 AM 19.15 66.47 0.132 6.58 -0.65 5.48
8/13/2022 10:45:00 AM 19.25 66.65 0.132 6.58 -0.5 5.51
8/13/2022 11:00:00 AM 19.32 66.776 0.132 6.58 -0.29 5.54
8/13/2022 11:15:00 AM 19.32 66.776 0.132 6.6 -0.26 5.57
8/13/2022 11:30:00 AM 19.51 67.118 0.132 6.6 -0.71 5.77
8/13/2022 11:45:00 AM 19.68 67.424 0.132 6.61 -0.77 5.83
8/13/2022 12:00:00 PM 19.8 67.64 0.133 6.63 -0.77 5.92
8/13/2022 12:15:00 PM 20.12 68.216 0.133 6.62 -0.77 5.88
8/13/2022 12:30:00 PM 20.27 68.486 0.133 6.63 -0.73 5.93
8/13/2022 12:45:00 PM 20.39 68.702 0.133 6.64 -0.88 5.98
8/13/2022 1:00:00 PM 20.53 68.954 0.133 6.65 -0.84 6.07
8/13/2022 1:15:00 PM 20.79 69.422 0.133 6.65 -0.88 6.13
8/13/2022 1:30:00 PM 20.92 69.656 0.133 6.65 -0.84 6.12
8/13/2022 1:45:00 PM 20.88 69.584 0.133 6.65 -0.8 6.14
8/13/2022 2:00:00 PM 21.34 70.412 0.133 6.65 -0.83 6.34
8/13/2022 2:15:00 PM 21.61 70.898 0.133 6.66 -0.81 6.52
8/13/2022 2:30:00 PM 21.83 71.294 0.133 6.68 -0.84 6.55
8/13/2022 2:45:00 PM 21.76 71.168 0.132 6.66 -0.76 6.43
8/13/2022 3:00:00 PM 21.86 71.348 0.133 6.66 -0.36 6.47
8/13/2022 3:15:00 PM 22.04 71.672 0.133 6.65 -0.22 6.56
8/13/2022 3:30:00 PM 22.04 71.672 0.132 6.63 -0.31 6.59
8/13/2022 3:45:00 PM 22.28 72.104 0.132 6.65 -0.64 6.6
8/13/2022 4:00:00 PM 22.21 71.978 0.132 6.64 -0.53 6.62
8/13/2022 4:15:00 PM 22.3 72.14 0.132 6.62 -0.62 6.58
8/13/2022 4:30:00 PM 22.3 72.14 0.133 6.64 -0.54 6.62
8/13/2022 4:45:00 PM 22.25 72.05 0.132 6.62 -0.59 6.6
8/13/2022 5:00:00 PM 22.11 71.798 0.132 6.61 -0.56 6.57
8/13/2022 5:15:00 PM 22.05 71.69 0.132 6.61 -0.49 6.63
8/13/2022 5:30:00 PM 21.94 71.492 0.131 6.61 -0.46 6.68
8/13/2022 5:45:00 PM 21.87 71.366 0.131 6.6 -0.55 6.54
8/13/2022 6:00:00 PM 21.8 71.24 0.131 6.59 -0.43 6.48
8/13/2022 6:15:00 PM 21.72 71.096 0.131 6.58 -0.57 6.46
8/13/2022 6:30:00 PM 21.58 70.844 0.131 6.6 -0.49 6.66
8/13/2022 6:45:00 PM 21.42 70.556 0.131 6.6 -0.53 6.65
8/13/2022 7:00:00 PM 21.29 70.32201 0.131 6.59 -0.53 6.62
8/13/2022 7:15:00 PM 21.28 70.304 0.131 6.6 -0.3 6.65
8/13/2022 7:30:00 PM 21.13 70.034 0.13 6.59 -0.37 6.59
8/13/2022 7:45:00 PM 21.03 69.854 0.13 6.58 -0.36 6.53
8/13/2022 8:00:00 PM 20.96 69.728 0.131 6.59 -0.33 6.55
8/13/2022 8:15:00 PM 20.89 69.602 0.13 6.57 -0.2 6.34
8/13/2022 8:30:00 PM 20.81 69.458 0.13 6.57 0.05 6.24
8/13/2022 8:45:00 PM 20.7 69.26 0.13 6.56 -0.09 6.18
8/13/2022 9:00:00 PM 20.62 69.116 0.13 6.54 0.32 6.08
8/13/2022 9:15:00 PM 20.56 69.008 0.13 6.53 3.4 5.99
8/13/2022 9:30:00 PM 20.5 68.9 0.129 6.53 1.32 5.98
8/13/2022 9:45:00 PM 20.39 68.702 0.129 6.53 2.24 5.96
8/13/2022 10:00:00 PM 20.34 68.612 0.129 6.53 1.89 5.89
8/13/2022 10:15:00 PM 20.28 68.504 0.129 6.51 8.51 5.8
8/13/2022 10:30:00 PM 20.15 68.27 0.129 6.52 2.64 5.82
8/13/2022 10:45:00 PM 20.06 68.108 0.129 6.52 1.22 5.77
8/13/2022 11:00:00 PM 19.99 67.982 0.129 6.52 1.63 5.76
8/13/2022 11:15:00 PM 19.91 67.838 0.129 6.52 2.09 5.74
8/13/2022 11:30:00 PM 19.88 67.784 0.129 6.51 2.7 5.72
8/13/2022 11:45:00 PM 19.79 67.622 0.129 6.51 1.68 5.71
8/14/2022 12:00:00 AM 19.71 67.478 0.129 6.51 4.04 5.7
8/14/2022 12:15:00 AM 19.68 67.424 0.128 6.5 5.25 5.64
8/14/2022 12:30:00 AM 19.52 67.136 0.128 6.5 2.15 5.7
8/14/2022 12:45:00 AM 19.45 67.01 0.128 6.5 0.89 5.74
8/14/2022 1:00:00 AM 19.41 66.938 0.128 6.5 2.05 5.7
8/14/2022 1:15:00 AM 19.37 66.866 0.128 6.49 24.28 5.68
8/14/2022 1:30:00 AM 19.34 66.812 0.128 6.49 11.91 5.65
8/14/2022 1:45:00 AM 19.27 66.686 0.128 6.49 3.22 5.67
8/14/2022 2:00:00 AM 19.21 66.578 0.128 6.49 4.41 5.66
8/14/2022 2:15:00 AM 19.13 66.434 0.128 6.48 6.11 5.65
8/14/2022 2:30:00 AM 19.11 66.398 0.128 6.48 6.31 5.66
8/14/2022 2:45:00 AM 19.04 66.272 0.128 6.48 3.35 5.72
8/14/2022 3:00:00 AM 18.97 66.146 0.128 6.48 3.26 5.73
8/14/2022 3:15:00 AM 18.93 66.074 0.128 6.48 2.84 5.75
8/14/2022 3:30:00 AM 18.94 66.092 0.128 6.48 5.73 5.74
8/14/2022 3:45:00 AM 18.88 65.984 0.128 6.48 4.48 5.76
8/14/2022 4:00:00 AM 18.81 65.858 0.128 6.48 2.63 5.82
8/14/2022 4:15:00 AM 18.81 65.858 0.128 6.48 1.07 5.84
8/14/2022 4:30:00 AM 18.78 65.804 0.128 6.48 0.94 5.84
8/14/2022 4:45:00 AM 18.77 65.786 0.128 6.48 2.24 5.79
8/14/2022 5:00:00 AM 18.71 65.67799 0.128 6.48 1.16 5.82
8/14/2022 5:15:00 AM 18.72 65.696 0.128 6.48 1.78 5.77
8/14/2022 5:30:00 AM 18.64 65.552 0.128 6.48 2.13 5.76
8/14/2022 5:45:00 AM 18.59 65.462 0.128 6.48 1.96 5.77
8/14/2022 6:00:00 AM 18.58 65.444 0.128 6.48 1.07 5.78
8/14/2022 6:15:00 AM 18.55 65.39 0.128 6.49 1.04 5.76
8/14/2022 6:30:00 AM 18.53 65.354 0.128 6.48 1.29 5.73
8/14/2022 6:45:00 AM 18.5 65.3 0.128 6.49 1.18 5.72
8/14/2022 7:00:00 AM 18.48 65.264 0.128 6.49 0.86 5.7
8/14/2022 7:15:00 AM 18.45 65.21 0.128 6.49 0.83 5.69
8/14/2022 7:30:00 AM 18.43 65.174 0.128 6.49 0.83 5.66
8/14/2022 7:45:00 AM 18.45 65.21 0.129 6.49 0.81 5.62
8/14/2022 8:00:00 AM 18.46 65.228 0.129 6.49 0.77 5.61
8/14/2022 8:15:00 AM 18.49 65.282 0.129 6.5 0.88 5.61
8/14/2022 8:30:00 AM 18.51 65.318 0.129 6.5 1.08 5.6
8/14/2022 8:45:00 AM 18.57 65.426 0.129 6.51 0.67 5.61
8/14/2022 9:00:00 AM 18.63 65.534 0.129 6.52 0.43 5.59
8/14/2022 9:15:00 AM 18.65 65.57 0.129 6.53 0.28 5.62
8/14/2022 9:30:00 AM 18.7 65.66 0.129 6.54 0.1 5.66
8/14/2022 9:45:00 AM 18.86 65.948 0.13 6.54 -0.16 5.72
8/14/2022 10:00:00 AM 18.93 66.074 0.13 6.55 -0.23 5.71
8/14/2022 10:15:00 AM 19.04 66.272 0.13 6.54 -0.17 5.63
8/14/2022 10:30:00 AM 19.18 66.524 0.13 6.55 -0.25 5.65
8/14/2022 10:45:00 AM 19.32 66.776 0.13 6.55 -0.39 5.63
8/14/2022 11:00:00 AM 19.42 66.956 0.13 6.55 -0.22 5.59
8/14/2022 11:15:00 AM 19.63 67.334 0.13 6.56 -0.18 5.66
8/14/2022 11:30:00 AM 19.8 67.64 0.13 6.55 -0.34 5.59
8/14/2022 11:45:00 AM 20.2 68.36 0.13 6.54 -0.47 5.44
8/14/2022 12:00:00 PM 20.18 68.324 0.13 6.58 -0.4 5.71
8/14/2022 12:15:00 PM 20.52 68.936 0.13 6.57 -0.35 5.64
8/14/2022 12:30:00 PM 20.49 68.882 0.13 6.58 -0.25 5.74
8/14/2022 12:45:00 PM 20.73 69.314 0.13 6.56 -0.4 5.61
8/14/2022 1:00:00 PM 21.09 69.962 0.13 6.6 -0.52 5.79
8/14/2022 1:15:00 PM 20.77 69.386 0.13 6.59 -0.35 5.82
8/14/2022 1:30:00 PM 20.85 69.53 0.13 6.6 -0.38 5.87
8/14/2022 1:45:00 PM 21.3 70.34 0.13 6.6 -0.56 5.85
8/14/2022 2:00:00 PM 20.96 69.728 0.13 6.61 0.26 6.37
8/14/2022 2:15:00 PM 21.39 70.502 0.13 6.58 -0.39 5.71
8/14/2022 2:30:00 PM 21.38 70.484 0.13 6.61 -0.51 5.93
8/14/2022 2:45:00 PM 21.38 70.484 0.13 6.6 -0.46 5.93
8/14/2022 3:00:00 PM 20.97 69.746 0.13 6.6 0.47 6.5
8/14/2022 3:15:00 PM 21.09 69.962 0.13 6.61 -0.16 6.23
8/14/2022 3:30:00 PM 21.25 70.25 0.13 6.62 -0.67 6.02
8/14/2022 3:45:00 PM 21.3 70.34 0.13 6.62 -0.69 6.1
8/14/2022 4:00:00 PM 21.22 70.196 0.13 6.61 -0.43 6.08
8/14/2022 4:15:00 PM 21.05 69.89 0.13 6.58 -0.02 6.11
8/14/2022 4:30:00 PM 21.01 69.818 0.13 6.6 -0.13 6.27
8/14/2022 4:45:00 PM 20.98 69.764 0.13 6.59 -0.31 6.07
8/14/2022 5:00:00 PM 20.99 69.782 0.129 6.58 -0.71 6.06
8/14/2022 5:15:00 PM 20.94 69.692 0.129 6.56 -0.58 6.06
8/14/2022 5:30:00 PM 20.78 69.404 0.13 6.54 -0.2 5.94
8/14/2022 5:45:00 PM 20.71 69.278 0.129 6.55 -0.56 6.02
8/14/2022 6:00:00 PM 20.7 69.26 0.128 6.56 -0.73 6.19
8/14/2022 6:15:00 PM 20.94 69.692 0.129 6.59 -0.7 6.14
8/14/2022 6:30:00 PM 21.11 69.998 0.13 6.61 -0.61 6.39
8/14/2022 6:45:00 PM 20.9 69.62 0.129 6.57 -0.55 6.16
8/14/2022 7:00:00 PM 20.82 69.476 0.129 6.55 -0.43 5.98
8/14/2022 7:15:00 PM 20.82 69.476 0.129 6.57 -0.56 6.16
8/14/2022 7:30:00 PM 20.66 69.188 0.128 6.54 -0.73 6.14
8/14/2022 7:45:00 PM 20.66 69.188 0.129 6.53 -0.66 6.09
8/14/2022 8:00:00 PM 20.62 69.116 0.129 6.54 -0.58 6.1
8/14/2022 8:15:00 PM 20.59 69.062 0.129 6.53 -0.54 6.08
8/14/2022 8:30:00 PM 20.47 68.846 0.129 6.51 -0.12 5.98
8/14/2022 8:45:00 PM 20.42 68.756 0.129 6.5 0.18 5.9
8/14/2022 9:00:00 PM 20.37 68.666 0.129 6.5 0.29 5.88
8/14/2022 9:15:00 PM 20.31 68.558 0.129 6.49 0.7 5.9
8/14/2022 9:30:00 PM 20.3 68.54 0.129 6.48 1.53 5.79
8/14/2022 9:45:00 PM 20.23 68.414 0.129 6.48 1.89 5.73
8/14/2022 10:00:00 PM 20.17 68.306 0.129 6.49 1.9 5.79
8/14/2022 10:15:00 PM 20.13 68.234 0.129 6.48 4.35 5.77
8/14/2022 10:30:00 PM 20.08 68.144 0.129 6.47 3.81 5.69
8/14/2022 10:45:00 PM 20.02 68.036 0.129 6.48 5.08 5.66
8/14/2022 11:00:00 PM 19.97 67.946 0.128 6.48 2.1 5.67
8/14/2022 11:15:00 PM 19.93 67.874 0.128 6.45 3.09 5.5
8/14/2022 11:30:00 PM 19.88 67.784 0.128 6.47 3.97 5.62
8/14/2022 11:45:00 PM 19.85 67.73 0.128 6.46 4.02 5.55
8/15/2022 12:00:00 AM 19.77 67.586 0.128 6.47 3.12 5.62
8/15/2022 12:15:00 AM 19.73 67.514 0.128 6.46 2.25 5.58
8/15/2022 12:30:00 AM 19.7 67.46 0.128 6.46 7.36 5.56
8/15/2022 12:45:00 AM 19.67 67.406 0.128 6.46 7.19 5.52
8/15/2022 1:00:00 AM 19.59 67.262 0.128 6.46 5.64 5.5
8/15/2022 1:15:00 AM 19.56 67.208 0.128 6.45 5.11 5.45
8/15/2022 1:30:00 AM 19.49 67.082 0.128 6.45 3.73 5.42
8/15/2022 1:45:00 AM 19.45 67.01 0.128 6.44 6.96 5.39
8/15/2022 2:00:00 AM 19.44 66.992 0.128 6.44 8.54 5.35
8/15/2022 2:15:00 AM 19.39 66.902 0.127 6.44 7.04 5.35
8/15/2022 2:30:00 AM 19.37 66.866 0.127 6.44 6.44 5.31
8/15/2022 2:45:00 AM 19.34 66.812 0.127 6.43 6.4 5.29
8/15/2022 3:00:00 AM 19.29 66.722 0.127 6.43 4.93 5.27
8/15/2022 3:15:00 AM 19.27 66.686 0.127 6.43 5.67 5.26
8/15/2022 3:30:00 AM 19.22 66.596 0.127 6.43 4.39 5.29
8/15/2022 3:45:00 AM 19.22 66.596 0.127 6.43 4.64 5.32
8/15/2022 4:00:00 AM 19.19 66.542 0.127 6.43 3.56 5.33
8/15/2022 4:15:00 AM 19.16 66.488 0.127 6.43 3.37 5.36
8/15/2022 4:30:00 AM 19.12 66.416 0.127 6.43 2.39 5.42
8/15/2022 4:45:00 AM 19.13 66.434 0.128 6.44 10.26 5.42
8/15/2022 5:00:00 AM 19.07 66.326 0.127 6.43 3.47 5.44
8/15/2022 5:15:00 AM 19.1 66.38 0.127 6.43 133.09 5.44
8/15/2022 5:30:00 AM 19.07 66.326 0.127 6.44 58.94 5.41
8/15/2022 5:45:00 AM 19.03 66.254 0.127 6.44 3.4 5.44
8/15/2022 6:00:00 AM 19.02 66.236 0.127 6.44 3.4 5.42
8/15/2022 6:15:00 AM 18.98 66.164 0.127 6.44 3.49 5.41
8/15/2022 6:30:00 AM 18.93 66.074 0.127 6.44 2.45 5.46
8/15/2022 6:45:00 AM 18.91 66.038 0.127 6.44 2.21 5.48
8/15/2022 7:00:00 AM 18.89 66.002 0.127 6.43 2.13 5.52
8/15/2022 7:15:00 AM 18.87 65.966 0.127 6.43 2.91 5.51
8/15/2022 7:30:00 AM 18.85 65.93 0.127 6.43 2.74 5.5
8/15/2022 7:45:00 AM 18.86 65.948 0.128 6.43 1.88 5.51
8/15/2022 8:00:00 AM 18.88 65.984 0.128 6.43 1.56 5.52
8/15/2022 8:15:00 AM 18.89 66.002 0.128 6.44 1.01 5.51
8/15/2022 8:30:00 AM 18.92 66.056 0.128 6.44 0.77 5.41
8/15/2022 8:45:00 AM 18.95 66.11 0.128 6.45 0.83 5.44
8/15/2022 9:00:00 AM 18.98 66.164 0.128 6.46 0.51 5.49
8/15/2022 9:15:00 AM 19.04 66.272 0.128 6.46 0.38 5.5
8/15/2022 9:30:00 AM 19.17 66.506 0.129 6.48 0.22 5.56
8/15/2022 9:45:00 AM 19.2 66.56 0.129 6.49 0.36 5.63
8/15/2022 10:00:00 AM 19.31 66.758 0.129 6.5 0.32 5.67
8/15/2022 10:15:00 AM 19.39 66.902 0.129 6.5 0.34 5.65
8/15/2022 10:30:00 AM 19.66 67.388 0.129 6.51 -0.05 5.58
8/15/2022 10:45:00 AM 19.66 67.388 0.129 6.52 0.21 5.7
8/15/2022 11:00:00 AM 19.75 67.55 0.129 6.52 0.37 5.79
8/15/2022 11:15:00 AM 19.91 67.838 0.129 6.52 0.1 5.61
8/15/2022 11:30:00 AM 20.17 68.306 0.129 6.52 0.02 5.66
8/15/2022 11:45:00 AM 20.07 68.126 0.129 6.53 0.14 5.7
8/15/2022 12:00:00 PM 20.42 68.756 0.13 6.51 -0.11 5.49
8/15/2022 12:15:00 PM 20.35 68.63 0.129 6.55 -0.09 5.74
8/15/2022 12:30:00 PM 20.29 68.522 0.129 6.55 0.14 5.97
8/15/2022 12:45:00 PM 20.45 68.81 0.129 6.55 -0.15 5.71
8/15/2022 1:00:00 PM 21.09 69.962 0.129 6.57 -0.24 5.81
8/15/2022 1:15:00 PM 20.84 69.512 0.129 6.56 -0.18 5.77
8/15/2022 1:30:00 PM 21.12 70.016 0.129 6.56 -0.26 5.75
8/15/2022 1:45:00 PM 21.11 69.998 0.129 6.59 -0.25 5.99
8/15/2022 2:00:00 PM 21.04 69.872 0.129 6.58 -0.21 5.89
8/15/2022 2:15:00 PM 21.24 70.232 0.13 6.57 -0.18 5.78
8/15/2022 2:30:00 PM 21.52 70.736 0.13 6.57 -0.1 5.95
8/15/2022 2:45:00 PM 21.45 70.61 0.129 6.57 0.31 6.27
8/15/2022 3:00:00 PM 21.38 70.484 0.129 6.56 0.3 6.16
8/15/2022 3:15:00 PM 21.25 70.25 0.129 6.52 1.4 6.24
8/15/2022 3:30:00 PM 21.83 71.294 0.13 6.57 -0.1 5.95
8/15/2022 3:45:00 PM 21.78 71.204 0.13 6.57 -0.08 6.03
8/15/2022 4:00:00 PM 21.94 71.492 0.129 6.58 -0.01 5.99
8/15/2022 4:15:00 PM 21.62 70.916 0.13 6.54 0.17 5.92
8/15/2022 4:30:00 PM 21.69 71.042 0.13 6.59 0 6.19
8/15/2022 4:45:00 PM 21.61 70.898 0.13 6.6 0.05 6.29
8/15/2022 5:00:00 PM 21.59 70.862 0.129 6.57 -0.03 6.25
8/15/2022 5:15:00 PM 21.48 70.664 0.129 6.51 0.3 5.99
8/15/2022 5:30:00 PM 21.25 70.25 0.129 6.48 0.15 5.69
8/15/2022 5:45:00 PM 21.8 71.24 0.13 6.58 -0.08 6.17
8/15/2022 6:00:00 PM 21.2 70.16 0.129 6.51 -0.03 5.77
8/15/2022 6:15:00 PM 21.17 70.106 0.129 6.49 0.24 5.81
8/15/2022 6:30:00 PM 21.15 70.07 0.129 6.51 0.17 5.86
8/15/2022 6:45:00 PM 21 69.8 0.129 6.49 0.09 5.77
8/15/2022 7:00:00 PM 20.93 69.674 0.129 6.5 0.04 5.82
8/15/2022 7:15:00 PM 20.77 69.386 0.129 6.48 3.27 5.73
8/15/2022 7:30:00 PM 20.72 69.296 0.13 6.51 0.87 5.87
8/15/2022 7:45:00 PM 20.66 69.188 0.129 6.5 0.28 5.79
8/15/2022 8:00:00 PM 20.59 69.062 0.129 6.5 0.32 5.77
8/15/2022 8:15:00 PM 20.54 68.972 0.129 6.5 0.32 5.7
8/15/2022 8:30:00 PM 20.43 68.774 0.129 6.48 0.86 5.59
8/15/2022 8:45:00 PM 20.4 68.72 0.129 6.46 1.96 5.46
8/15/2022 9:00:00 PM 20.34 68.612 0.129 6.49 1.46 5.61
8/15/2022 9:15:00 PM 20.31 68.558 0.129 6.48 3.06 5.58
8/15/2022 9:30:00 PM 20.25 68.45 0.129 6.47 1.65 5.48
8/15/2022 9:45:00 PM 20.21 68.378 0.129 6.46 2.44 5.38
8/15/2022 10:00:00 PM 20.17 68.306 0.129 6.47 3.12 5.4
8/15/2022 10:15:00 PM 20.11 68.198 0.129 6.48 3.04 5.49
8/15/2022 10:30:00 PM 20.1 68.18 0.129 6.47 4.61 5.45
8/15/2022 10:45:00 PM 20.11 68.198 0.128 6.46 4.86 5.32
8/15/2022 11:00:00 PM 20.06 68.108 0.129 6.46 6.86 5.28
8/15/2022 11:15:00 PM 20.02 68.036 0.129 6.46 4.8 5.27
8/15/2022 11:30:00 PM 19.97 67.946 0.128 6.46 3.56 5.26
8/15/2022 11:45:00 PM 19.93 67.874 0.128 6.46 3.78 5.24
8/16/2022 12:00:00 AM 19.87 67.766 0.129 6.46 4.09 5.22
8/16/2022 12:15:00 AM 19.84 67.712 0.128 6.44 2.85 5.17
8/16/2022 12:30:00 AM 19.84 67.712 0.129 6.44 3.38 5.12
8/16/2022 12:45:00 AM 19.79 67.622 0.128 6.43 2.17 5.08
8/16/2022 1:00:00 AM 19.74 67.532 0.128 6.44 5.18 5.11
8/16/2022 1:15:00 AM 19.72 67.496 0.128 6.43 3.61 5.05
8/16/2022 1:30:00 AM 19.69 67.442 0.128 6.43 4.4 5.08
8/16/2022 1:45:00 AM 19.63 67.334 0.127 6.42 5.08 5.1
8/16/2022 2:00:00 AM 19.63 67.334 0.128 6.42 8.97 5.04
8/16/2022 2:15:00 AM 19.6 67.28 0.127 6.41 11.55 5.02
8/16/2022 2:30:00 AM 19.57 67.226 0.127 6.41 18.71 5.04
8/16/2022 2:45:00 AM 19.53 67.154 0.127 6.41 8.98 5.04
8/16/2022 3:00:00 AM 19.53 67.154 0.127 6.39 8.67 4.99
8/16/2022 3:15:00 AM 19.49 67.082 0.127 6.39 8.05 4.96
8/16/2022 3:30:00 AM 19.46 67.028 0.127 6.4 7.94 4.99
8/16/2022 3:45:00 AM 19.42 66.956 0.127 6.39 6.32 5.02
8/16/2022 4:00:00 AM 19.41 66.938 0.127 6.39 6.33 5
8/16/2022 4:15:00 AM 19.39 66.902 0.127 6.39 6.05 5.01
8/16/2022 4:30:00 AM 19.37 66.866 0.127 6.39 7.05 4.97
8/16/2022 4:45:00 AM 19.33 66.794 0.127 6.39 7.47 4.97
8/16/2022 5:00:00 AM 19.33 66.794 0.127 6.39 5.92 4.96
8/16/2022 5:15:00 AM 19.31 66.758 0.127 6.38 24.64 4.94
8/16/2022 5:30:00 AM 19.28 66.704 0.127 6.39 8.38 4.97
8/16/2022 5:45:00 AM 19.25 66.65 0.127 6.39 6.25 4.99
8/16/2022 6:00:00 AM 19.22 66.596 0.127 6.39 5.66 5.04
8/16/2022 6:15:00 AM 19.22 66.596 0.127 6.39 3.03 5.1
8/16/2022 6:30:00 AM 19.21 66.578 0.127 6.39 3.21 5.09
8/16/2022 6:45:00 AM 19.17 66.506 0.127 6.39 3.38 5.09
8/16/2022 7:00:00 AM 19.18 66.524 0.127 6.39 3.76 5.09
8/16/2022 7:15:00 AM 19.18 66.524 0.127 6.39 3.84 5.08
8/16/2022 7:30:00 AM 19.18 66.524 0.127 6.39 3.02 5.07
8/16/2022 7:45:00 AM 19.19 66.542 0.127 6.39 2 5.08
8/16/2022 8:00:00 AM 19.18 66.524 0.127 6.39 1.71 5.07
8/16/2022 8:15:00 AM 19.19 66.542 0.127 6.4 1.62 5.12
8/16/2022 8:30:00 AM 19.23 66.614 0.128 6.4 1.36 5.17
8/16/2022 8:45:00 AM 19.3 66.74 0.128 6.41 0.72 5.15
8/16/2022 9:00:00 AM 19.34 66.812 0.128 6.42 0.56 5.23
8/16/2022 9:15:00 AM 19.42 66.956 0.128 6.42 0.35 5.16
8/16/2022 9:30:00 AM 19.45 67.01 0.128 6.43 0.37 5.29
8/16/2022 9:45:00 AM 19.5 67.1 0.128 6.44 0.29 5.38
8/16/2022 10:00:00 AM 19.64 67.352 0.128 6.46 0.15 5.49
8/16/2022 10:15:00 AM 19.79 67.622 0.128 6.46 0.11 5.44
8/16/2022 10:30:00 AM 19.84 67.712 0.128 6.47 0.09 5.48
8/16/2022 10:45:00 AM 19.91 67.838 0.128 6.47 0.16 5.45
8/16/2022 11:00:00 AM 20.02 68.036 0.129 6.44 0.49 5.2
8/16/2022 11:15:00 AM 20.28 68.504 0.129 6.48 0.07 5.37
8/16/2022 11:30:00 AM 20.34 68.612 0.129 6.48 -0.01 5.42
8/16/2022 11:45:00 AM 20.38 68.684 0.129 6.5 -0.1 5.58
8/16/2022 12:00:00 PM 20.5 68.9 0.129 6.49 -0.07 5.62
8/16/2022 12:15:00 PM 20.5 68.9 0.129 6.48 -0.02 5.42
8/16/2022 12:30:00 PM 20.56 69.008 0.129 6.5 -0.05 5.42
8/16/2022 12:45:00 PM 20.78 69.404 0.129 6.51 -0.13 5.67
8/16/2022 1:00:00 PM 20.77 69.386 0.129 6.48 -0.09 5.34
8/16/2022 1:15:00 PM 20.84 69.512 0.129 6.48 -0.08 5.52
8/16/2022 1:30:00 PM 21.07 69.926 0.129 6.52 -0.05 5.67
8/16/2022 1:45:00 PM 21.2 70.16 0.129 6.51 -0.08 5.64
8/16/2022 2:00:00 PM 21.48 70.664 0.129 6.53 -0.16 5.77
8/16/2022 2:15:00 PM 21.51 70.718 0.13 6.54 -0.19 5.79
8/16/2022 2:30:00 PM 21.81 71.258 0.13 6.54 -0.16 5.77
8/16/2022 2:45:00 PM 21.91 71.438 0.13 6.54 -0.03 5.97
8/16/2022 3:00:00 PM 21.76 71.168 0.129 6.52 0.61 5.9
8/16/2022 3:15:00 PM 21.95 71.51 0.13 6.56 -0.12 5.86
8/16/2022 3:30:00 PM 21.97 71.546 0.13 6.53 0.03 5.87
8/16/2022 3:45:00 PM 21.76 71.168 0.129 6.52 0.16 5.87
8/16/2022 4:00:00 PM 21.71 71.078 0.129 6.54 -0.08 5.86
8/16/2022 4:15:00 PM 21.55 70.79 0.129 6.52 0.08 5.76
8/16/2022 4:30:00 PM 21.47 70.646 0.129 6.51 -0.11 5.52
8/16/2022 4:45:00 PM 21.41 70.538 0.129 6.5 -0.09 5.53
8/16/2022 5:00:00 PM 21.5 70.7 0.129 6.49 -0.04 5.44
8/16/2022 5:15:00 PM 21.52 70.736 0.129 6.47 0.26 5.57
8/16/2022 5:30:00 PM 21.39 70.502 0.129 6.47 0.1 5.69
8/16/2022 5:45:00 PM 21.23 70.214 0.13 6.44 0.25 5.51
8/16/2022 6:00:00 PM 21.17 70.106 0.13 6.41 0.65 5.6
8/16/2022 6:15:00 PM 21.02 69.836 0.13 6.47 0.29 5.46
8/16/2022 6:30:00 PM 20.99 69.782 0.129 6.52 -0.05 5.67
8/16/2022 6:45:00 PM 21.06 69.908 0.129 6.51 0 5.69
8/16/2022 7:00:00 PM 21.11 69.998 0.129 6.51 0.27 5.87
8/16/2022 7:15:00 PM 21.07 69.926 0.129 6.51 0.28 5.72
8/16/2022 7:30:00 PM 20.98 69.764 0.13 6.5 1 5.61
8/16/2022 7:45:00 PM 20.9 69.62 0.13 6.5 0.37 5.65
8/16/2022 8:00:00 PM 20.79 69.422 0.13 6.47 0.4 5.32
8/16/2022 8:15:00 PM 20.72 69.296 0.13 6.45 0.65 5.2
8/16/2022 8:30:00 PM 20.61 69.098 0.13 6.42 0.64 4.95
8/16/2022 8:45:00 PM 20.53 68.954 0.129 6.43 0.48 5.02
8/16/2022 9:00:00 PM 20.5 68.9 0.129 6.41 0.96 4.9
8/16/2022 9:15:00 PM 20.41 68.738 0.13 6.43 1.79 4.99
8/16/2022 9:30:00 PM 20.37 68.666 0.13 6.39 2.7 4.7
8/16/2022 9:45:00 PM 20.31 68.558 0.13 6.41 3.45 4.84
8/16/2022 10:00:00 PM 20.26 68.468 0.129 6.4 3.02 4.83
8/16/2022 10:15:00 PM 20.2 68.36 0.13 6.41 2.78 4.83
8/16/2022 10:30:00 PM 20.14 68.252 0.129 6.39 3.18 4.65
8/16/2022 10:45:00 PM 20.12 68.216 0.129 6.41 3.36 4.81
8/16/2022 11:00:00 PM 20.08 68.144 0.13 6.41 5.67 4.77
8/16/2022 11:15:00 PM 20.01 68.018 0.129 6.4 3.27 4.7
8/16/2022 11:30:00 PM 19.99 67.982 0.13 6.41 2.91 4.73
8/16/2022 11:45:00 PM 19.93 67.874 0.129 6.4 2.89 4.65
8/17/2022 12:00:00 AM 19.88 67.784 0.129 6.4 2.72 4.65
8/17/2022 12:15:00 AM 19.81 67.658 0.129 6.4 2.56 4.68
8/17/2022 12:30:00 AM 19.74 67.532 0.129 6.4 2.45 4.66
8/17/2022 12:45:00 AM 19.71 67.478 0.129 6.39 3.45 4.61
8/17/2022 1:00:00 AM 19.63 67.334 0.129 6.39 4.55 4.63
8/17/2022 1:15:00 AM 19.58 67.244 0.129 6.39 3.17 4.57
8/17/2022 1:30:00 AM 19.56 67.208 0.129 6.38 7.8 4.54
8/17/2022 1:45:00 AM 19.49 67.082 0.129 6.39 11.45 4.55
8/17/2022 2:00:00 AM 19.41 66.938 0.128 6.38 9.36 4.58
8/17/2022 2:15:00 AM 19.34 66.812 0.128 6.38 6.66 4.57
8/17/2022 2:30:00 AM 19.31 66.758 0.128 6.38 5.22 4.59
8/17/2022 2:45:00 AM 19.28 66.704 0.128 6.37 10.45 4.56
8/17/2022 3:00:00 AM 19.2 66.56 0.128 6.37 4.74 4.61
8/17/2022 3:15:00 AM 19.14 66.452 0.128 6.38 2.97 4.69
8/17/2022 3:30:00 AM 19.12 66.416 0.128 6.37 3.61 4.69
8/17/2022 3:45:00 AM 19.11 66.398 0.128 6.37 5.77 4.64
8/17/2022 4:00:00 AM 19.07 66.326 0.128 6.36 5.73 4.6
8/17/2022 4:15:00 AM 19.06 66.308 0.128 6.36 18.35 4.58
8/17/2022 4:30:00 AM 19.04 66.272 0.128 6.36 7.28 4.59
8/17/2022 4:45:00 AM 19.03 66.254 0.128 6.36 5.52 4.64
8/17/2022 5:00:00 AM 18.97 66.146 0.128 6.36 12.46 4.65
8/17/2022 5:15:00 AM 18.96 66.128 0.128 6.36 6.19 4.71
8/17/2022 5:30:00 AM 18.92 66.056 0.127 6.36 4.9 4.77
8/17/2022 5:45:00 AM 18.9 66.02 0.127 6.37 4.46 4.78
8/17/2022 6:00:00 AM 18.93 66.074 0.127 6.37 4.19 4.82
8/17/2022 6:15:00 AM 18.89 66.002 0.127 6.38 3.16 4.86
8/17/2022 6:30:00 AM 18.89 66.002 0.127 6.38 2.94 4.9
8/17/2022 6:45:00 AM 18.88 65.984 0.127 6.39 2.21 5.04
8/17/2022 7:00:00 AM 18.87 65.966 0.127 6.39 3.18 5.02
8/17/2022 7:15:00 AM 18.86 65.948 0.127 6.39 2.62 5.01
8/17/2022 7:30:00 AM 18.84 65.912 0.127 6.39 2.06 5
8/17/2022 7:45:00 AM 18.87 65.966 0.127 6.4 1.55 5
8/17/2022 8:00:00 AM 18.9 66.02 0.128 6.39 1.34 4.98
8/17/2022 8:15:00 AM 18.93 66.074 0.128 6.4 1.04 5
8/17/2022 8:30:00 AM 18.98 66.164 0.128 6.4 0.93 5.03
8/17/2022 8:45:00 AM 19.01 66.218 0.128 6.41 0.91 5.02
8/17/2022 9:00:00 AM 19.08 66.344 0.128 6.41 0.54 5.01
8/17/2022 9:15:00 AM 19.16 66.488 0.128 6.42 0.34 5
8/17/2022 9:30:00 AM 19.19 66.542 0.128 6.42 0.53 5.07
8/17/2022 9:45:00 AM 19.26 66.668 0.128 6.43 0.31 5.15
8/17/2022 10:00:00 AM 19.35 66.83 0.128 6.44 0.2 5.27
8/17/2022 10:15:00 AM 19.43 66.974 0.128 6.45 0.11 5.33
8/17/2022 10:30:00 AM 19.49 67.082 0.128 6.46 0.13 5.41
8/17/2022 10:45:00 AM 19.54 67.172 0.128 6.46 0.14 5.47
8/17/2022 11:00:00 AM 19.59 67.262 0.128 6.47 0.03 5.51
8/17/2022 11:15:00 AM 19.64 67.352 0.128 6.47 0.06 5.52
8/17/2022 11:30:00 AM 19.67 67.406 0.128 6.47 0.04 5.55
8/17/2022 11:45:00 AM 19.74 67.532 0.128 6.48 0.1 5.61
8/17/2022 12:00:00 PM 19.8 67.64 0.128 6.48 -0.03 5.6
8/17/2022 12:15:00 PM 19.87 67.766 0.128 6.47 0.07 5.56
8/17/2022 12:30:00 PM 19.96 67.92799 0.128 6.48 -0.02 5.54
8/17/2022 12:45:00 PM 20.04 68.07201 0.129 6.47 -0.08 5.36
8/17/2022 1:00:00 PM 20.06 68.108 0.128 6.49 -0.03 5.63
8/17/2022 1:15:00 PM 20.1 68.18 0.129 6.48 -0.09 5.46
8/17/2022 1:30:00 PM 20.13 68.234 0.129 6.49 -0.08 5.61
8/17/2022 1:45:00 PM 20.16 68.288 0.129 6.5 -0.07 5.72
8/17/2022 2:00:00 PM 20.27 68.486 0.129 6.49 -0.11 5.56
8/17/2022 2:15:00 PM 20.27 68.486 0.129 6.5 -0.02 5.72
8/17/2022 2:30:00 PM 20.52 68.936 0.129 6.52 -0.05 5.83
8/17/2022 2:45:00 PM 20.83 69.494 0.129 6.53 -0.15 5.77
8/17/2022 3:00:00 PM 20.99 69.782 0.129 6.51 -0.06 5.78
8/17/2022 3:15:00 PM 21.21 70.17799 0.129 6.49 0.2 5.81
8/17/2022 3:30:00 PM 21.37 70.466 0.129 6.52 -0.07 5.76
8/17/2022 3:45:00 PM 21.49 70.682 0.13 6.5 0.07 5.92
8/17/2022 4:00:00 PM 21.1 69.98 0.129 6.5 0.05 5.82
8/17/2022 4:15:00 PM 20.96 69.728 0.129 6.51 0.75 5.86
8/17/2022 4:30:00 PM 20.83 69.494 0.128 6.54 0.38 6.07
8/17/2022 4:45:00 PM 20.66 69.188 0.128 6.53 0.19 5.98
8/17/2022 5:00:00 PM 20.56 69.008 0.128 6.54 0.17 6.09
8/17/2022 5:15:00 PM 20.5 68.9 0.128 6.52 0.2 5.95
8/17/2022 5:30:00 PM 20.56 69.008 0.129 6.48 0.57 5.89
8/17/2022 5:45:00 PM 20.64 69.152 0.129 6.44 0.71 5.73
8/17/2022 6:00:00 PM 20.71 69.278 0.129 6.43 0.5 5.49
8/17/2022 6:15:00 PM 20.52 68.936 0.129 6.41 0.71 5.43
8/17/2022 6:30:00 PM 20.37 68.666 0.129 6.43 0.5 5.39
8/17/2022 6:45:00 PM 20.27 68.486 0.129 6.44 0.4 5.19
8/17/2022 7:00:00 PM 20.25 68.45 0.129 6.45 0.18 5.24
8/17/2022 7:15:00 PM 20.25 68.45 0.129 6.45 0.7 5.48
8/17/2022 7:30:00 PM 20.19 68.342 0.129 6.44 0.4 5.3
8/17/2022 7:45:00 PM 20.02 68.036 0.127 6.47 0.55 5.49
8/17/2022 8:00:00 PM 19.9 67.82 0.127 6.47 0.94 5.61
8/17/2022 8:15:00 PM 19.84 67.712 0.127 6.48 0.79 5.66
8/17/2022 8:30:00 PM 19.76 67.568 0.127 6.46 0.79 5.59
8/17/2022 8:45:00 PM 19.74 67.532 0.128 6.44 1.24 5.46
8/17/2022 9:00:00 PM 19.73 67.514 0.128 6.42 2.05 5.19
8/17/2022 9:15:00 PM 19.66 67.388 0.128 6.43 2.18 5.27
8/17/2022 9:30:00 PM 19.6 67.28 0.128 6.44 2.24 5.32
8/17/2022 9:45:00 PM 19.54 67.172 0.127 6.43 2.83 5.28
8/17/2022 10:00:00 PM 19.51 67.118 0.127 6.42 3.27 5.2
8/17/2022 10:15:00 PM 19.46 67.028 0.127 6.41 1.76 5.19
8/17/2022 10:30:00 PM 19.4 66.92 0.127 6.42 1.86 5.23
8/17/2022 10:45:00 PM 19.36 66.848 0.127 6.41 3 5.2
8/17/2022 11:00:00 PM 19.29 66.722 0.127 6.41 8.22 5.16
8/17/2022 11:15:00 PM 19.26 66.668 0.127 6.41 6.77 5.2
8/17/2022 11:30:00 PM 19.24 66.632 0.126 6.41 6.41 5.22
8/17/2022 11:45:00 PM 19.21 66.578 0.126 6.41 8.77 5.25
8/18/2022 12:00:00 AM 19.15 66.47 0.126 6.41 5.25 5.38
8/18/2022 12:15:00 AM 19.12 66.416 0.126 6.4 3.31 5.45
8/18/2022 12:30:00 AM 19.09 66.362 0.126 6.4 4.24 5.47
8/18/2022 12:45:00 AM 19.06 66.308 0.125 6.41 3.61 5.63
8/18/2022 1:00:00 AM 19.04 66.272 0.125 6.4 3.8 5.58
8/18/2022 1:15:00 AM 19 66.2 0.125 6.42 2.49 5.96
8/18/2022 1:30:00 AM 18.99 66.182 0.125 6.41 3.72 5.82
8/18/2022 1:45:00 AM 18.95 66.11 0.124 6.42 3.61 6.01
8/18/2022 2:00:00 AM 18.91 66.038 0.124 6.43 6.04 5.98
8/18/2022 2:15:00 AM 18.89 66.002 0.124 6.43 4.9 5.94
8/18/2022 2:30:00 AM 18.84 65.912 0.124 6.43 6.32 6.04
8/18/2022 2:45:00 AM 18.78 65.804 0.124 6.43 5.88 6.05
8/18/2022 3:00:00 AM 18.71 65.67799 0.124 6.42 5.83 5.95
8/18/2022 3:15:00 AM 18.53 65.354 0.125 6.43 2.03 5.93
8/18/2022 3:30:00 AM 18.38 65.084 0.125 6.42 2.53 5.96
8/18/2022 3:45:00 AM 18.24 64.832 0.126 6.45 1.87 5.97
8/18/2022 4:00:00 AM 18.16 64.688 0.126 6.46 2.01 6.03
8/18/2022 4:15:00 AM 18.12 64.616 0.127 6.47 2.04 6.05
8/18/2022 4:30:00 AM 18.08 64.544 0.127 6.48 2.66 6.08
8/18/2022 4:45:00 AM 18.03 64.454 0.128 6.51 2.08 6.21
8/18/2022 5:00:00 AM 18.01 64.418 0.129 6.53 1.85 6.27
8/18/2022 5:15:00 AM 18.01 64.418 0.13 6.55 2.15 6.33
8/18/2022 5:30:00 AM 17.99 64.382 0.13 6.57 7.12 6.38
8/18/2022 5:45:00 AM 17.98 64.364 0.131 6.6 6.56 6.51
8/18/2022 6:00:00 AM 17.96 64.328 0.132 6.63 8.42 6.61
8/18/2022 6:15:00 AM 17.93 64.274 0.133 6.67 2.71 6.71
8/18/2022 6:30:00 AM 17.92 64.256 0.132 6.66 4.21 6.67
8/18/2022 6:45:00 AM 17.89 64.202 0.133 6.68 3.43 6.74
8/18/2022 7:00:00 AM 17.84 64.112 0.134 6.71 2.71 6.87
8/18/2022 7:15:00 AM 17.82 64.076 0.135 6.72 2.31 6.97
8/18/2022 7:30:00 AM 17.79 64.022 0.135 6.73 3.03 7.01
8/18/2022 7:45:00 AM 17.76 63.968 0.136 6.74 2.3 7.11
8/18/2022 8:00:00 AM 17.73 63.914 0.136 6.76 2.63 7.21
8/18/2022 8:15:00 AM 17.74 63.932 0.136 6.77 3.1 7.29
8/18/2022 8:30:00 AM 17.74 63.932 0.137 6.79 2.7 7.45
8/18/2022 8:45:00 AM 17.75 63.95 0.137 6.79 2.94 7.48
8/18/2022 9:00:00 AM 17.78 64.004 0.137 6.81 2.46 7.65
8/18/2022 9:15:00 AM 17.81 64.058 0.137 6.83 2.19 7.87
8/18/2022 9:30:00 AM 17.84 64.112 0.137 6.85 1.75 8.04
8/18/2022 9:45:00 AM 17.9 64.22 0.137 6.86 1.52 8.18
8/18/2022 10:00:00 AM 17.96 64.328 0.137 6.88 1.49 8.34
8/18/2022 10:15:00 AM 18.04 64.472 0.137 6.91 1.26 8.55
8/18/2022 10:30:00 AM 18.11 64.598 0.137 6.93 1.29 8.66
8/18/2022 10:45:00 AM 18.24 64.832 0.137 6.95 1.29 8.8
8/18/2022 11:00:00 AM 18.4 65.12 0.137 6.97 1.25 8.94
8/18/2022 11:15:00 AM 18.57 65.426 0.136 6.99 1.28 9.08
8/18/2022 11:30:00 AM 18.75 65.75 0.136 7.01 1.26 9.2
8/18/2022 11:45:00 AM 18.96 66.128 0.136 7.02 1.22 9.29
8/18/2022 12:00:00 PM 19.15 66.47 0.136 7.04 1.22 9.37
8/18/2022 12:15:00 PM 19.43 66.974 0.135 7.05 1.27 9.48
8/18/2022 12:30:00 PM 19.6 67.28 0.135 7.05 1.28 9.52
8/18/2022 12:45:00 PM 19.84 67.712 0.135 7.08 1.25 9.62
8/18/2022 1:00:00 PM 20.01 68.018 0.135 7.09 1.31 9.7
8/18/2022 1:15:00 PM 20.25 68.45 0.134 7.1 1.38 9.76
8/18/2022 1:30:00 PM 20.5 68.9 0.134 7.11 1.23 9.81
8/18/2022 1:45:00 PM 20.73 69.314 0.134 7.12 1.28 9.88
8/18/2022 2:00:00 PM 20.94 69.692 0.133 7.14 1.2 9.92
8/18/2022 2:15:00 PM 21.06 69.908 0.133 7.14 1.16 9.93
8/18/2022 2:30:00 PM 21.22 70.196 0.133 7.16 1.26 10.03
8/18/2022 2:45:00 PM 21.3 70.34 0.133 7.16 1.23 10.03
8/18/2022 3:00:00 PM 21.34 70.412 0.133 7.16 1.19 10.06
8/18/2022 3:15:00 PM 21.45 70.61 0.133 7.17 1.21 10.11
8/18/2022 3:30:00 PM 21.5 70.7 0.132 7.18 1.29 10.15
8/18/2022 3:45:00 PM 21.58 70.844 0.132 7.19 1.35 10.17
8/18/2022 4:00:00 PM 21.67 71.006 0.132 7.2 1.23 10.21
8/18/2022 4:15:00 PM 21.71 71.078 0.132 7.21 1.22 10.24
8/18/2022 4:30:00 PM 21.74 71.132 0.131 7.22 1.22 10.24
8/18/2022 4:45:00 PM 21.71 71.078 0.131 7.22 1.27 10.21
8/18/2022 5:00:00 PM 21.69 71.042 0.131 7.21 1.29 10.19
8/18/2022 5:15:00 PM 21.67 71.006 0.131 7.2 1.29 10.12
8/18/2022 5:30:00 PM 21.7 71.06 0.131 7.2 1.27 10.11
8/18/2022 5:45:00 PM 21.69 71.042 0.131 7.19 1.23 10.08
8/18/2022 6:00:00 PM 21.67 71.006 0.13 7.18 1.42 10.06
8/18/2022 6:15:00 PM 21.67 71.006 0.13 7.19 1.4 10.06
8/18/2022 6:30:00 PM 21.64 70.952 0.13 7.17 1.37 10.01
8/18/2022 6:45:00 PM 21.57 70.826 0.13 7.14 1.36 9.86
8/18/2022 7:00:00 PM 21.51 70.718 0.13 7.12 1.22 9.73
8/18/2022 7:15:00 PM 21.46 70.628 0.13 7.09 1.52 9.59
8/18/2022 7:30:00 PM 21.4 70.52 0.13 7.08 1.4 9.49
8/18/2022 7:45:00 PM 21.34 70.412 0.13 7.05 2.09 9.38
8/18/2022 8:00:00 PM 21.26 70.268 0.13 7.02 1.88 9.23
8/18/2022 8:15:00 PM 21.22 70.196 0.13 7.01 6.93 9.17
8/18/2022 8:30:00 PM 21.13 70.034 0.13 6.98 4.96 8.99
8/18/2022 8:45:00 PM 21.08 69.944 0.13 6.96 4.5 8.9
8/18/2022 9:00:00 PM 20.96 69.728 0.13 6.91 2.02 8.61
8/18/2022 9:15:00 PM 20.87 69.566 0.13 6.89 2.21 8.39
8/18/2022 9:30:00 PM 20.8 69.44 0.13 6.87 2.12 8.23
8/18/2022 9:45:00 PM 20.71 69.278 0.13 6.84 2.26 8.05
8/18/2022 10:00:00 PM 20.63 69.134 0.13 6.82 2.96 7.95
8/18/2022 10:15:00 PM 20.54 68.972 0.13 6.8 2.37 7.73
8/18/2022 10:30:00 PM 20.45 68.81 0.13 6.78 2.28 7.59
8/18/2022 10:45:00 PM 20.37 68.666 0.13 6.77 2.02 7.43
8/18/2022 11:00:00 PM 20.28 68.504 0.13 6.75 2.3 7.33
8/18/2022 11:15:00 PM 20.21 68.378 0.13 6.73 2.71 7.17
8/18/2022 11:30:00 PM 20.13 68.234 0.13 6.71 2.66 7.05
8/18/2022 11:45:00 PM 20.05 68.09 0.13 6.72 8.31 6.98
8/19/2022 12:00:00 AM 19.97 67.946 0.13 6.71 3.92 6.87
8/19/2022 12:15:00 AM 19.89 67.802 0.131 6.7 3.54 6.79
8/19/2022 12:30:00 AM 19.8 67.64 0.131 6.7 5.07 6.67
8/19/2022 12:45:00 AM 19.75 67.55 0.131 6.68 16.62 6.62
8/19/2022 1:00:00 AM 19.65 67.37 0.131 6.66 7.9 6.54
8/19/2022 1:15:00 AM 19.58 67.244 0.131 6.65 10.95 6.48
8/19/2022 1:30:00 AM 19.51 67.118 0.131 6.66 10.08 6.41
8/19/2022 1:45:00 AM 19.45 67.01 0.131 6.66 11.78 6.38
8/19/2022 2:00:00 AM 19.38 66.884 0.131 6.66 13.17 6.32
8/19/2022 2:15:00 AM 19.26 66.668 0.131 6.67 16.59 6.32
8/19/2022 2:30:00 AM 19.25 66.65 0.131 6.66 29.97 6.27
8/19/2022 2:45:00 AM 19.16 66.488 0.131 6.65 104.75 6.24
8/19/2022 3:00:00 AM 19.12 66.416 0.131 6.65 16 6.22
8/19/2022 3:15:00 AM 19.02 66.236 0.131 6.65 12.06 6.24
8/19/2022 3:30:00 AM 18.99 66.182 0.131 6.65 86.53 6.22
8/19/2022 3:45:00 AM 18.9 66.02 0.131 6.65 7.62 6.22
8/19/2022 4:00:00 AM 18.86 65.948 0.131 6.64 8.4 6.2
8/19/2022 4:15:00 AM 18.81 65.858 0.131 6.64 21.08 6.22
8/19/2022 4:30:00 AM 18.73 65.714 0.131 6.64 8.03 6.2
8/19/2022 4:45:00 AM 18.68 65.624 0.131 6.64 5.84 6.18
8/19/2022 5:00:00 AM 18.63 65.534 0.131 6.63 6.42 6.17
8/19/2022 5:15:00 AM 18.58 65.444 0.131 6.63 5.74 6.17
8/19/2022 5:30:00 AM 18.51 65.318 0.131 6.63 4.8 6.18
8/19/2022 5:45:00 AM 18.43 65.174 0.131 6.62 5.09 6.16
8/19/2022 6:00:00 AM 18.39 65.102 0.131 6.61 8.47 6.14
8/19/2022 6:15:00 AM 18.35 65.03 0.131 6.61 5.9 6.13
8/19/2022 6:30:00 AM 18.32 64.976 0.131 6.6 5.15 6.07
8/19/2022 6:45:00 AM 18.27 64.886 0.131 6.59 3.82 6.06
8/19/2022 7:00:00 AM 18.22 64.796 0.131 6.59 3.85 6.06
8/19/2022 7:15:00 AM 18.19 64.742 0.131 6.59 3.83 6.07
8/19/2022 7:30:00 AM 18.14 64.652 0.131 6.58 4.16 6.06
8/19/2022 7:45:00 AM 18.11 64.598 0.131 6.58 3.24 6.06
8/19/2022 8:00:00 AM 18.08 64.544 0.131 6.58 2.96 6.11
8/19/2022 8:15:00 AM 18.08 64.544 0.131 6.59 2.93 6.14
8/19/2022 8:30:00 AM 18.05 64.49 0.131 6.59 2.62 6.22
8/19/2022 8:45:00 AM 18.05 64.49 0.131 6.6 3.11 6.21
8/19/2022 9:00:00 AM 18.07 64.526 0.131 6.6 2.72 6.28
8/19/2022 9:15:00 AM 18.08 64.544 0.131 6.61 2.5 6.39
8/19/2022 9:30:00 AM 18.12 64.616 0.131 6.62 2.26 6.45
8/19/2022 9:45:00 AM 18.18 64.724 0.131 6.65 1.7 6.86
8/19/2022 10:00:00 AM 18.3 64.94 0.131 6.66 1.41 7.05
8/19/2022 10:15:00 AM 18.39 65.102 0.131 6.69 1.26 7.26
8/19/2022 10:30:00 AM 18.49 65.282 0.131 6.7 1.61 7.41
8/19/2022 10:45:00 AM 18.7 65.66 0.131 6.72 1.64 7.65
8/19/2022 11:00:00 AM 18.91 66.038 0.131 6.75 1.18 7.83
8/19/2022 11:15:00 AM 18.97 66.146 0.131 6.75 1.15 7.87
8/19/2022 11:30:00 AM 19.27 66.686 0.131 6.78 0.94 8.12
8/19/2022 11:45:00 AM 19.47 67.046 0.13 6.78 0.84 8.23
8/19/2022 12:00:00 PM 19.49 67.082 0.13 6.81 0.94 8.36
8/19/2022 12:15:00 PM 19.72 67.496 0.13 6.83 0.9 8.55
8/19/2022 12:30:00 PM 20.12 68.216 0.13 6.86 0.91 8.77
8/19/2022 12:45:00 PM 20.16 68.288 0.13 6.87 0.9 8.85
8/19/2022 1:00:00 PM 20.3 68.54 0.13 6.87 0.82 8.77
8/19/2022 1:15:00 PM 20.78 69.404 0.13 6.91 0.89 9.12
8/19/2022 1:30:00 PM 20.86 69.548 0.13 6.92 0.83 9.17
8/19/2022 1:45:00 PM 20.89 69.602 0.13 6.89 0.94 8.99
8/19/2022 2:00:00 PM 20.7 69.26 0.13 6.87 1.03 8.83
8/19/2022 2:15:00 PM 21.55 70.79 0.129 6.94 0.83 9.38
8/19/2022 2:30:00 PM 21.52 70.736 0.129 6.92 0.85 9.27
8/19/2022 2:45:00 PM 21.48 70.664 0.13 6.91 0.91 9.16
8/19/2022 3:00:00 PM 21.91 71.438 0.129 6.97 0.86 9.51
8/19/2022 3:15:00 PM 21.95 71.51 0.129 6.97 0.89 9.53
8/19/2022 3:30:00 PM 21.96 71.528 0.129 6.98 0.99 9.55
8/19/2022 3:45:00 PM 22.07 71.726 0.129 6.98 0.85 9.56
8/19/2022 4:00:00 PM 21.94 71.492 0.129 6.95 0.91 9.45
8/19/2022 4:15:00 PM 22.08 71.744 0.128 7.01 0.89 9.72
8/19/2022 4:30:00 PM 22.07 71.726 0.129 6.98 0.9 9.66
8/19/2022 4:45:00 PM 22.1 71.78 0.128 6.99 0.82 9.72
8/19/2022 5:00:00 PM 22.1 71.78 0.128 7.03 0.83 9.79
8/19/2022 5:15:00 PM 22.03 71.654 0.128 7.02 0.79 9.75
8/19/2022 5:30:00 PM 21.96 71.528 0.128 7 0.81 9.68
8/19/2022 5:45:00 PM 21.92 71.456 0.128 7.01 0.77 9.67
8/19/2022 6:00:00 PM 21.89 71.402 0.128 7 0.86 9.64
8/19/2022 6:15:00 PM 21.82 71.276 0.128 6.98 0.81 9.53
8/19/2022 6:30:00 PM 21.79 71.222 0.128 6.96 0.85 9.45
8/19/2022 6:45:00 PM 21.74 71.132 0.128 6.95 0.78 9.38
8/19/2022 7:00:00 PM 21.68 71.024 0.128 6.93 0.82 9.28
8/19/2022 7:15:00 PM 21.61 70.898 0.128 6.91 0.84 9.21
8/19/2022 7:30:00 PM 21.61 70.898 0.128 6.91 0.9 9.15
8/19/2022 7:45:00 PM 21.54 70.772 0.128 6.88 0.89 9.04
8/19/2022 8:00:00 PM 21.46 70.628 0.128 6.87 0.83 8.95
8/19/2022 8:15:00 PM 21.36 70.448 0.128 6.84 1.21 8.76
8/19/2022 8:30:00 PM 21.26 70.268 0.129 6.81 1.42 8.61
8/19/2022 8:45:00 PM 21.23 70.214 0.129 6.81 1.69 8.55
8/19/2022 9:00:00 PM 21.11 69.998 0.129 6.78 1.51 8.31
8/19/2022 9:15:00 PM 21.04 69.872 0.129 6.77 1.52 8.17
8/19/2022 9:30:00 PM 20.95 69.71 0.129 6.75 1.7 8.03
8/19/2022 9:45:00 PM 20.89 69.602 0.129 6.75 2.51 7.99
8/19/2022 10:00:00 PM 20.82 69.476 0.129 6.73 3.11 7.81
8/19/2022 10:15:00 PM 20.77 69.386 0.129 6.71 20.22 7.62
8/19/2022 10:30:00 PM 20.67 69.206 0.129 6.71 4.97 7.57
8/19/2022 10:45:00 PM 20.58 69.044 0.129 6.68 1.95 7.34
8/19/2022 11:00:00 PM 20.51 68.918 0.129 6.68 2.46 7.28
8/19/2022 11:15:00 PM 20.44 68.792 0.129 6.67 2.92 7.2
8/19/2022 11:30:00 PM 20.35 68.63 0.129 6.65 2.97 7.02
8/19/2022 11:45:00 PM 20.31 68.558 0.129 6.64 5.92 6.92
8/20/2022 12:00:00 AM 20.25 68.45 0.129 6.64 5.97 6.88
8/20/2022 12:15:00 AM 20.24 68.432 0.129 6.63 14 6.81
8/20/2022 12:30:00 AM 20.11 68.198 0.129 6.63 5.4 6.72
8/20/2022 12:45:00 AM 20.05 68.09 0.129 6.61 2.39 6.57
8/20/2022 1:00:00 AM 20 68 0.129 6.6 4.04 6.51
8/20/2022 1:15:00 AM 19.93 67.874 0.129 6.59 2.18 6.4
8/20/2022 1:30:00 AM 19.88 67.784 0.129 6.59 3.94 6.36
8/20/2022 1:45:00 AM 19.82 67.676 0.13 6.58 3.21 6.25
8/20/2022 2:00:00 AM 19.82 67.676 0.13 6.57 6.77 6.22
8/20/2022 2:15:00 AM 19.72 67.496 0.13 6.57 4.86 6.12
8/20/2022 2:30:00 AM 19.68 67.424 0.13 6.56 2.79 6.04
8/20/2022 2:45:00 AM 19.62 67.316 0.13 6.55 2.72 5.97
8/20/2022 3:00:00 AM 19.57 67.226 0.13 6.55 3.69 5.94
8/20/2022 3:15:00 AM 19.52 67.136 0.13 6.55 4.43 5.9
8/20/2022 3:30:00 AM 19.49 67.082 0.13 6.54 8.46 5.83
8/20/2022 3:45:00 AM 19.43 66.974 0.13 6.54 4.26 5.79
8/20/2022 4:00:00 AM 19.39 66.902 0.13 6.54 28.49 5.79
8/20/2022 4:15:00 AM 19.33 66.794 0.131 6.55 7.78 5.71
8/20/2022 4:30:00 AM 19.29 66.722 0.13 6.53 8.19 5.72
8/20/2022 4:45:00 AM 19.26 66.668 0.13 6.52 8.53 5.68
8/20/2022 5:00:00 AM 19.22 66.596 0.13 6.52 8.58 5.65
8/20/2022 5:15:00 AM 19.17 66.506 0.131 6.52 119.41 5.63
8/20/2022 5:30:00 AM 19.13 66.434 0.131 6.54 36.18 5.62
8/20/2022 5:45:00 AM 19.08 66.344 0.131 6.54 7.35 5.59
8/20/2022 6:00:00 AM 19.03 66.254 0.13 6.55 4.86 5.58
8/20/2022 6:15:00 AM 19.04 66.272 0.131 6.55 7.15 5.54
8/20/2022 6:30:00 AM 19 66.2 0.13 6.55 6.39 5.52
8/20/2022 6:45:00 AM 18.97 66.146 0.131 6.55 4.86 5.48
8/20/2022 7:00:00 AM 18.93 66.074 0.131 6.56 3.17 5.52
8/20/2022 7:15:00 AM 18.91 66.038 0.131 6.56 2.96 5.48
8/20/2022 7:30:00 AM 18.88 65.984 0.131 6.56 2.7 5.48
8/20/2022 7:45:00 AM 18.87 65.966 0.131 6.55 2.78 5.48
8/20/2022 8:00:00 AM 18.86 65.948 0.131 6.55 4.39 5.48
8/20/2022 8:15:00 AM 18.85 65.93 0.131 6.55 2.69 5.48
8/20/2022 8:30:00 AM 18.85 65.93 0.131 6.55 2.3 5.48
8/20/2022 8:45:00 AM 18.84 65.912 0.131 6.55 1.78 5.49
8/20/2022 9:00:00 AM 18.86 65.948 0.131 6.55 2.02 5.47
8/20/2022 9:15:00 AM 18.89 66.002 0.131 6.56 1.44 5.53
8/20/2022 9:30:00 AM 18.93 66.074 0.131 6.56 0.92 5.63
8/20/2022 9:45:00 AM 18.99 66.182 0.131 6.59 0.46 5.99
8/20/2022 10:00:00 AM 19.26 66.668 0.131 6.62 0.24 6.45
8/20/2022 10:15:00 AM 19.29 66.722 0.131 6.63 0.32 6.61
8/20/2022 10:30:00 AM 19.38 66.884 0.131 6.64 0.31 6.8
8/20/2022 10:45:00 AM 19.52 67.136 0.131 6.65 0.44 6.93
8/20/2022 11:00:00 AM 19.68 67.424 0.131 6.66 0.33 7.12
8/20/2022 11:15:00 AM 19.77 67.586 0.131 6.66 0.27 7.21
8/20/2022 11:30:00 AM 20.05 68.09 0.131 6.69 0.21 7.47
8/20/2022 11:45:00 AM 20.24 68.432 0.131 6.7 0.22 7.65
8/20/2022 12:00:00 PM 20.36 68.648 0.131 6.71 0.32 7.77
8/20/2022 12:15:00 PM 20.41 68.738 0.131 6.7 0.21 7.73
8/20/2022 12:30:00 PM 20.82 69.476 0.13 6.74 0.17 8.17
8/20/2022 12:45:00 PM 20.93 69.674 0.13 6.74 0.3 8.16
8/20/2022 1:00:00 PM 21.52 70.736 0.13 6.79 0.15 8.62
8/20/2022 1:15:00 PM 21.48 70.664 0.13 6.77 0.17 8.45
8/20/2022 1:30:00 PM 21.74 71.132 0.13 6.8 0.15 8.65
8/20/2022 1:45:00 PM 22.08 71.744 0.13 6.82 0.16 8.74
8/20/2022 2:00:00 PM 21.85 71.33 0.13 6.8 0.18 8.64
8/20/2022 2:15:00 PM 22.04 71.672 0.13 6.81 0.15 8.73
8/20/2022 2:30:00 PM 21.8 71.24 0.13 6.79 0.21 8.49
8/20/2022 2:45:00 PM 22.16 71.888 0.129 6.83 0.16 9
8/20/2022 3:00:00 PM 22.66 72.788 0.129 6.88 0.1 9.04
8/20/2022 3:15:00 PM 22.45 72.41 0.129 6.89 0.18 9.19
8/20/2022 3:30:00 PM 22.35 72.23 0.129 6.86 0.17 9.06
8/20/2022 3:45:00 PM 22.5 72.5 0.129 6.86 0.16 8.97
8/20/2022 4:00:00 PM 22.77 72.986 0.129 6.91 0.13 9.19
8/20/2022 4:15:00 PM 22.55 72.59 0.128 6.92 0.15 9.31
8/20/2022 4:30:00 PM 22.37 72.266 0.129 6.87 0.25 9.13
8/20/2022 4:45:00 PM 22.67 72.806 0.129 6.88 0.16 9.09
8/20/2022 5:00:00 PM 22.59 72.662 0.128 6.92 0.18 9.29
8/20/2022 5:15:00 PM 22.46 72.42799 0.128 6.91 0.2 9.36
8/20/2022 5:30:00 PM 22.42 72.356 0.128 6.92 0.21 9.42
8/20/2022 5:45:00 PM 22.38 72.284 0.128 6.9 0.19 9.25
8/20/2022 6:00:00 PM 22.27 72.086 0.128 6.86 0.25 9.12
8/20/2022 6:15:00 PM 22.28 72.104 0.128 6.89 2.69 9.2
8/20/2022 6:30:00 PM 22.24 72.032 0.128 6.86 0.28 9.07
8/20/2022 6:45:00 PM 22.17 71.906 0.128 6.86 0.19 9.05
8/20/2022 7:00:00 PM 22.15 71.87 0.128 6.85 0.27 8.99
8/20/2022 7:15:00 PM 22.04 71.672 0.128 6.83 0.28 8.86
8/20/2022 7:30:00 PM 21.97 71.546 0.128 6.8 0.74 8.73
8/20/2022 7:45:00 PM 21.93 71.474 0.128 6.79 0.68 8.65
8/20/2022 8:00:00 PM 21.84 71.312 0.128 6.75 0.8 8.52
8/20/2022 8:15:00 PM 21.78 71.204 0.128 6.75 1.13 8.44
8/20/2022 8:30:00 PM 21.68 71.024 0.128 6.74 3.79 8.33
8/20/2022 8:45:00 PM 21.63 70.934 0.128 6.71 2.22 8.23
8/20/2022 9:00:00 PM 21.55 70.79 0.129 6.72 5.76 8.19
8/20/2022 9:15:00 PM 21.44 70.592 0.128 6.7 1.56 8.03
8/20/2022 9:30:00 PM 21.36 70.448 0.128 6.69 1.95 7.89
8/20/2022 9:45:00 PM 21.3 70.34 0.128 6.7 1.21 7.84
8/20/2022 10:00:00 PM 21.27 70.286 0.128 6.7 0.74 7.81
8/20/2022 10:15:00 PM 21.16 70.088 0.129 6.66 0.88 7.5
8/20/2022 10:30:00 PM 21.16 70.088 0.129 6.66 0.74 7.5
8/20/2022 10:45:00 PM 21.08 69.944 0.129 6.64 0.84 7.28
8/20/2022 11:00:00 PM 21.04 69.872 0.129 6.64 6.36 7.22
8/20/2022 11:15:00 PM 21.01 69.818 0.129 6.64 2.43 7.2
8/20/2022 11:30:00 PM 20.95 69.71 0.129 6.63 2.61 7.11
8/20/2022 11:45:00 PM 20.89 69.602 0.129 6.6 6.32 6.82
8/21/2022 12:00:00 AM 20.83 69.494 0.129 6.6 16.05 6.73
8/21/2022 12:15:00 AM 20.77 69.386 0.129 6.6 2.64 6.7
8/21/2022 12:30:00 AM 20.71 69.278 0.129 6.59 2.28 6.64
8/21/2022 12:45:00 AM 20.69 69.242 0.129 6.58 8.42 6.51
8/21/2022 1:00:00 AM 20.65 69.17 0.129 6.58 12.82 6.48
8/21/2022 1:15:00 AM 20.56 69.008 0.129 6.56 6.87 6.25
8/21/2022 1:30:00 AM 20.51 68.918 0.129 6.56 5.02 6.14
8/21/2022 1:45:00 AM 20.43 68.774 0.129 6.56 2.61 6.17
8/21/2022 2:00:00 AM 20.38 68.684 0.13 6.54 2.44 6
8/21/2022 2:15:00 AM 20.33 68.594 0.13 6.55 5.04 5.99
8/21/2022 2:30:00 AM 20.27 68.486 0.13 6.54 4.82 5.96
8/21/2022 2:45:00 AM 20.27 68.486 0.127 6.53 11.26 5.9
8/21/2022 3:00:00 AM 20.19 68.342 0.13 6.52 6.11 5.83
8/21/2022 3:15:00 AM 20.13 68.234 0.13 6.52 8.22 5.75
8/21/2022 3:30:00 AM 20.09 68.162 0.13 6.52 8.73 5.71
8/21/2022 3:45:00 AM 20.06 68.108 0.13 6.51 12.51 5.64
8/21/2022 4:00:00 AM 19.96 67.92799 0.13 6.51 2.56 5.55
8/21/2022 4:15:00 AM 19.95 67.91 0.13 6.51 6.66 5.54
8/21/2022 4:30:00 AM 19.92 67.856 0.13 6.51 5.47 5.51
8/21/2022 4:45:00 AM 19.87 67.766 0.13 6.51 3.69 5.46
8/21/2022 5:00:00 AM 19.81 67.658 0.13 6.51 4.64 5.45
8/21/2022 5:15:00 AM 19.78 67.604 0.13 6.51 5.57 5.42
8/21/2022 5:30:00 AM 19.72 67.496 0.13 6.51 6.49 5.4
8/21/2022 5:45:00 AM 19.72 67.496 0.13 6.51 10.7 5.35
8/21/2022 6:00:00 AM 19.67 67.406 0.13 6.51 7.82 5.32
8/21/2022 6:15:00 AM 19.64 67.352 0.131 6.51 5.75 5.24
8/21/2022 6:30:00 AM 19.6 67.28 0.131 6.51 3.63 5.23
8/21/2022 6:45:00 AM 19.59 67.262 0.131 6.51 3.92 5.22
8/21/2022 7:00:00 AM 19.58 67.244 0.131 6.51 4.41 5.18
8/21/2022 7:15:00 AM 19.58 67.244 0.131 6.5 4.53 5.13
8/21/2022 7:30:00 AM 19.55 67.19 0.131 6.5 2.47 5.1
8/21/2022 7:45:00 AM 19.55 67.19 0.131 6.5 3.24 5.1
8/21/2022 8:00:00 AM 19.53 67.154 0.131 6.5 2.33 5.08
8/21/2022 8:15:00 AM 19.55 67.19 0.131 6.5 2.39 5.05
8/21/2022 8:30:00 AM 19.57 67.226 0.131 6.5 2.91 5.03
8/21/2022 8:45:00 AM 19.57 67.226 0.131 6.5 2.07 5
8/21/2022 9:00:00 AM 19.58 67.244 0.131 6.5 2.04 5.01
8/21/2022 9:15:00 AM 19.61 67.298 0.131 6.51 1.75 5.05
8/21/2022 9:30:00 AM 19.8 67.64 0.132 6.52 0.7 5.12
8/21/2022 9:45:00 AM 19.76 67.568 0.132 6.54 0.8 5.37
8/21/2022 10:00:00 AM 19.74 67.532 0.132 6.54 0.87 5.51
8/21/2022 10:15:00 AM 19.77 67.586 0.132 6.56 1.1 5.72
8/21/2022 10:30:00 AM 19.77 67.586 0.132 6.55 1.01 5.51
8/21/2022 10:45:00 AM 19.8 67.64 0.132 6.56 0.86 5.72
8/21/2022 11:00:00 AM 19.8 67.64 0.132 6.56 0.94 5.78
8/21/2022 11:15:00 AM 19.94 67.892 0.131 6.58 0.7 6.08
8/21/2022 11:30:00 AM 19.92 67.856 0.131 6.59 0.76 6.32
8/21/2022 11:45:00 AM 19.92 67.856 0.131 6.6 0.85 6.41
8/21/2022 12:00:00 PM 20.04 68.07201 0.131 6.6 0.91 6.35
8/21/2022 12:15:00 PM 20.31 68.558 0.131 6.63 0.69 6.92
8/21/2022 12:30:00 PM 20.34 68.612 0.131 6.63 0.71 7.07
8/21/2022 12:45:00 PM 20.38 68.684 0.13 6.65 0.78 7.29
8/21/2022 1:00:00 PM 20.47 68.846 0.13 6.65 0.76 7.24
8/21/2022 1:15:00 PM 20.46 68.828 0.13 6.65 0.78 7.33
8/21/2022 1:30:00 PM 20.72 69.296 0.13 6.68 0.74 7.71
8/21/2022 1:45:00 PM 20.9 69.62 0.13 6.69 0.73 7.72
8/21/2022 2:00:00 PM 20.94 69.692 0.13 6.69 0.73 7.82
8/21/2022 2:15:00 PM 21.2 70.16 0.13 6.71 0.74 7.91
8/21/2022 2:30:00 PM 21.34 70.412 0.13 6.72 0.72 8.05
8/21/2022 2:45:00 PM 21.33 70.394 0.129 6.73 0.73 8.18
8/21/2022 3:00:00 PM 21.26 70.268 0.129 6.72 0.78 8.16
8/21/2022 3:15:00 PM 21.22 70.196 0.13 6.72 0.76 8.06
8/21/2022 3:30:00 PM 21.31 70.358 0.129 6.74 0.66 8.24
8/21/2022 3:45:00 PM 21.33 70.394 0.13 6.73 0.72 8.05
8/21/2022 4:00:00 PM 21.33 70.394 0.129 6.76 0.71 8.49
8/21/2022 4:15:00 PM 21.28 70.304 0.128 6.78 0.72 8.75
8/21/2022 4:30:00 PM 21.24 70.232 0.128 6.76 0.7 8.66
8/21/2022 4:45:00 PM 21.22 70.196 0.128 6.76 0.72 8.6
8/21/2022 5:00:00 PM 21.22 70.196 0.128 6.76 0.67 8.48
8/21/2022 5:15:00 PM 21.18 70.124 0.128 6.74 0.7 8.4
8/21/2022 5:30:00 PM 21.09 69.962 0.128 6.73 0.72 8.38
8/21/2022 5:45:00 PM 21.07 69.926 0.128 6.74 0.69 8.42
8/21/2022 6:00:00 PM 21.09 69.962 0.128 6.74 0.69 8.4
8/21/2022 6:15:00 PM 21.06 69.908 0.128 6.71 0.68 8.17
8/21/2022 6:30:00 PM 21 69.8 0.128 6.7 0.78 8.11
8/21/2022 6:45:00 PM 21.01 69.818 0.128 6.72 0.79 8.26
8/21/2022 7:00:00 PM 21.01 69.818 0.128 6.73 0.87 8.35
8/21/2022 7:15:00 PM 20.94 69.692 0.128 6.69 1.52 8.1
8/21/2022 7:30:00 PM 20.93 69.674 0.128 6.71 3.81 8.16
8/21/2022 7:45:00 PM 20.9 69.62 0.128 6.69 3.55 8.08
8/21/2022 8:00:00 PM 20.85 69.53 0.128 6.69 2.91 8.01
8/21/2022 8:15:00 PM 20.79 69.422 0.128 6.66 3.37 7.86
8/21/2022 8:30:00 PM 20.76 69.368 0.128 6.67 2.24 7.91
8/21/2022 8:45:00 PM 20.72 69.296 0.128 6.65 2.47 7.79
8/21/2022 9:00:00 PM 20.63 69.134 0.128 6.65 1.86 7.75
8/21/2022 9:15:00 PM 20.6 69.08 0.128 6.65 2.11 7.7
8/21/2022 9:30:00 PM 20.57 69.026 0.128 6.65 9.6 7.64
8/21/2022 9:45:00 PM 20.54 68.972 0.128 6.64 3.11 7.59
8/21/2022 10:00:00 PM 20.48 68.864 0.128 6.64 4.1 7.47
8/21/2022 10:15:00 PM 20.46 68.828 0.128 6.64 4.07 7.49
8/21/2022 10:30:00 PM 20.4 68.72 0.128 6.61 4.21 7.25
8/21/2022 10:45:00 PM 20.37 68.666 0.128 6.62 3.11 7.27
8/21/2022 11:00:00 PM 20.32 68.576 0.128 6.61 2.69 7.12
8/21/2022 11:15:00 PM 20.29 68.522 0.128 6.6 2.12 7.02
8/21/2022 11:30:00 PM 20.25 68.45 0.128 6.58 2.53 6.9
8/21/2022 11:45:00 PM 20.21 68.378 0.129 6.57 2.33 6.77
8/22/2022 12:00:00 AM 20.18 68.324 0.129 6.59 1.63 6.71
8/22/2022 12:15:00 AM 20.16 68.288 0.129 6.57 1.64 6.64
8/22/2022 12:30:00 AM 20.14 68.252 0.129 6.57 9.81 6.62
8/22/2022 12:45:00 AM 20.1 68.18 0.129 6.55 28.1 6.55
8/22/2022 1:00:00 AM 20.08 68.144 0.129 6.55 5.13 6.55
8/22/2022 1:15:00 AM 20.06 68.108 0.129 6.54 4.56 6.37
8/22/2022 1:30:00 AM 20.01 68.018 0.129 6.54 7.6 6.28
8/22/2022 1:45:00 AM 19.98 67.964 0.13 6.54 17.35 6.17
8/22/2022 2:00:00 AM 19.94 67.892 0.129 6.53 4.63 6.1
8/22/2022 2:15:00 AM 19.93 67.874 0.129 6.53 6.59 6
8/22/2022 2:30:00 AM 19.88 67.784 0.129 6.53 4.6 5.97
8/22/2022 2:45:00 AM 19.86 67.748 0.13 6.52 7.78 5.89
8/22/2022 3:00:00 AM 19.82 67.676 0.13 6.51 10.95 5.79
8/22/2022 3:15:00 AM 19.8 67.64 0.13 6.51 11.26 5.75
8/22/2022 3:30:00 AM 19.77 67.586 0.13 6.51 6.87 5.7
8/22/2022 3:45:00 AM 19.78 67.604 0.13 6.51 8.23 5.67
8/22/2022 4:00:00 AM 19.73 67.514 0.13 6.51 4.68 5.6
8/22/2022 4:15:00 AM 19.7 67.46 0.13 6.51 2.87 5.5
8/22/2022 4:30:00 AM 19.68 67.424 0.13 6.52 3.59 5.5
8/22/2022 4:45:00 AM 19.66 67.388 0.13 6.52 3.81 5.45
8/22/2022 5:00:00 AM 19.65 67.37 0.13 6.51 5.17 5.39
8/22/2022 5:15:00 AM 19.66 67.388 0.13 6.51 7.89 5.39
8/22/2022 5:30:00 AM 19.61 67.298 0.131 6.51 3.63 5.35
8/22/2022 5:45:00 AM 19.6 67.28 0.131 6.5 5.14 5.36
8/22/2022 6:00:00 AM 19.6 67.28 0.131 6.5 7.17 5.29
8/22/2022 6:15:00 AM 19.57 67.226 0.131 6.5 4.18 5.25
8/22/2022 6:30:00 AM 19.55 67.19 0.131 6.5 2.79 5.2
8/22/2022 6:45:00 AM 19.54 67.172 0.131 6.5 2.92 5.16
8/22/2022 7:00:00 AM 19.53 67.154 0.131 6.5 2.97 5.15
8/22/2022 7:15:00 AM 19.51 67.118 0.132 6.5 2.58 5.12
8/22/2022 7:30:00 AM 19.5 67.1 0.132 6.5 2.61 5.13
8/22/2022 7:45:00 AM 19.49 67.082 0.132 6.51 2.63 5.15
8/22/2022 8:00:00 AM 19.48 67.064 0.132 6.5 2.74 5.12
8/22/2022 8:15:00 AM 19.47 67.046 0.132 6.51 2.95 5.16
8/22/2022 8:30:00 AM 19.46 67.028 0.132 6.51 2.94 5.2
8/22/2022 8:45:00 AM 19.46 67.028 0.131 6.51 2.81 5.22
8/22/2022 9:00:00 AM 19.45 67.01 0.131 6.53 2.75 5.31
8/22/2022 9:15:00 AM 19.46 67.028 0.131 6.54 2.67 5.46
8/22/2022 9:30:00 AM 19.46 67.028 0.131 6.55 2.46 5.55
8/22/2022 9:45:00 AM 19.47 67.046 0.131 6.55 2.82 5.61
8/22/2022 10:00:00 AM 19.49 67.082 0.131 6.56 2.1 5.82
8/22/2022 10:15:00 AM 19.5 67.1 0.131 6.57 2.07 5.94
8/22/2022 10:30:00 AM 19.55 67.19 0.131 6.59 1.91 6.23
8/22/2022 10:45:00 AM 19.6 67.28 0.131 6.6 1.93 6.33
8/22/2022 11:00:00 AM 19.77 67.586 0.131 6.63 1.76 6.71
8/22/2022 11:15:00 AM 19.83 67.694 0.13 6.66 1.81 7.03
8/22/2022 11:30:00 AM 19.89 67.802 0.131 6.67 1.83 7.16
8/22/2022 11:45:00 AM 20 68 0.13 6.69 1.79 7.45
8/22/2022 12:00:00 PM 20.1 68.18 0.13 6.72 1.85 7.74
8/22/2022 12:15:00 PM 20.14 68.252 0.13 6.74 1.89 7.9
8/22/2022 12:30:00 PM 20.2 68.36 0.13 6.76 1.89 8.04
8/22/2022 12:45:00 PM 20.3 68.54 0.13 6.77 1.94 8.17
8/22/2022 1:00:00 PM 20.52 68.936 0.13 6.8 1.81 8.41
8/22/2022 1:15:00 PM 20.76 69.368 0.13 6.82 1.85 8.61
8/22/2022 1:30:00 PM 21 69.8 0.129 6.85 1.87 8.83
8/22/2022 1:45:00 PM 21.16 70.088 0.129 6.88 1.88 8.99
8/22/2022 2:00:00 PM 21.13 70.034 0.129 6.88 1.86 8.98
8/22/2022 2:15:00 PM 21.15 70.07 0.129 6.9 1.89 9.06
8/22/2022 2:30:00 PM 21.16 70.088 0.129 6.91 1.84 9.07
8/22/2022 2:45:00 PM 21.16 70.088 0.129 6.91 1.8 9.03
8/22/2022 3:00:00 PM 21.17 70.106 0.129 6.91 1.81 8.99
8/22/2022 3:15:00 PM 21.17 70.106 0.129 6.9 1.91 8.89
8/22/2022 3:30:00 PM 21.19 70.142 0.129 6.9 1.88 8.87
8/22/2022 3:45:00 PM 21.2 70.16 0.129 6.9 1.88 8.8
8/22/2022 4:00:00 PM 21.28 70.304 0.129 6.9 1.94 8.78
8/22/2022 4:15:00 PM 21.38 70.484 0.129 6.91 1.91 8.79
8/22/2022 4:30:00 PM 21.44 70.592 0.129 6.93 1.93 8.88
8/22/2022 4:45:00 PM 21.5 70.7 0.129 6.94 1.95 8.95
8/22/2022 5:00:00 PM 21.52 70.736 0.129 6.97 1.96 9.03
8/22/2022 5:15:00 PM 21.59 70.862 0.129 7 1.99 9.13
8/22/2022 5:30:00 PM 21.64 70.952 0.129 7.02 2.02 9.15
8/22/2022 5:45:00 PM 21.69 71.042 0.13 7.04 2.01 9.18
8/22/2022 6:00:00 PM 21.7 71.06 0.13 7.04 2.05 9.12
8/22/2022 6:15:00 PM 21.7 71.06 0.13 7.03 2.24 9.04
8/22/2022 6:30:00 PM 21.69 71.042 0.13 7.02 2.47 8.92
8/22/2022 6:45:00 PM 21.69 71.042 0.13 7.02 2.57 8.8
8/22/2022 7:00:00 PM 21.68 71.024 0.131 7 2.47 8.57
8/22/2022 7:15:00 PM 21.67 71.006 0.13 7 2.97 8.54
8/22/2022 7:30:00 PM 21.65 70.97 0.131 6.98 2.63 8.18
8/22/2022 7:45:00 PM 21.62 70.916 0.132 6.97 4.79 8
8/22/2022 8:00:00 PM 21.57 70.826 0.132 6.96 2.58 7.78
8/22/2022 8:15:00 PM 21.5 70.7 0.132 6.97 2.54 7.62
8/22/2022 8:30:00 PM 21.45 70.61 0.156 6.97 4.06 7.48
8/22/2022 8:45:00 PM 21.37 70.466 0.133 6.95 3.66 7.34
8/22/2022 9:00:00 PM 21.28 70.304 0.133 6.88 2.31 7.3
8/22/2022 9:15:00 PM 21.19 70.142 0.133 6.89 2.3 7.22
8/22/2022 9:30:00 PM 21.11 69.998 0.134 6.89 2.27 7.15
8/22/2022 9:45:00 PM 21.04 69.872 0.135 6.91 2.3 7.13
8/22/2022 10:00:00 PM 20.98 69.764 0.135 6.92 2.13 7.11
8/22/2022 10:15:00 PM 20.92 69.656 0.135 6.93 2.1 7.09
8/22/2022 10:30:00 PM 20.86 69.548 0.134 6.93 2.11 7.08
8/22/2022 10:45:00 PM 20.79 69.422 0.134 6.94 2.15 7.07
8/22/2022 11:00:00 PM 20.73 69.314 0.135 6.93 2.17 7.05
8/22/2022 11:15:00 PM 20.67 69.206 0.135 6.94 2.09 7.08
8/22/2022 11:30:00 PM 20.62 69.116 0.134 6.94 2.13 7.08
8/22/2022 11:45:00 PM 20.58 69.044 0.134 6.94 2.11 7.08
8/23/2022 12:00:00 AM 20.54 68.972 0.134 6.94 2.32 7.07
8/23/2022 12:15:00 AM 20.5 68.9 0.134 6.93 2.11 7.08
8/23/2022 12:30:00 AM 20.47 68.846 0.134 6.93 2.05 7.07
8/23/2022 12:45:00 AM 20.43 68.774 0.134 6.94 2.05 7.06
8/23/2022 1:00:00 AM 20.39 68.702 0.133 6.93 2.59 7.08
8/23/2022 1:15:00 AM 20.35 68.63 0.133 6.94 2.16 7.1
8/23/2022 1:30:00 AM 20.32 68.576 0.133 6.93 2.14 7.11
8/23/2022 1:45:00 AM 20.28 68.504 0.133 6.94 2.07 7.08
8/23/2022 2:00:00 AM 20.25 68.45 0.133 6.94 2.27 7.13
8/23/2022 2:15:00 AM 20.22 68.396 0.133 6.93 2.25 7.07
8/23/2022 2:30:00 AM 20.2 68.36 0.133 6.93 2.09 7.1
8/23/2022 2:45:00 AM 20.17 68.306 0.133 6.93 2.13 7.13
8/23/2022 3:00:00 AM 20.15 68.27 0.133 6.93 2.18 7.02
8/23/2022 3:15:00 AM 20.13 68.234 0.133 6.92 2.28 6.99
8/23/2022 3:30:00 AM 20.11 68.198 0.133 6.91 2.89 7.12
8/23/2022 3:45:00 AM 20.09 68.162 0.133 6.91 2.23 7.11
8/23/2022 4:00:00 AM 20.06 68.108 0.132 6.9 2.22 7.12
8/23/2022 4:15:00 AM 20.04 68.07201 0.133 6.91 3.05 7.12
8/23/2022 4:30:00 AM 20.02 68.036 0.132 6.91 2.26 7.13
8/23/2022 4:45:00 AM 20 68 0.132 6.91 2.33 7.12
8/23/2022 5:00:00 AM 19.98 67.964 0.132 6.89 2.55 7.12
8/23/2022 5:15:00 AM 19.96 67.92799 0.132 6.9 2.42 7.11
8/23/2022 5:30:00 AM 19.95 67.91 0.133 6.9 25.53 7.08
8/23/2022 5:45:00 AM 19.93 67.874 0.132 6.89 2.58 7.07
8/23/2022 6:00:00 AM 19.91 67.838 0.132 6.89 2.58 7.08
8/23/2022 6:15:00 AM 19.89 67.802 0.132 6.87 2.54 7.07
8/23/2022 6:30:00 AM 19.87 67.766 0.132 6.89 3.22 7.06
8/23/2022 6:45:00 AM 19.85 67.73 0.132 6.9 3.32 7.07
8/23/2022 7:00:00 AM 19.83 67.694 0.132 6.88 2.92 7.1
8/23/2022 7:15:00 AM 19.81 67.658 0.132 6.89 2.55 7.12
8/23/2022 7:30:00 AM 19.8 67.64 0.132 6.9 2.58 7.15
8/23/2022 7:45:00 AM 19.79 67.622 0.132 6.91 2.72 7.22
8/23/2022 8:00:00 AM 19.78 67.604 0.132 6.92 4.11 7.32
8/23/2022 8:15:00 AM 19.79 67.622 0.132 6.94 2.88 7.43
8/23/2022 8:30:00 AM 19.8 67.64 0.132 6.95 2.75 7.59
8/23/2022 8:45:00 AM 19.82 67.676 0.132 6.97 2.68 7.76
8/23/2022 9:00:00 AM 19.83 67.694 0.132 6.99 2.51 7.93
8/23/2022 9:15:00 AM 19.85 67.73 0.132 7 2.48 8.02
8/23/2022 9:30:00 AM 19.87 67.766 0.132 7.01 2.73 8.05
8/23/2022 9:45:00 AM 19.89 67.802 0.132 7.02 2.5 8.05
8/23/2022 10:00:00 AM 19.93 67.874 0.132 7.04 2.44 8.27
8/23/2022 10:15:00 AM 19.96 67.92799 0.132 7.07 2.62 8.42
8/23/2022 10:30:00 AM 19.99 67.982 0.132 7.06 2.44 8.41
8/23/2022 10:45:00 AM 20.04 68.07201 0.132 7.06 2.3 8.43
8/23/2022 11:00:00 AM 20.08 68.144 0.131 7.08 2.17 8.52
8/23/2022 11:15:00 AM 20.14 68.252 0.131 7.11 2.36 8.69
8/23/2022 11:30:00 AM 20.22 68.396 0.131 7.13 2.32 8.8
8/23/2022 11:45:00 AM 20.29 68.522 0.131 7.14 2.14 8.86
8/23/2022 12:00:00 PM 20.38 68.684 0.131 7.16 2.2 8.93
8/23/2022 12:15:00 PM 20.51 68.918 0.13 7.2 2.27 9.12
8/23/2022 12:30:00 PM 20.64 69.152 0.13 7.21 2.22 9.22
8/23/2022 12:45:00 PM 20.75 69.35 0.13 7.25 2.18 9.32
8/23/2022 1:00:00 PM 21.04 69.872 0.129 7.31 2.26 9.53
8/23/2022 1:15:00 PM 21.32 70.376 0.129 7.33 2.25 9.62
8/23/2022 1:30:00 PM 21.46 70.628 0.129 7.35 65.19 9.66
8/23/2022 1:45:00 PM 21.62 70.916 0.129 7.38 18.11 9.69
8/23/2022 2:00:00 PM 21.74 71.132 0.129 7.4 34 9.74
8/23/2022 2:15:00 PM 21.93 71.474 0.129 7.41 7.19 9.73
8/23/2022 2:30:00 PM 22.04 71.672 0.128 7.41 3.23 9.73
8/23/2022 2:45:00 PM 22.06 71.708 0.128 7.41 2.7 9.67
8/23/2022 3:00:00 PM 22.03 71.654 0.128 7.41 2.36 9.63
8/23/2022 3:15:00 PM 22.04 71.672 0.128 7.4 2.44 9.57
8/23/2022 3:30:00 PM 22.04 71.672 0.127 7.37 2.3 9.49
8/23/2022 3:45:00 PM 22 71.6 0.128 7.35 2.35 9.31
8/23/2022 4:00:00 PM 21.98 71.564 0.127 7.34 2.24 9.28
8/23/2022 4:15:00 PM 21.93 71.474 0.127 7.31 2.71 9.11
8/23/2022 4:30:00 PM 21.87 71.366 0.127 7.29 13.45 8.97
8/23/2022 4:45:00 PM 21.82 71.276 0.127 7.25 3.45 8.79
8/23/2022 5:00:00 PM 21.75 71.15 0.127 7.23 2.97 8.63
8/23/2022 5:15:00 PM 21.74 71.132 0.127 7.23 2.31 8.59
8/23/2022 5:30:00 PM 21.74 71.132 0.127 7.23 2.33 8.58
8/23/2022 5:45:00 PM 21.77 71.186 0.127 7.24 2.36 8.67
8/23/2022 6:00:00 PM 21.79 71.222 0.127 7.25 3.13 8.73
8/23/2022 6:15:00 PM 21.8 71.24 0.127 7.28 7.55 8.83
8/23/2022 6:30:00 PM 21.79 71.222 0.127 7.26 14.22 8.73
8/23/2022 6:45:00 PM 21.76 71.168 0.128 7.24 21.19 8.58
8/23/2022 7:00:00 PM 21.71 71.078 0.128 7.21 19.25 8.45
8/23/2022 7:15:00 PM 21.64 70.952 0.128 7.18 20.84 8.29
8/23/2022 7:30:00 PM 21.56 70.808 0.128 7.15 18.22 8.14
8/23/2022 7:45:00 PM 21.48 70.664 0.128 7.12 16.19 7.99
8/23/2022 8:00:00 PM 21.4 70.52 0.128 7.08 13.71 7.82
8/23/2022 8:15:00 PM 21.31 70.358 0.129 7.06 12.51 7.68
8/23/2022 8:30:00 PM 21.22 70.196 0.129 7.03 10.08 7.55
8/23/2022 8:45:00 PM 21.12 70.016 0.128 7.01 8.33 7.43
8/23/2022 9:00:00 PM 21.04 69.872 0.129 6.99 7.53 7.33
8/23/2022 9:15:00 PM 20.95 69.71 0.129 6.97 7.38 7.24
8/23/2022 9:30:00 PM 20.88 69.584 0.129 6.94 6.44 7.15
8/23/2022 9:45:00 PM 20.8 69.44 0.129 6.94 6.14 7.09
8/23/2022 10:00:00 PM 20.71 69.278 0.129 6.92 5.59 7.05
8/23/2022 10:15:00 PM 20.62 69.116 0.129 6.91 5.82 7.01
8/23/2022 10:30:00 PM 20.54 68.972 0.129 6.9 5.45 6.97
8/23/2022 10:45:00 PM 20.46 68.828 0.129 6.88 4.87 6.94
8/23/2022 11:00:00 PM 20.38 68.684 0.129 6.86 4.74 6.92
8/23/2022 11:15:00 PM 20.31 68.558 0.129 6.86 4.41 6.9
8/23/2022 11:30:00 PM 20.23 68.414 0.129 6.87 4.19 6.89
8/23/2022 11:45:00 PM 20.17 68.306 0.129 6.87 5.86 6.89
8/24/2022 12:00:00 AM 20.11 68.198 0.129 6.87 5.37 6.88
8/24/2022 12:15:00 AM 20.03 68.054 0.129 6.86 3.74 6.88
8/24/2022 12:30:00 AM 19.97 67.946 0.13 6.85 14.57 6.88
8/24/2022 12:45:00 AM 19.91 67.838 0.13 6.85 3.71 6.91
8/24/2022 1:00:00 AM 19.84 67.712 0.13 6.84 3.67 6.93
8/24/2022 1:15:00 AM 19.79 67.622 0.131 6.83 3.83 6.95
8/24/2022 1:30:00 AM 19.74 67.532 0.131 6.84 3.71 6.97
8/24/2022 1:45:00 AM 19.68 67.424 0.131 6.86 3.89 6.99
8/24/2022 2:00:00 AM 19.62 67.316 0.131 6.85 3.48 7
8/24/2022 2:15:00 AM 19.56 67.208 0.131 6.86 3.6 7.02
8/24/2022 2:30:00 AM 19.5 67.1 0.131 6.86 3.64 7.04
8/24/2022 2:45:00 AM 19.44 66.992 0.132 6.86 4.93 7.05
8/24/2022 3:00:00 AM 19.38 66.884 0.132 6.85 4.5 7.08
8/24/2022 3:15:00 AM 19.31 66.758 0.132 6.85 3.81 7.11
8/24/2022 3:30:00 AM 19.26 66.668 0.132 6.84 3.98 7.1
8/24/2022 3:45:00 AM 19.21 66.578 0.132 6.84 4.2 7.09
8/24/2022 4:00:00 AM 19.15 66.47 0.132 6.85 3.91 7.11
8/24/2022 4:15:00 AM 19.1 66.38 0.133 6.84 3.79 7.11
8/24/2022 4:30:00 AM 19.05 66.29 0.133 6.84 3.93 7.12
8/24/2022 4:45:00 AM 18.99 66.182 0.133 6.83 3.87 7.12
8/24/2022 5:00:00 AM 18.93 66.074 0.133 6.83 3.46 7.13
8/24/2022 5:15:00 AM 18.87 65.966 0.133 6.83 3.45 7.16
8/24/2022 5:30:00 AM 18.83 65.894 0.133 6.83 3.53 7.16
8/24/2022 5:45:00 AM 18.78 65.804 0.133 6.79 7.27 7.17
8/24/2022 6:00:00 AM 18.73 65.714 0.133 6.77 22.1 7.17
8/24/2022 6:15:00 AM 18.66 65.588 0.133 6.78 4.08 7.2
8/24/2022 6:30:00 AM 18.62 65.516 0.133 6.82 3.87 7.19
8/24/2022 6:45:00 AM 18.57 65.426 0.133 6.82 3.73 7.22
8/24/2022 7:00:00 AM 18.52 65.336 0.133 6.82 3.73 7.24
8/24/2022 7:15:00 AM 18.48 65.264 0.133 6.83 3.55 7.3
8/24/2022 7:30:00 AM 18.46 65.228 0.133 6.84 3.55 7.35
8/24/2022 7:45:00 AM 18.42 65.156 0.133 6.85 3.55 7.46
8/24/2022 8:00:00 AM 18.41 65.138 0.133 6.85 3.85 7.52
8/24/2022 8:15:00 AM 18.41 65.138 0.133 6.87 3.71 7.65
8/24/2022 8:30:00 AM 18.4 65.12 0.133 6.89 3.46 7.76
8/24/2022 8:45:00 AM 18.4 65.12 0.133 6.9 3.59 7.82
8/24/2022 9:00:00 AM 18.42 65.156 0.133 6.92 3.75 7.94
8/24/2022 9:15:00 AM 18.46 65.228 0.133 6.93 3.71 7.99
8/24/2022 9:30:00 AM 18.51 65.318 0.133 6.94 3.62 8.12
8/24/2022 9:45:00 AM 18.58 65.444 0.133 6.96 3.59 8.23
8/24/2022 10:00:00 AM 18.68 65.624 0.133 6.98 3.79 8.41
8/24/2022 10:15:00 AM 18.8 65.84 0.132 7.01 3.63 8.57
8/24/2022 10:30:00 AM 18.92 66.056 0.132 7.04 3.63 8.73
8/24/2022 10:45:00 AM 19.09 66.362 0.132 7.06 3.71 8.86
8/24/2022 11:00:00 AM 19.26 66.668 0.132 7.09 4.18 8.99
8/24/2022 11:15:00 AM 19.41 66.938 0.132 7.11 3.87 9.1
8/24/2022 11:30:00 AM 19.63 67.334 0.132 7.14 3.81 9.23
8/24/2022 11:45:00 AM 19.87 67.766 0.132 7.17 4.74 9.34
8/24/2022 12:00:00 PM 20.14 68.252 0.132 7.2 3.82 9.47
8/24/2022 12:15:00 PM 20.41 68.738 0.132 7.23 3.79 9.59
8/24/2022 12:30:00 PM 20.63 69.134 0.132 7.26 3.94 9.69
8/24/2022 12:45:00 PM 20.9 69.62 0.132 7.29 5.14 9.78
8/24/2022 1:00:00 PM 21.05 69.89 0.132 7.31 4 9.83
8/24/2022 1:15:00 PM 21.21 70.17799 0.132 7.33 3.98 9.87
8/24/2022 1:30:00 PM 21.33 70.394 0.132 7.34 4.76 9.91
8/24/2022 1:45:00 PM 21.48 70.664 0.132 7.38 4.22 10.01
8/24/2022 2:00:00 PM 21.58 70.844 0.132 7.4 4.64 10.02
8/24/2022 2:15:00 PM 21.76 71.168 0.132 7.42 5.32 10.07
8/24/2022 2:30:00 PM 21.88 71.384 0.132 7.45 4.55 10.13
8/24/2022 2:45:00 PM 22.05 71.69 0.131 7.48 4.04 10.2
8/24/2022 3:00:00 PM 22.28 72.104 0.131 7.49 5.41 10.17
8/24/2022 3:15:00 PM 22.42 72.356 0.131 7.49 4.52 10.12
8/24/2022 3:30:00 PM 22.56 72.608 0.131 7.5 4.4 10.14
8/24/2022 3:45:00 PM 22.7 72.86 0.131 7.49 4.14 10.05
8/24/2022 4:00:00 PM 22.85 73.13 0.131 7.53 4.89 10.11
8/24/2022 4:15:00 PM 23 73.4 0.131 7.52 4.22 9.99
8/24/2022 4:30:00 PM 23.05 73.49 0.131 7.52 5.63 9.97
8/24/2022 4:45:00 PM 23.21 73.778 0.129 7.52 8.48 9.93
8/24/2022 5:00:00 PM 23.28 73.904 0.131 7.52 4.45 9.9
8/24/2022 5:15:00 PM 23.29 73.922 0.131 7.48 4.3 9.76
8/24/2022 5:30:00 PM 23.34 74.012 0.131 7.5 4.18 9.78
8/24/2022 5:45:00 PM 23.33 73.994 0.131 7.49 5.05 9.73
8/24/2022 6:00:00 PM 23.27 73.886 0.131 7.5 4.52 9.73
8/24/2022 6:15:00 PM 23.26 73.868 0.131 7.5 4.23 9.73
8/24/2022 6:30:00 PM 23.23 73.814 0.131 7.47 7.71 9.57
8/24/2022 6:45:00 PM 23.16 73.688 0.131 7.37 4.17 9.19
8/24/2022 7:00:00 PM 23.08 73.544 0.131 7.33 4.32 9.01
8/24/2022 7:15:00 PM 22.99 73.382 0.131 7.26 6.18 8.72
8/24/2022 7:30:00 PM 22.9 73.22 0.131 7.21 4.22 8.49
8/24/2022 7:45:00 PM 22.81 73.058 0.131 7.17 4.64 8.35
8/24/2022 8:00:00 PM 22.69 72.842 0.132 7.1 4.47 8.07
8/24/2022 8:15:00 PM 22.57 72.626 0.132 7.05 4.44 7.86
8/24/2022 8:30:00 PM 22.44 72.392 0.132 7.03 4.84 7.67
8/24/2022 8:45:00 PM 22.32 72.176 0.132 6.99 4.42 7.51
8/24/2022 9:00:00 PM 22.2 71.96 0.132 6.96 4.48 7.38
8/24/2022 9:15:00 PM 22.07 71.726 0.132 6.93 4.69 7.17
8/24/2022 9:30:00 PM 21.94 71.492 0.133 6.93 4.98 7
8/24/2022 9:45:00 PM 21.81 71.258 0.133 6.91 4.97 6.89
8/24/2022 10:00:00 PM 21.68 71.024 0.133 6.89 4.58 6.77
8/24/2022 10:15:00 PM 21.57 70.826 0.133 6.88 4.79 6.69
8/24/2022 10:30:00 PM 21.47 70.646 0.133 6.87 6.71 6.64
8/24/2022 10:45:00 PM 21.38 70.484 0.133 6.83 11.18 6.53
8/24/2022 11:00:00 PM 21.23 70.214 0.134 6.83 6.66 6.5
8/24/2022 11:15:00 PM 21.15 70.07 0.134 6.83 6.52 6.43
8/24/2022 11:30:00 PM 21.03 69.854 0.134 6.82 7.5 6.42
8/24/2022 11:45:00 PM 20.92 69.656 0.134 6.8 14.23 6.36
8/25/2022 12:00:00 AM 20.79 69.422 0.134 6.8 7.6 6.42
8/25/2022 12:15:00 AM 20.71 69.278 0.134 6.8 10.79 6.4
8/25/2022 12:30:00 AM 20.6 69.08 0.134 6.77 10.43 6.42
8/25/2022 12:45:00 AM 20.46 68.828 0.134 6.81 8.02 6.49
8/25/2022 1:00:00 AM 20.37 68.666 0.134 6.78 5.59 6.5
8/25/2022 1:15:00 AM 20.27 68.486 0.134 6.77 6 6.49
8/25/2022 1:30:00 AM 20.19 68.342 0.134 6.77 5.25 6.49
8/25/2022 1:45:00 AM 20.09 68.162 0.134 6.78 5.62 6.47
8/25/2022 2:00:00 AM 20.01 68.018 0.134 6.76 7.48 6.5
8/25/2022 2:15:00 AM 19.92 67.856 0.135 6.75 11.02 6.5
8/25/2022 2:30:00 AM 19.86 67.748 0.135 6.77 6.48 6.52
8/25/2022 2:45:00 AM 19.76 67.568 0.135 6.77 5.99 6.53
8/25/2022 3:00:00 AM 19.68 67.424 0.134 6.77 6.84 6.52
8/25/2022 3:15:00 AM 19.61 67.298 0.134 6.77 8.24 6.53
8/25/2022 3:30:00 AM 19.58 67.244 0.135 6.76 11.34 6.54
8/25/2022 3:45:00 AM 19.47 67.046 0.136 6.76 11.99 6.54
8/25/2022 4:00:00 AM 19.41 66.938 0.134 6.75 8.73 6.56
8/25/2022 4:15:00 AM 19.35 66.83 0.134 6.75 12.25 6.55
8/25/2022 4:30:00 AM 19.26 66.668 0.135 6.74 9.38 6.56
8/25/2022 4:45:00 AM 19.22 66.596 0.135 6.73 19.54 6.55
8/25/2022 5:00:00 AM 19.13 66.434 0.135 6.74 7.59 6.58
8/25/2022 5:15:00 AM 19.09 66.362 0.134 6.74 8.37 6.57
8/25/2022 5:30:00 AM 19.01 66.218 0.134 6.74 8 6.58
8/25/2022 5:45:00 AM 18.95 66.11 0.134 6.74 9.39 6.59
8/25/2022 6:00:00 AM 18.9 66.02 0.134 6.72 10.87 6.58
8/25/2022 6:15:00 AM 18.83 65.894 0.135 6.71 10.7 6.57
8/25/2022 6:30:00 AM 18.78 65.804 0.135 6.72 39.25 6.59
8/25/2022 6:45:00 AM 18.7 65.66 0.135 6.7 276.68 6.62
8/25/2022 7:00:00 AM 18.66 65.588 0.135 6.7 7.82 6.62
8/25/2022 7:15:00 AM 18.6 65.48 0.135 6.7 7.35 6.65
8/25/2022 7:30:00 AM 18.56 65.408 0.135 6.71 8.58 6.69
8/25/2022 7:45:00 AM 18.52 65.336 0.135 6.71 7.77 6.74
8/25/2022 8:00:00 AM 18.48 65.264 0.135 6.72 8.61 6.81
8/25/2022 8:15:00 AM 18.46 65.228 0.135 6.73 8.19 6.89
8/25/2022 8:30:00 AM 18.44 65.192 0.135 6.74 8.39 6.97
8/25/2022 8:45:00 AM 18.43 65.174 0.135 6.74 8.86 7.04
8/25/2022 9:00:00 AM 18.43 65.174 0.135 6.74 8.26 7.08
8/25/2022 9:15:00 AM 18.47 65.246 0.135 6.78 9.39 7.38
8/25/2022 9:30:00 AM 18.54 65.372 0.135 6.81 9.42 7.62
8/25/2022 9:45:00 AM 18.65 65.57 0.134 6.83 8.64 7.82
8/25/2022 10:00:00 AM 18.76 65.768 0.135 6.85 8.32 8.01
8/25/2022 10:15:00 AM 18.92 66.056 0.134 6.87 8.02 8.19
8/25/2022 10:30:00 AM 19.03 66.254 0.134 6.89 8.48 8.35
8/25/2022 10:45:00 AM 19.16 66.488